<?xml version="1.0" encoding="UTF-8" standalone="no" ?>
<gpx xmlns="http://www.topografix.com/GPX/1/1" xmlns:xsi="http://www.w3.org/2001/XMLSchema-instance" xsi:schemaLocation="http://www.topografix.com/GPX/1/1 http://www.topografix.com/GPX/1/1/gpx.xsd" version="1.1" creator="VisuGPX - https://www.visugpx.com">
  <metadata>
    <name>Le Télégraphe</name>
    <desc><![CDATA[
Départ des Plaines Baronnes,
détour par le Colombarium (Aven) du grand Caunet.
Sans difficulté.]]></desc>
  </metadata>
  <wpt lat="43.19316" lon="5.66077">
    <ele>67.8</ele>
    <name><![CDATA[Repecho de 10% durante 212 metros]]></name>
  </wpt>
  <wpt lat="43.20196" lon="5.66335">
    <ele>158.1</ele>
    <name><![CDATA[Repecho de 11% durante 104 metros]]></name>
  </wpt>
  <wpt lat="43.20498" lon="5.6727">
    <ele>197.7</ele>
    <name><![CDATA[Repecho de 12% durante 599 metros]]></name>
  </wpt>
  <wpt lat="43.23239" lon="5.67336">
    <ele>402.9</ele>
    <name><![CDATA[Repecho de 12% durante 103 metros]]></name>
  </wpt>
  <trk>
    <name><![CDATA[www.ibpindex.com 38735496379883]]></name>
    <desc><![CDATA[www.ibpindex.com 38735496379883]]></desc>
    <trkseg>
      <trkpt lat="43.19203" lon="5.65802">
        <ele>61.3</ele>
        <time>2022-09-28T08:13:14Z</time>
      </trkpt>
      <trkpt lat="43.19199" lon="5.65803">
        <ele>62.2</ele>
        <time>2022-09-28T08:15:24Z</time>
      </trkpt>
      <trkpt lat="43.192" lon="5.65816">
        <ele>61.2</ele>
        <time>2022-09-28T08:15:40Z</time>
      </trkpt>
      <trkpt lat="43.192" lon="5.65831">
        <ele>60.5</ele>
        <time>2022-09-28T08:15:52Z</time>
      </trkpt>
      <trkpt lat="43.19202" lon="5.65846">
        <ele>59.8</ele>
        <time>2022-09-28T08:16:02Z</time>
      </trkpt>
      <trkpt lat="43.19204" lon="5.65863">
        <ele>59.3</ele>
        <time>2022-09-28T08:16:14Z</time>
      </trkpt>
      <trkpt lat="43.19206" lon="5.65879">
        <ele>60</ele>
        <time>2022-09-28T08:16:24Z</time>
      </trkpt>
      <trkpt lat="43.19208" lon="5.65891">
        <ele>60.5</ele>
        <time>2022-09-28T08:16:32Z</time>
      </trkpt>
      <trkpt lat="43.19211" lon="5.65908">
        <ele>60.2</ele>
        <time>2022-09-28T08:16:44Z</time>
      </trkpt>
      <trkpt lat="43.19214" lon="5.6592">
        <ele>59.9</ele>
        <time>2022-09-28T08:16:52Z</time>
      </trkpt>
      <trkpt lat="43.19216" lon="5.65935">
        <ele>59.6</ele>
        <time>2022-09-28T08:17:02Z</time>
      </trkpt>
      <trkpt lat="43.19219" lon="5.65951">
        <ele>59.1</ele>
        <time>2022-09-28T08:17:12Z</time>
      </trkpt>
      <trkpt lat="43.19222" lon="5.65964">
        <ele>58.3</ele>
        <time>2022-09-28T08:17:20Z</time>
      </trkpt>
      <trkpt lat="43.19225" lon="5.65976">
        <ele>57</ele>
        <time>2022-09-28T08:17:28Z</time>
      </trkpt>
      <trkpt lat="43.19227" lon="5.65994">
        <ele>57.1</ele>
        <time>2022-09-28T08:17:40Z</time>
      </trkpt>
      <trkpt lat="43.19232" lon="5.66008">
        <ele>57.2</ele>
        <time>2022-09-28T08:17:50Z</time>
      </trkpt>
      <trkpt lat="43.19237" lon="5.66022">
        <ele>58.5</ele>
        <time>2022-09-28T08:18:00Z</time>
      </trkpt>
      <trkpt lat="43.19239" lon="5.66038">
        <ele>59.8</ele>
        <time>2022-09-28T08:18:12Z</time>
      </trkpt>
      <trkpt lat="43.19246" lon="5.6605">
        <ele>60.5</ele>
        <time>2022-09-28T08:18:24Z</time>
      </trkpt>
      <trkpt lat="43.19257" lon="5.66051">
        <ele>61.4</ele>
        <time>2022-09-28T08:18:36Z</time>
      </trkpt>
      <trkpt lat="43.19268" lon="5.6605">
        <ele>62.4</ele>
        <time>2022-09-28T08:18:50Z</time>
      </trkpt>
      <trkpt lat="43.19277" lon="5.66056">
        <ele>63.9</ele>
        <time>2022-09-28T08:19:02Z</time>
      </trkpt>
      <trkpt lat="43.19286" lon="5.66063">
        <ele>64.9</ele>
        <time>2022-09-28T08:19:14Z</time>
      </trkpt>
      <trkpt lat="43.19295" lon="5.66068">
        <ele>65.9</ele>
        <time>2022-09-28T08:19:26Z</time>
      </trkpt>
      <trkpt lat="43.19305" lon="5.66072">
        <ele>67</ele>
        <time>2022-09-28T08:19:38Z</time>
      </trkpt>
      <trkpt lat="43.19316" lon="5.66077">
        <ele>67.8</ele>
        <time>2022-09-28T08:19:50Z</time>
      </trkpt>
      <trkpt lat="43.19326" lon="5.66077">
        <ele>68.6</ele>
        <time>2022-09-28T08:20:04Z</time>
      </trkpt>
      <trkpt lat="43.19336" lon="5.66077">
        <ele>69.5</ele>
        <time>2022-09-28T08:20:16Z</time>
      </trkpt>
      <trkpt lat="43.19346" lon="5.66076">
        <ele>70.5</ele>
        <time>2022-09-28T08:20:28Z</time>
      </trkpt>
      <trkpt lat="43.19358" lon="5.66079">
        <ele>71.6</ele>
        <time>2022-09-28T08:20:40Z</time>
      </trkpt>
      <trkpt lat="43.19369" lon="5.66078">
        <ele>72.6</ele>
        <time>2022-09-28T08:20:52Z</time>
      </trkpt>
      <trkpt lat="43.19379" lon="5.66084">
        <ele>73.3</ele>
        <time>2022-09-28T08:21:04Z</time>
      </trkpt>
      <trkpt lat="43.19391" lon="5.66085">
        <ele>74.1</ele>
        <time>2022-09-28T08:21:16Z</time>
      </trkpt>
      <trkpt lat="43.194" lon="5.66088">
        <ele>75.1</ele>
        <time>2022-09-28T08:21:28Z</time>
      </trkpt>
      <trkpt lat="43.19409" lon="5.66092">
        <ele>75.9</ele>
        <time>2022-09-28T08:21:40Z</time>
      </trkpt>
      <trkpt lat="43.1942" lon="5.66097">
        <ele>76.7</ele>
        <time>2022-09-28T08:21:52Z</time>
      </trkpt>
      <trkpt lat="43.19432" lon="5.661">
        <ele>77.5</ele>
        <time>2022-09-28T08:22:04Z</time>
      </trkpt>
      <trkpt lat="43.19441" lon="5.66101">
        <ele>78.1</ele>
        <time>2022-09-28T08:22:16Z</time>
      </trkpt>
      <trkpt lat="43.19452" lon="5.66103">
        <ele>79.1</ele>
        <time>2022-09-28T08:22:28Z</time>
      </trkpt>
      <trkpt lat="43.19462" lon="5.66107">
        <ele>80</ele>
        <time>2022-09-28T08:22:40Z</time>
      </trkpt>
      <trkpt lat="43.19472" lon="5.66113">
        <ele>80.9</ele>
        <time>2022-09-28T08:22:52Z</time>
      </trkpt>
      <trkpt lat="43.19481" lon="5.66116">
        <ele>81.8</ele>
        <time>2022-09-28T08:23:04Z</time>
      </trkpt>
      <trkpt lat="43.1949" lon="5.66123">
        <ele>82.4</ele>
        <time>2022-09-28T08:23:16Z</time>
      </trkpt>
      <trkpt lat="43.19499" lon="5.66127">
        <ele>83.3</ele>
        <time>2022-09-28T08:23:30Z</time>
      </trkpt>
      <trkpt lat="43.1951" lon="5.6613">
        <ele>84.6</ele>
        <time>2022-09-28T08:23:40Z</time>
      </trkpt>
      <trkpt lat="43.1952" lon="5.66129">
        <ele>85.9</ele>
        <time>2022-09-28T08:23:52Z</time>
      </trkpt>
      <trkpt lat="43.19531" lon="5.66133">
        <ele>87.4</ele>
        <time>2022-09-28T08:24:04Z</time>
      </trkpt>
      <trkpt lat="43.19541" lon="5.66137">
        <ele>88.4</ele>
        <time>2022-09-28T08:24:16Z</time>
      </trkpt>
      <trkpt lat="43.19552" lon="5.66141">
        <ele>89.6</ele>
        <time>2022-09-28T08:24:30Z</time>
      </trkpt>
      <trkpt lat="43.19562" lon="5.66145">
        <ele>90.7</ele>
        <time>2022-09-28T08:24:42Z</time>
      </trkpt>
      <trkpt lat="43.19572" lon="5.66147">
        <ele>91.8</ele>
        <time>2022-09-28T08:24:54Z</time>
      </trkpt>
      <trkpt lat="43.19582" lon="5.66152">
        <ele>92.8</ele>
        <time>2022-09-28T08:25:06Z</time>
      </trkpt>
      <trkpt lat="43.19592" lon="5.66153">
        <ele>93.9</ele>
        <time>2022-09-28T08:25:18Z</time>
      </trkpt>
      <trkpt lat="43.19604" lon="5.66156">
        <ele>95.2</ele>
        <time>2022-09-28T08:25:32Z</time>
      </trkpt>
      <trkpt lat="43.19613" lon="5.66161">
        <ele>96.1</ele>
        <time>2022-09-28T08:25:44Z</time>
      </trkpt>
      <trkpt lat="43.19621" lon="5.6617">
        <ele>96.7</ele>
        <time>2022-09-28T08:25:58Z</time>
      </trkpt>
      <trkpt lat="43.19629" lon="5.66179">
        <ele>97.3</ele>
        <time>2022-09-28T08:26:10Z</time>
      </trkpt>
      <trkpt lat="43.19639" lon="5.66186">
        <ele>98</ele>
        <time>2022-09-28T08:26:22Z</time>
      </trkpt>
      <trkpt lat="43.1965" lon="5.66183">
        <ele>99.6</ele>
        <time>2022-09-28T08:26:34Z</time>
      </trkpt>
      <trkpt lat="43.19661" lon="5.66184">
        <ele>101.2</ele>
        <time>2022-09-28T08:26:50Z</time>
      </trkpt>
      <trkpt lat="43.19672" lon="5.66187">
        <ele>102.6</ele>
        <time>2022-09-28T08:27:04Z</time>
      </trkpt>
      <trkpt lat="43.19683" lon="5.66184">
        <ele>103.8</ele>
        <time>2022-09-28T08:27:18Z</time>
      </trkpt>
      <trkpt lat="43.19694" lon="5.66185">
        <ele>105</ele>
        <time>2022-09-28T08:27:32Z</time>
      </trkpt>
      <trkpt lat="43.19705" lon="5.66185">
        <ele>106.1</ele>
        <time>2022-09-28T08:27:44Z</time>
      </trkpt>
      <trkpt lat="43.19714" lon="5.66184">
        <ele>107.2</ele>
        <time>2022-09-28T08:27:56Z</time>
      </trkpt>
      <trkpt lat="43.19723" lon="5.66191">
        <ele>108.2</ele>
        <time>2022-09-28T08:28:08Z</time>
      </trkpt>
      <trkpt lat="43.19732" lon="5.662">
        <ele>109.6</ele>
        <time>2022-09-28T08:28:20Z</time>
      </trkpt>
      <trkpt lat="43.1974" lon="5.66209">
        <ele>111.1</ele>
        <time>2022-09-28T08:28:32Z</time>
      </trkpt>
      <trkpt lat="43.19749" lon="5.66215">
        <ele>112.6</ele>
        <time>2022-09-28T08:28:44Z</time>
      </trkpt>
      <trkpt lat="43.19759" lon="5.6622">
        <ele>113.9</ele>
        <time>2022-09-28T08:28:56Z</time>
      </trkpt>
      <trkpt lat="43.19769" lon="5.66224">
        <ele>115.2</ele>
        <time>2022-09-28T08:29:10Z</time>
      </trkpt>
      <trkpt lat="43.1978" lon="5.66228">
        <ele>116.4</ele>
        <time>2022-09-28T08:29:22Z</time>
      </trkpt>
      <trkpt lat="43.1979" lon="5.66232">
        <ele>117.2</ele>
        <time>2022-09-28T08:29:34Z</time>
      </trkpt>
      <trkpt lat="43.198" lon="5.66236">
        <ele>118.1</ele>
        <time>2022-09-28T08:29:46Z</time>
      </trkpt>
      <trkpt lat="43.19811" lon="5.66236">
        <ele>119.1</ele>
        <time>2022-09-28T08:30:00Z</time>
      </trkpt>
      <trkpt lat="43.19822" lon="5.6624">
        <ele>120.4</ele>
        <time>2022-09-28T08:30:12Z</time>
      </trkpt>
      <trkpt lat="43.19831" lon="5.66244">
        <ele>121.5</ele>
        <time>2022-09-28T08:30:24Z</time>
      </trkpt>
      <trkpt lat="43.19841" lon="5.66241">
        <ele>122.2</ele>
        <time>2022-09-28T08:30:36Z</time>
      </trkpt>
      <trkpt lat="43.19851" lon="5.66241">
        <ele>123</ele>
        <time>2022-09-28T08:30:48Z</time>
      </trkpt>
      <trkpt lat="43.19862" lon="5.66243">
        <ele>123.9</ele>
        <time>2022-09-28T08:31:00Z</time>
      </trkpt>
      <trkpt lat="43.19873" lon="5.66246">
        <ele>125.1</ele>
        <time>2022-09-28T08:31:12Z</time>
      </trkpt>
      <trkpt lat="43.19884" lon="5.66246">
        <ele>126.3</ele>
        <time>2022-09-28T08:31:26Z</time>
      </trkpt>
      <trkpt lat="43.19895" lon="5.66244">
        <ele>127.4</ele>
        <time>2022-09-28T08:31:38Z</time>
      </trkpt>
      <trkpt lat="43.19906" lon="5.66244">
        <ele>128.6</ele>
        <time>2022-09-28T08:31:50Z</time>
      </trkpt>
      <trkpt lat="43.19916" lon="5.66245">
        <ele>129.7</ele>
        <time>2022-09-28T08:32:02Z</time>
      </trkpt>
      <trkpt lat="43.19927" lon="5.66242">
        <ele>130.8</ele>
        <time>2022-09-28T08:32:16Z</time>
      </trkpt>
      <trkpt lat="43.19937" lon="5.66243">
        <ele>132</ele>
        <time>2022-09-28T08:32:28Z</time>
      </trkpt>
      <trkpt lat="43.19947" lon="5.66246">
        <ele>133.1</ele>
        <time>2022-09-28T08:32:40Z</time>
      </trkpt>
      <trkpt lat="43.19957" lon="5.66248">
        <ele>133.8</ele>
        <time>2022-09-28T08:32:52Z</time>
      </trkpt>
      <trkpt lat="43.19967" lon="5.66252">
        <ele>134.7</ele>
        <time>2022-09-28T08:33:04Z</time>
      </trkpt>
      <trkpt lat="43.19977" lon="5.66256">
        <ele>135.8</ele>
        <time>2022-09-28T08:33:16Z</time>
      </trkpt>
      <trkpt lat="43.19989" lon="5.66258">
        <ele>136.7</ele>
        <time>2022-09-28T08:33:28Z</time>
      </trkpt>
      <trkpt lat="43.19997" lon="5.66266">
        <ele>137.9</ele>
        <time>2022-09-28T08:33:40Z</time>
      </trkpt>
      <trkpt lat="43.20004" lon="5.66275">
        <ele>139.1</ele>
        <time>2022-09-28T08:33:52Z</time>
      </trkpt>
      <trkpt lat="43.20012" lon="5.66283">
        <ele>140.4</ele>
        <time>2022-09-28T08:34:04Z</time>
      </trkpt>
      <trkpt lat="43.20021" lon="5.66287">
        <ele>141.5</ele>
        <time>2022-09-28T08:34:16Z</time>
      </trkpt>
      <trkpt lat="43.20032" lon="5.66294">
        <ele>143</ele>
        <time>2022-09-28T08:34:32Z</time>
      </trkpt>
      <trkpt lat="43.20042" lon="5.66298">
        <ele>144.2</ele>
        <time>2022-09-28T08:34:44Z</time>
      </trkpt>
      <trkpt lat="43.20049" lon="5.66305">
        <ele>145.5</ele>
        <time>2022-09-28T08:37:54Z</time>
      </trkpt>
      <trkpt lat="43.20061" lon="5.66308">
        <ele>146.4</ele>
        <time>2022-09-28T08:38:16Z</time>
      </trkpt>
      <trkpt lat="43.20071" lon="5.66313">
        <ele>147.4</ele>
        <time>2022-09-28T08:38:32Z</time>
      </trkpt>
      <trkpt lat="43.20081" lon="5.66317">
        <ele>148.2</ele>
        <time>2022-09-28T08:38:46Z</time>
      </trkpt>
      <trkpt lat="43.20093" lon="5.66317">
        <ele>149.4</ele>
        <time>2022-09-28T08:39:00Z</time>
      </trkpt>
      <trkpt lat="43.20104" lon="5.66317">
        <ele>150.3</ele>
        <time>2022-09-28T08:39:12Z</time>
      </trkpt>
      <trkpt lat="43.20114" lon="5.66317">
        <ele>151.2</ele>
        <time>2022-09-28T08:39:24Z</time>
      </trkpt>
      <trkpt lat="43.20124" lon="5.66318">
        <ele>151.9</ele>
        <time>2022-09-28T08:39:36Z</time>
      </trkpt>
      <trkpt lat="43.20134" lon="5.6632">
        <ele>152.7</ele>
        <time>2022-09-28T08:39:48Z</time>
      </trkpt>
      <trkpt lat="43.20143" lon="5.66322">
        <ele>153.5</ele>
        <time>2022-09-28T08:40:00Z</time>
      </trkpt>
      <trkpt lat="43.20154" lon="5.66326">
        <ele>154.6</ele>
        <time>2022-09-28T08:40:12Z</time>
      </trkpt>
      <trkpt lat="43.20163" lon="5.6633">
        <ele>155.7</ele>
        <time>2022-09-28T08:40:24Z</time>
      </trkpt>
      <trkpt lat="43.20174" lon="5.66332">
        <ele>156.5</ele>
        <time>2022-09-28T08:40:36Z</time>
      </trkpt>
      <trkpt lat="43.20184" lon="5.66334">
        <ele>157.3</ele>
        <time>2022-09-28T08:40:48Z</time>
      </trkpt>
      <trkpt lat="43.20196" lon="5.66335">
        <ele>158.1</ele>
        <time>2022-09-28T08:41:00Z</time>
      </trkpt>
      <trkpt lat="43.20206" lon="5.66336">
        <ele>159.2</ele>
        <time>2022-09-28T08:41:12Z</time>
      </trkpt>
      <trkpt lat="43.20215" lon="5.66339">
        <ele>160.2</ele>
        <time>2022-09-28T08:41:24Z</time>
      </trkpt>
      <trkpt lat="43.20224" lon="5.66343">
        <ele>161.3</ele>
        <time>2022-09-28T08:41:36Z</time>
      </trkpt>
      <trkpt lat="43.20234" lon="5.66351">
        <ele>162.5</ele>
        <time>2022-09-28T08:41:48Z</time>
      </trkpt>
      <trkpt lat="43.20243" lon="5.66355">
        <ele>163.9</ele>
        <time>2022-09-28T08:42:00Z</time>
      </trkpt>
      <trkpt lat="43.20253" lon="5.66356">
        <ele>165.2</ele>
        <time>2022-09-28T08:42:12Z</time>
      </trkpt>
      <trkpt lat="43.20263" lon="5.6636">
        <ele>166.9</ele>
        <time>2022-09-28T08:42:26Z</time>
      </trkpt>
      <trkpt lat="43.20275" lon="5.66365">
        <ele>168.6</ele>
        <time>2022-09-28T08:42:42Z</time>
      </trkpt>
      <trkpt lat="43.20283" lon="5.66372">
        <ele>169.6</ele>
        <time>2022-09-28T08:42:54Z</time>
      </trkpt>
      <trkpt lat="43.20294" lon="5.66376">
        <ele>170.7</ele>
        <time>2022-09-28T08:43:06Z</time>
      </trkpt>
      <trkpt lat="43.20304" lon="5.66378">
        <ele>171.8</ele>
        <time>2022-09-28T08:43:18Z</time>
      </trkpt>
      <trkpt lat="43.20315" lon="5.66385">
        <ele>173</ele>
        <time>2022-09-28T08:43:30Z</time>
      </trkpt>
      <trkpt lat="43.20322" lon="5.66395">
        <ele>173.8</ele>
        <time>2022-09-28T08:43:40Z</time>
      </trkpt>
      <trkpt lat="43.20331" lon="5.66403">
        <ele>174.8</ele>
        <time>2022-09-28T08:43:54Z</time>
      </trkpt>
      <trkpt lat="43.20337" lon="5.66418">
        <ele>175.4</ele>
        <time>2022-09-28T08:44:08Z</time>
      </trkpt>
      <trkpt lat="43.20342" lon="5.66431">
        <ele>176</ele>
        <time>2022-09-28T08:44:20Z</time>
      </trkpt>
      <trkpt lat="43.20348" lon="5.66443">
        <ele>176.6</ele>
        <time>2022-09-28T08:44:32Z</time>
      </trkpt>
      <trkpt lat="43.2036" lon="5.66445">
        <ele>177.8</ele>
        <time>2022-09-28T08:44:44Z</time>
      </trkpt>
      <trkpt lat="43.20369" lon="5.66445">
        <ele>178.9</ele>
        <time>2022-09-28T08:45:02Z</time>
      </trkpt>
      <trkpt lat="43.20366" lon="5.66458">
        <ele>179</ele>
        <time>2022-09-28T08:45:54Z</time>
      </trkpt>
      <trkpt lat="43.20355" lon="5.66464">
        <ele>177.7</ele>
        <time>2022-09-28T08:46:06Z</time>
      </trkpt>
      <trkpt lat="43.20346" lon="5.66472">
        <ele>176.3</ele>
        <time>2022-09-28T08:46:18Z</time>
      </trkpt>
      <trkpt lat="43.20338" lon="5.66482">
        <ele>174.9</ele>
        <time>2022-09-28T08:46:30Z</time>
      </trkpt>
      <trkpt lat="43.20332" lon="5.66495">
        <ele>173.8</ele>
        <time>2022-09-28T08:46:42Z</time>
      </trkpt>
      <trkpt lat="43.20333" lon="5.6651">
        <ele>173.9</ele>
        <time>2022-09-28T08:46:54Z</time>
      </trkpt>
      <trkpt lat="43.20334" lon="5.66525">
        <ele>174.3</ele>
        <time>2022-09-28T08:47:06Z</time>
      </trkpt>
      <trkpt lat="43.20336" lon="5.66539">
        <ele>175</ele>
        <time>2022-09-28T08:47:20Z</time>
      </trkpt>
      <trkpt lat="43.20336" lon="5.66555">
        <ele>175.6</ele>
        <time>2022-09-28T08:47:32Z</time>
      </trkpt>
      <trkpt lat="43.20332" lon="5.66571">
        <ele>176.2</ele>
        <time>2022-09-28T08:47:44Z</time>
      </trkpt>
      <trkpt lat="43.20326" lon="5.66586">
        <ele>175.5</ele>
        <time>2022-09-28T08:47:56Z</time>
      </trkpt>
      <trkpt lat="43.20324" lon="5.66602">
        <ele>174.1</ele>
        <time>2022-09-28T08:48:08Z</time>
      </trkpt>
      <trkpt lat="43.20324" lon="5.66616">
        <ele>173.5</ele>
        <time>2022-09-28T08:48:20Z</time>
      </trkpt>
      <trkpt lat="43.20324" lon="5.6663">
        <ele>173.2</ele>
        <time>2022-09-28T08:48:32Z</time>
      </trkpt>
      <trkpt lat="43.20325" lon="5.66647">
        <ele>173</ele>
        <time>2022-09-28T08:48:44Z</time>
      </trkpt>
      <trkpt lat="43.20329" lon="5.66663">
        <ele>173.2</ele>
        <time>2022-09-28T08:48:56Z</time>
      </trkpt>
      <trkpt lat="43.20331" lon="5.6668">
        <ele>173.5</ele>
        <time>2022-09-28T08:49:08Z</time>
      </trkpt>
      <trkpt lat="43.20333" lon="5.66695">
        <ele>173.9</ele>
        <time>2022-09-28T08:49:20Z</time>
      </trkpt>
      <trkpt lat="43.20334" lon="5.6671">
        <ele>174.2</ele>
        <time>2022-09-28T08:49:32Z</time>
      </trkpt>
      <trkpt lat="43.20337" lon="5.66724">
        <ele>174.4</ele>
        <time>2022-09-28T08:49:44Z</time>
      </trkpt>
      <trkpt lat="43.20342" lon="5.66734">
        <ele>174.6</ele>
        <time>2022-09-28T08:49:52Z</time>
      </trkpt>
      <trkpt lat="43.20351" lon="5.66742">
        <ele>174.9</ele>
        <time>2022-09-28T08:50:02Z</time>
      </trkpt>
      <trkpt lat="43.20361" lon="5.6675">
        <ele>175</ele>
        <time>2022-09-28T08:51:00Z</time>
      </trkpt>
      <trkpt lat="43.20371" lon="5.66753">
        <ele>175.8</ele>
        <time>2022-09-28T08:51:08Z</time>
      </trkpt>
      <trkpt lat="43.2038" lon="5.66759">
        <ele>176.2</ele>
        <time>2022-09-28T08:51:16Z</time>
      </trkpt>
      <trkpt lat="43.20388" lon="5.66767">
        <ele>176.1</ele>
        <time>2022-09-28T08:51:24Z</time>
      </trkpt>
      <trkpt lat="43.20396" lon="5.66778">
        <ele>175.5</ele>
        <time>2022-09-28T08:51:32Z</time>
      </trkpt>
      <trkpt lat="43.20405" lon="5.66788">
        <ele>175.3</ele>
        <time>2022-09-28T08:51:40Z</time>
      </trkpt>
      <trkpt lat="43.20413" lon="5.66797">
        <ele>175.3</ele>
        <time>2022-09-28T08:51:48Z</time>
      </trkpt>
      <trkpt lat="43.20422" lon="5.66804">
        <ele>175.7</ele>
        <time>2022-09-28T08:51:56Z</time>
      </trkpt>
      <trkpt lat="43.20432" lon="5.6681">
        <ele>175.9</ele>
        <time>2022-09-28T08:52:04Z</time>
      </trkpt>
      <trkpt lat="43.2044" lon="5.66815">
        <ele>175.9</ele>
        <time>2022-09-28T08:52:12Z</time>
      </trkpt>
      <trkpt lat="43.20451" lon="5.66819">
        <ele>176.4</ele>
        <time>2022-09-28T08:52:22Z</time>
      </trkpt>
      <trkpt lat="43.20461" lon="5.66823">
        <ele>176.9</ele>
        <time>2022-09-28T08:52:30Z</time>
      </trkpt>
      <trkpt lat="43.2047" lon="5.66826">
        <ele>177.9</ele>
        <time>2022-09-28T08:52:38Z</time>
      </trkpt>
      <trkpt lat="43.20483" lon="5.6683">
        <ele>179.3</ele>
        <time>2022-09-28T08:52:50Z</time>
      </trkpt>
      <trkpt lat="43.20492" lon="5.66836">
        <ele>180.4</ele>
        <time>2022-09-28T08:53:00Z</time>
      </trkpt>
      <trkpt lat="43.20498" lon="5.66846">
        <ele>180.7</ele>
        <time>2022-09-28T08:53:10Z</time>
      </trkpt>
      <trkpt lat="43.20501" lon="5.6686">
        <ele>180.4</ele>
        <time>2022-09-28T08:53:24Z</time>
      </trkpt>
      <trkpt lat="43.205" lon="5.66876">
        <ele>180.6</ele>
        <time>2022-09-28T08:53:36Z</time>
      </trkpt>
      <trkpt lat="43.20501" lon="5.66894">
        <ele>181.5</ele>
        <time>2022-09-28T08:53:48Z</time>
      </trkpt>
      <trkpt lat="43.20507" lon="5.66905">
        <ele>183.2</ele>
        <time>2022-09-28T08:53:58Z</time>
      </trkpt>
      <trkpt lat="43.20507" lon="5.6692">
        <ele>183.9</ele>
        <time>2022-09-28T08:54:08Z</time>
      </trkpt>
      <trkpt lat="43.20502" lon="5.66933">
        <ele>183.3</ele>
        <time>2022-09-28T08:54:18Z</time>
      </trkpt>
      <trkpt lat="43.20501" lon="5.66947">
        <ele>183.1</ele>
        <time>2022-09-28T08:54:28Z</time>
      </trkpt>
      <trkpt lat="43.20499" lon="5.66961">
        <ele>182.2</ele>
        <time>2022-09-28T08:54:38Z</time>
      </trkpt>
      <trkpt lat="43.20498" lon="5.66974">
        <ele>181.6</ele>
        <time>2022-09-28T08:54:48Z</time>
      </trkpt>
      <trkpt lat="43.205" lon="5.66989">
        <ele>181.3</ele>
        <time>2022-09-28T08:55:00Z</time>
      </trkpt>
      <trkpt lat="43.20498" lon="5.67005">
        <ele>180.6</ele>
        <time>2022-09-28T08:55:12Z</time>
      </trkpt>
      <trkpt lat="43.20499" lon="5.67018">
        <ele>180.2</ele>
        <time>2022-09-28T08:55:26Z</time>
      </trkpt>
      <trkpt lat="43.20501" lon="5.67023">
        <ele>180.3</ele>
        <time>2022-09-28T08:57:40Z</time>
      </trkpt>
      <trkpt lat="43.20501" lon="5.67036">
        <ele>179.8</ele>
        <time>2022-09-28T08:57:52Z</time>
      </trkpt>
      <trkpt lat="43.20509" lon="5.6705">
        <ele>180</ele>
        <time>2022-09-28T08:58:04Z</time>
      </trkpt>
      <trkpt lat="43.20514" lon="5.67064">
        <ele>179.5</ele>
        <time>2022-09-28T08:58:14Z</time>
      </trkpt>
      <trkpt lat="43.20518" lon="5.67078">
        <ele>179.4</ele>
        <time>2022-09-28T08:58:26Z</time>
      </trkpt>
      <trkpt lat="43.20514" lon="5.67091">
        <ele>178.8</ele>
        <time>2022-09-28T08:58:38Z</time>
      </trkpt>
      <trkpt lat="43.20508" lon="5.67103">
        <ele>178.2</ele>
        <time>2022-09-28T08:58:50Z</time>
      </trkpt>
      <trkpt lat="43.20501" lon="5.67115">
        <ele>177.6</ele>
        <time>2022-09-28T08:59:02Z</time>
      </trkpt>
      <trkpt lat="43.20499" lon="5.67128">
        <ele>178.6</ele>
        <time>2022-09-28T08:59:34Z</time>
      </trkpt>
      <trkpt lat="43.20492" lon="5.67138">
        <ele>178.8</ele>
        <time>2022-09-28T08:59:58Z</time>
      </trkpt>
      <trkpt lat="43.20483" lon="5.67144">
        <ele>178.1</ele>
        <time>2022-09-28T09:00:06Z</time>
      </trkpt>
      <trkpt lat="43.20475" lon="5.67152">
        <ele>177.8</ele>
        <time>2022-09-28T09:00:16Z</time>
      </trkpt>
      <trkpt lat="43.20467" lon="5.6716">
        <ele>177.7</ele>
        <time>2022-09-28T09:00:28Z</time>
      </trkpt>
      <trkpt lat="43.20457" lon="5.67169">
        <ele>177.7</ele>
        <time>2022-09-28T09:00:40Z</time>
      </trkpt>
      <trkpt lat="43.2045" lon="5.67179">
        <ele>178.2</ele>
        <time>2022-09-28T09:00:51Z</time>
      </trkpt>
      <trkpt lat="43.20443" lon="5.67189">
        <ele>178.3</ele>
        <time>2022-09-28T09:01:03Z</time>
      </trkpt>
      <trkpt lat="43.20433" lon="5.67194">
        <ele>177.3</ele>
        <time>2022-09-28T09:01:15Z</time>
      </trkpt>
      <trkpt lat="43.20425" lon="5.67205">
        <ele>177.5</ele>
        <time>2022-09-28T09:01:31Z</time>
      </trkpt>
      <trkpt lat="43.20422" lon="5.67218">
        <ele>178.5</ele>
        <time>2022-09-28T09:01:43Z</time>
      </trkpt>
      <trkpt lat="43.20423" lon="5.67232">
        <ele>179.9</ele>
        <time>2022-09-28T09:01:55Z</time>
      </trkpt>
      <trkpt lat="43.20423" lon="5.67247">
        <ele>181</ele>
        <time>2022-09-28T09:02:09Z</time>
      </trkpt>
      <trkpt lat="43.20423" lon="5.67261">
        <ele>182.2</ele>
        <time>2022-09-28T09:02:21Z</time>
      </trkpt>
      <trkpt lat="43.20421" lon="5.67276">
        <ele>183.1</ele>
        <time>2022-09-28T09:02:33Z</time>
      </trkpt>
      <trkpt lat="43.2042" lon="5.6729">
        <ele>183.4</ele>
        <time>2022-09-28T09:02:45Z</time>
      </trkpt>
      <trkpt lat="43.20423" lon="5.67305">
        <ele>184.5</ele>
        <time>2022-09-28T09:02:59Z</time>
      </trkpt>
      <trkpt lat="43.20423" lon="5.6732">
        <ele>185.1</ele>
        <time>2022-09-28T09:03:13Z</time>
      </trkpt>
      <trkpt lat="43.20426" lon="5.67335">
        <ele>185.9</ele>
        <time>2022-09-28T09:03:25Z</time>
      </trkpt>
      <trkpt lat="43.20435" lon="5.67343">
        <ele>187.5</ele>
        <time>2022-09-28T09:03:37Z</time>
      </trkpt>
      <trkpt lat="43.20442" lon="5.67331">
        <ele>189.5</ele>
        <time>2022-09-28T09:03:55Z</time>
      </trkpt>
      <trkpt lat="43.20445" lon="5.67318">
        <ele>190.1</ele>
        <time>2022-09-28T09:04:07Z</time>
      </trkpt>
      <trkpt lat="43.20452" lon="5.67305">
        <ele>191.1</ele>
        <time>2022-09-28T09:04:21Z</time>
      </trkpt>
      <trkpt lat="43.2046" lon="5.67296">
        <ele>192.4</ele>
        <time>2022-09-28T09:04:35Z</time>
      </trkpt>
      <trkpt lat="43.20468" lon="5.67286">
        <ele>193.9</ele>
        <time>2022-09-28T09:04:49Z</time>
      </trkpt>
      <trkpt lat="43.20477" lon="5.67278">
        <ele>195.5</ele>
        <time>2022-09-28T09:05:01Z</time>
      </trkpt>
      <trkpt lat="43.20486" lon="5.67273">
        <ele>196.4</ele>
        <time>2022-09-28T09:05:13Z</time>
      </trkpt>
      <trkpt lat="43.20498" lon="5.6727">
        <ele>197.7</ele>
        <time>2022-09-28T09:05:27Z</time>
      </trkpt>
      <trkpt lat="43.20508" lon="5.67266">
        <ele>199.2</ele>
        <time>2022-09-28T09:05:39Z</time>
      </trkpt>
      <trkpt lat="43.20518" lon="5.67263">
        <ele>200.7</ele>
        <time>2022-09-28T09:05:51Z</time>
      </trkpt>
      <trkpt lat="43.20528" lon="5.67259">
        <ele>202</ele>
        <time>2022-09-28T09:06:05Z</time>
      </trkpt>
      <trkpt lat="43.20539" lon="5.67254">
        <ele>203.2</ele>
        <time>2022-09-28T09:06:19Z</time>
      </trkpt>
      <trkpt lat="43.20548" lon="5.67251">
        <ele>204.2</ele>
        <time>2022-09-28T09:06:31Z</time>
      </trkpt>
      <trkpt lat="43.20556" lon="5.67241">
        <ele>205</ele>
        <time>2022-09-28T09:06:43Z</time>
      </trkpt>
      <trkpt lat="43.20566" lon="5.67237">
        <ele>206.5</ele>
        <time>2022-09-28T09:06:55Z</time>
      </trkpt>
      <trkpt lat="43.20575" lon="5.67242">
        <ele>207.8</ele>
        <time>2022-09-28T09:07:09Z</time>
      </trkpt>
      <trkpt lat="43.2058" lon="5.67252">
        <ele>208.5</ele>
        <time>2022-09-28T09:07:25Z</time>
      </trkpt>
      <trkpt lat="43.20588" lon="5.67259">
        <ele>210.1</ele>
        <time>2022-09-28T09:07:37Z</time>
      </trkpt>
      <trkpt lat="43.20597" lon="5.67252">
        <ele>211.9</ele>
        <time>2022-09-28T09:07:49Z</time>
      </trkpt>
      <trkpt lat="43.20606" lon="5.67246">
        <ele>213.9</ele>
        <time>2022-09-28T09:08:01Z</time>
      </trkpt>
      <trkpt lat="43.20616" lon="5.67249">
        <ele>216.1</ele>
        <time>2022-09-28T09:08:17Z</time>
      </trkpt>
      <trkpt lat="43.20625" lon="5.67259">
        <ele>218.2</ele>
        <time>2022-09-28T09:08:37Z</time>
      </trkpt>
      <trkpt lat="43.20634" lon="5.67255">
        <ele>220.6</ele>
        <time>2022-09-28T09:08:51Z</time>
      </trkpt>
      <trkpt lat="43.20644" lon="5.67247">
        <ele>222.5</ele>
        <time>2022-09-28T09:09:05Z</time>
      </trkpt>
      <trkpt lat="43.20652" lon="5.67239">
        <ele>223.4</ele>
        <time>2022-09-28T09:09:19Z</time>
      </trkpt>
      <trkpt lat="43.20662" lon="5.67233">
        <ele>224.9</ele>
        <time>2022-09-28T09:09:33Z</time>
      </trkpt>
      <trkpt lat="43.20669" lon="5.67224">
        <ele>226.3</ele>
        <time>2022-09-28T09:09:49Z</time>
      </trkpt>
      <trkpt lat="43.20677" lon="5.67216">
        <ele>227.8</ele>
        <time>2022-09-28T09:10:05Z</time>
      </trkpt>
      <trkpt lat="43.20682" lon="5.67205">
        <ele>228.9</ele>
        <time>2022-09-28T09:10:15Z</time>
      </trkpt>
      <trkpt lat="43.20689" lon="5.67193">
        <ele>230.2</ele>
        <time>2022-09-28T09:10:31Z</time>
      </trkpt>
      <trkpt lat="43.20697" lon="5.67181">
        <ele>231.3</ele>
        <time>2022-09-28T09:10:47Z</time>
      </trkpt>
      <trkpt lat="43.20705" lon="5.67173">
        <ele>232.2</ele>
        <time>2022-09-28T09:10:59Z</time>
      </trkpt>
      <trkpt lat="43.20714" lon="5.67166">
        <ele>233.2</ele>
        <time>2022-09-28T09:11:13Z</time>
      </trkpt>
      <trkpt lat="43.20722" lon="5.67158">
        <ele>234.2</ele>
        <time>2022-09-28T09:11:27Z</time>
      </trkpt>
      <trkpt lat="43.20731" lon="5.67151">
        <ele>235.8</ele>
        <time>2022-09-28T09:11:41Z</time>
      </trkpt>
      <trkpt lat="43.2074" lon="5.67146">
        <ele>237.3</ele>
        <time>2022-09-28T09:11:59Z</time>
      </trkpt>
      <trkpt lat="43.2075" lon="5.67138">
        <ele>239</ele>
        <time>2022-09-28T09:12:13Z</time>
      </trkpt>
      <trkpt lat="43.20759" lon="5.67131">
        <ele>239.8</ele>
        <time>2022-09-28T09:12:25Z</time>
      </trkpt>
      <trkpt lat="43.20769" lon="5.67124">
        <ele>241.2</ele>
        <time>2022-09-28T09:12:39Z</time>
      </trkpt>
      <trkpt lat="43.20779" lon="5.67117">
        <ele>242.7</ele>
        <time>2022-09-28T09:12:53Z</time>
      </trkpt>
      <trkpt lat="43.2079" lon="5.67113">
        <ele>244.2</ele>
        <time>2022-09-28T09:13:07Z</time>
      </trkpt>
      <trkpt lat="43.208" lon="5.67106">
        <ele>245.5</ele>
        <time>2022-09-28T09:13:23Z</time>
      </trkpt>
      <trkpt lat="43.20808" lon="5.671">
        <ele>246.6</ele>
        <time>2022-09-28T09:13:35Z</time>
      </trkpt>
      <trkpt lat="43.20819" lon="5.67095">
        <ele>247.8</ele>
        <time>2022-09-28T09:13:49Z</time>
      </trkpt>
      <trkpt lat="43.20829" lon="5.67091">
        <ele>249.1</ele>
        <time>2022-09-28T09:14:07Z</time>
      </trkpt>
      <trkpt lat="43.20839" lon="5.67088">
        <ele>250.4</ele>
        <time>2022-09-28T09:14:21Z</time>
      </trkpt>
      <trkpt lat="43.20849" lon="5.67086">
        <ele>251.9</ele>
        <time>2022-09-28T09:19:51Z</time>
      </trkpt>
      <trkpt lat="43.2086" lon="5.67087">
        <ele>253.4</ele>
        <time>2022-09-28T09:20:05Z</time>
      </trkpt>
      <trkpt lat="43.20873" lon="5.67087">
        <ele>254.8</ele>
        <time>2022-09-28T09:20:21Z</time>
      </trkpt>
      <trkpt lat="43.20883" lon="5.67088">
        <ele>255.8</ele>
        <time>2022-09-28T09:20:33Z</time>
      </trkpt>
      <trkpt lat="43.20893" lon="5.67088">
        <ele>257</ele>
        <time>2022-09-28T09:20:45Z</time>
      </trkpt>
      <trkpt lat="43.20902" lon="5.67093">
        <ele>257.5</ele>
        <time>2022-09-28T09:20:57Z</time>
      </trkpt>
      <trkpt lat="43.20911" lon="5.671">
        <ele>258.1</ele>
        <time>2022-09-28T09:21:09Z</time>
      </trkpt>
      <trkpt lat="43.20921" lon="5.67106">
        <ele>259.2</ele>
        <time>2022-09-28T09:21:21Z</time>
      </trkpt>
      <trkpt lat="43.20931" lon="5.6711">
        <ele>260.7</ele>
        <time>2022-09-28T09:21:33Z</time>
      </trkpt>
      <trkpt lat="43.20942" lon="5.67112">
        <ele>262.4</ele>
        <time>2022-09-28T09:21:47Z</time>
      </trkpt>
      <trkpt lat="43.20952" lon="5.67113">
        <ele>264.6</ele>
        <time>2022-09-28T09:22:03Z</time>
      </trkpt>
      <trkpt lat="43.2096" lon="5.67124">
        <ele>265.6</ele>
        <time>2022-09-28T09:22:19Z</time>
      </trkpt>
      <trkpt lat="43.20969" lon="5.67134">
        <ele>266.7</ele>
        <time>2022-09-28T09:22:35Z</time>
      </trkpt>
      <trkpt lat="43.20978" lon="5.67144">
        <ele>268.2</ele>
        <time>2022-09-28T09:22:51Z</time>
      </trkpt>
      <trkpt lat="43.20986" lon="5.6715">
        <ele>270</ele>
        <time>2022-09-28T09:23:05Z</time>
      </trkpt>
      <trkpt lat="43.20996" lon="5.67153">
        <ele>272.2</ele>
        <time>2022-09-28T09:23:21Z</time>
      </trkpt>
      <trkpt lat="43.21005" lon="5.67159">
        <ele>273.9</ele>
        <time>2022-09-28T09:23:35Z</time>
      </trkpt>
      <trkpt lat="43.21011" lon="5.67169">
        <ele>275</ele>
        <time>2022-09-28T09:23:49Z</time>
      </trkpt>
      <trkpt lat="43.21018" lon="5.67179">
        <ele>276.2</ele>
        <time>2022-09-28T09:24:03Z</time>
      </trkpt>
      <trkpt lat="43.21027" lon="5.67188">
        <ele>277.8</ele>
        <time>2022-09-28T09:24:19Z</time>
      </trkpt>
      <trkpt lat="43.21035" lon="5.67195">
        <ele>279.3</ele>
        <time>2022-09-28T09:24:31Z</time>
      </trkpt>
      <trkpt lat="43.21042" lon="5.67204">
        <ele>280.1</ele>
        <time>2022-09-28T09:24:43Z</time>
      </trkpt>
      <trkpt lat="43.21052" lon="5.67211">
        <ele>281.3</ele>
        <time>2022-09-28T09:24:59Z</time>
      </trkpt>
      <trkpt lat="43.21062" lon="5.67216">
        <ele>282.2</ele>
        <time>2022-09-28T09:25:11Z</time>
      </trkpt>
      <trkpt lat="43.21072" lon="5.67221">
        <ele>283</ele>
        <time>2022-09-28T09:25:23Z</time>
      </trkpt>
      <trkpt lat="43.21082" lon="5.67226">
        <ele>283.5</ele>
        <time>2022-09-28T09:25:37Z</time>
      </trkpt>
      <trkpt lat="43.21091" lon="5.67232">
        <ele>283.7</ele>
        <time>2022-09-28T09:25:49Z</time>
      </trkpt>
      <trkpt lat="43.21102" lon="5.67233">
        <ele>284.6</ele>
        <time>2022-09-28T09:26:03Z</time>
      </trkpt>
      <trkpt lat="43.21111" lon="5.6723">
        <ele>285.9</ele>
        <time>2022-09-28T09:26:15Z</time>
      </trkpt>
      <trkpt lat="43.21121" lon="5.67227">
        <ele>287</ele>
        <time>2022-09-28T09:26:29Z</time>
      </trkpt>
      <trkpt lat="43.21132" lon="5.67222">
        <ele>288.4</ele>
        <time>2022-09-28T09:26:43Z</time>
      </trkpt>
      <trkpt lat="43.21143" lon="5.67221">
        <ele>289.3</ele>
        <time>2022-09-28T09:26:57Z</time>
      </trkpt>
      <trkpt lat="43.21152" lon="5.67218">
        <ele>289.9</ele>
        <time>2022-09-28T09:27:09Z</time>
      </trkpt>
      <trkpt lat="43.21164" lon="5.67215">
        <ele>290.7</ele>
        <time>2022-09-28T09:27:21Z</time>
      </trkpt>
      <trkpt lat="43.21173" lon="5.67212">
        <ele>291.1</ele>
        <time>2022-09-28T09:27:33Z</time>
      </trkpt>
      <trkpt lat="43.21183" lon="5.67209">
        <ele>291.4</ele>
        <time>2022-09-28T09:27:43Z</time>
      </trkpt>
      <trkpt lat="43.21194" lon="5.67207">
        <ele>291.7</ele>
        <time>2022-09-28T09:27:53Z</time>
      </trkpt>
      <trkpt lat="43.21204" lon="5.67208">
        <ele>291.9</ele>
        <time>2022-09-28T09:28:09Z</time>
      </trkpt>
      <trkpt lat="43.21214" lon="5.67209">
        <ele>292.1</ele>
        <time>2022-09-28T09:28:17Z</time>
      </trkpt>
      <trkpt lat="43.21224" lon="5.67211">
        <ele>292.2</ele>
        <time>2022-09-28T09:28:29Z</time>
      </trkpt>
      <trkpt lat="43.21235" lon="5.67214">
        <ele>292</ele>
        <time>2022-09-28T09:28:39Z</time>
      </trkpt>
      <trkpt lat="43.21245" lon="5.67213">
        <ele>292.3</ele>
        <time>2022-09-28T09:28:51Z</time>
      </trkpt>
      <trkpt lat="43.21256" lon="5.67211">
        <ele>293.1</ele>
        <time>2022-09-28T09:29:05Z</time>
      </trkpt>
      <trkpt lat="43.21266" lon="5.67212">
        <ele>293.7</ele>
        <time>2022-09-28T09:29:17Z</time>
      </trkpt>
      <trkpt lat="43.21276" lon="5.67213">
        <ele>294.2</ele>
        <time>2022-09-28T09:29:29Z</time>
      </trkpt>
      <trkpt lat="43.21288" lon="5.67215">
        <ele>295.1</ele>
        <time>2022-09-28T09:29:41Z</time>
      </trkpt>
      <trkpt lat="43.21298" lon="5.67217">
        <ele>295.8</ele>
        <time>2022-09-28T09:29:57Z</time>
      </trkpt>
      <trkpt lat="43.21308" lon="5.67214">
        <ele>297</ele>
        <time>2022-09-28T09:30:09Z</time>
      </trkpt>
      <trkpt lat="43.21318" lon="5.67212">
        <ele>297.8</ele>
        <time>2022-09-28T09:30:21Z</time>
      </trkpt>
      <trkpt lat="43.21326" lon="5.67206">
        <ele>299</ele>
        <time>2022-09-28T09:30:35Z</time>
      </trkpt>
      <trkpt lat="43.21335" lon="5.67199">
        <ele>300.5</ele>
        <time>2022-09-28T09:30:47Z</time>
      </trkpt>
      <trkpt lat="43.21344" lon="5.67194">
        <ele>301.8</ele>
        <time>2022-09-28T09:30:59Z</time>
      </trkpt>
      <trkpt lat="43.21353" lon="5.67187">
        <ele>302.9</ele>
        <time>2022-09-28T09:31:11Z</time>
      </trkpt>
      <trkpt lat="43.21362" lon="5.67181">
        <ele>304</ele>
        <time>2022-09-28T09:31:23Z</time>
      </trkpt>
      <trkpt lat="43.21372" lon="5.67179">
        <ele>305.2</ele>
        <time>2022-09-28T09:31:35Z</time>
      </trkpt>
      <trkpt lat="43.21383" lon="5.67173">
        <ele>306.7</ele>
        <time>2022-09-28T09:31:49Z</time>
      </trkpt>
      <trkpt lat="43.21393" lon="5.6717">
        <ele>307.8</ele>
        <time>2022-09-28T09:32:01Z</time>
      </trkpt>
      <trkpt lat="43.21402" lon="5.67167">
        <ele>308.4</ele>
        <time>2022-09-28T09:32:13Z</time>
      </trkpt>
      <trkpt lat="43.21413" lon="5.67165">
        <ele>308.9</ele>
        <time>2022-09-28T09:32:25Z</time>
      </trkpt>
      <trkpt lat="43.21423" lon="5.6716">
        <ele>309.8</ele>
        <time>2022-09-28T09:32:37Z</time>
      </trkpt>
      <trkpt lat="43.21434" lon="5.67158">
        <ele>310.8</ele>
        <time>2022-09-28T09:32:49Z</time>
      </trkpt>
      <trkpt lat="43.21444" lon="5.67153">
        <ele>312</ele>
        <time>2022-09-28T09:33:01Z</time>
      </trkpt>
      <trkpt lat="43.21456" lon="5.67149">
        <ele>313.1</ele>
        <time>2022-09-28T09:33:15Z</time>
      </trkpt>
      <trkpt lat="43.21466" lon="5.67147">
        <ele>314</ele>
        <time>2022-09-28T09:33:29Z</time>
      </trkpt>
      <trkpt lat="43.21475" lon="5.6714">
        <ele>315.1</ele>
        <time>2022-09-28T09:33:41Z</time>
      </trkpt>
      <trkpt lat="43.21485" lon="5.67138">
        <ele>315.9</ele>
        <time>2022-09-28T09:33:53Z</time>
      </trkpt>
      <trkpt lat="43.2149" lon="5.67138">
        <ele>316.2</ele>
        <time>2022-09-28T09:34:45Z</time>
      </trkpt>
      <trkpt lat="43.215" lon="5.67139">
        <ele>317</ele>
        <time>2022-09-28T09:34:59Z</time>
      </trkpt>
      <trkpt lat="43.21511" lon="5.67142">
        <ele>317.6</ele>
        <time>2022-09-28T09:35:13Z</time>
      </trkpt>
      <trkpt lat="43.21522" lon="5.67139">
        <ele>318.5</ele>
        <time>2022-09-28T09:35:25Z</time>
      </trkpt>
      <trkpt lat="43.21532" lon="5.67136">
        <ele>319.2</ele>
        <time>2022-09-28T09:35:37Z</time>
      </trkpt>
      <trkpt lat="43.21541" lon="5.67135">
        <ele>319.6</ele>
        <time>2022-09-28T09:35:59Z</time>
      </trkpt>
      <trkpt lat="43.21552" lon="5.67133">
        <ele>320.1</ele>
        <time>2022-09-28T09:36:11Z</time>
      </trkpt>
      <trkpt lat="43.21561" lon="5.67133">
        <ele>320.8</ele>
        <time>2022-09-28T09:38:23Z</time>
      </trkpt>
      <trkpt lat="43.21571" lon="5.67131">
        <ele>321.6</ele>
        <time>2022-09-28T09:38:35Z</time>
      </trkpt>
      <trkpt lat="43.21581" lon="5.67129">
        <ele>322.4</ele>
        <time>2022-09-28T09:38:51Z</time>
      </trkpt>
      <trkpt lat="43.21592" lon="5.67126">
        <ele>323.3</ele>
        <time>2022-09-28T09:39:03Z</time>
      </trkpt>
      <trkpt lat="43.21601" lon="5.67126">
        <ele>324.2</ele>
        <time>2022-09-28T09:39:15Z</time>
      </trkpt>
      <trkpt lat="43.21612" lon="5.67127">
        <ele>325.2</ele>
        <time>2022-09-28T09:39:29Z</time>
      </trkpt>
      <trkpt lat="43.21622" lon="5.6713">
        <ele>325.5</ele>
        <time>2022-09-28T09:39:41Z</time>
      </trkpt>
      <trkpt lat="43.21633" lon="5.6713">
        <ele>325.6</ele>
        <time>2022-09-28T09:39:55Z</time>
      </trkpt>
      <trkpt lat="43.21644" lon="5.6713">
        <ele>325.8</ele>
        <time>2022-09-28T09:40:07Z</time>
      </trkpt>
      <trkpt lat="43.21655" lon="5.67127">
        <ele>326.1</ele>
        <time>2022-09-28T09:40:19Z</time>
      </trkpt>
      <trkpt lat="43.21665" lon="5.67125">
        <ele>326.4</ele>
        <time>2022-09-28T09:40:31Z</time>
      </trkpt>
      <trkpt lat="43.21676" lon="5.67122">
        <ele>326.9</ele>
        <time>2022-09-28T09:40:45Z</time>
      </trkpt>
      <trkpt lat="43.21686" lon="5.67118">
        <ele>327.5</ele>
        <time>2022-09-28T09:40:57Z</time>
      </trkpt>
      <trkpt lat="43.21697" lon="5.67114">
        <ele>328.2</ele>
        <time>2022-09-28T09:41:11Z</time>
      </trkpt>
      <trkpt lat="43.21708" lon="5.67112">
        <ele>329.8</ele>
        <time>2022-09-28T09:41:25Z</time>
      </trkpt>
      <trkpt lat="43.21717" lon="5.67113">
        <ele>331.2</ele>
        <time>2022-09-28T09:41:41Z</time>
      </trkpt>
      <trkpt lat="43.21727" lon="5.67112">
        <ele>332.3</ele>
        <time>2022-09-28T09:42:01Z</time>
      </trkpt>
      <trkpt lat="43.21737" lon="5.67115">
        <ele>332.9</ele>
        <time>2022-09-28T09:42:41Z</time>
      </trkpt>
      <trkpt lat="43.21745" lon="5.67122">
        <ele>333.5</ele>
        <time>2022-09-28T09:42:53Z</time>
      </trkpt>
      <trkpt lat="43.21751" lon="5.67135">
        <ele>334.2</ele>
        <time>2022-09-28T09:43:05Z</time>
      </trkpt>
      <trkpt lat="43.21757" lon="5.67146">
        <ele>334.6</ele>
        <time>2022-09-28T09:43:15Z</time>
      </trkpt>
      <trkpt lat="43.21765" lon="5.67155">
        <ele>335.5</ele>
        <time>2022-09-28T09:43:27Z</time>
      </trkpt>
      <trkpt lat="43.21772" lon="5.67166">
        <ele>336.8</ele>
        <time>2022-09-28T09:43:39Z</time>
      </trkpt>
      <trkpt lat="43.21779" lon="5.67177">
        <ele>337.8</ele>
        <time>2022-09-28T09:43:53Z</time>
      </trkpt>
      <trkpt lat="43.21784" lon="5.67189">
        <ele>338.5</ele>
        <time>2022-09-28T09:44:05Z</time>
      </trkpt>
      <trkpt lat="43.21791" lon="5.67199">
        <ele>339.5</ele>
        <time>2022-09-28T09:44:19Z</time>
      </trkpt>
      <trkpt lat="43.21797" lon="5.6721">
        <ele>340.1</ele>
        <time>2022-09-28T09:44:31Z</time>
      </trkpt>
      <trkpt lat="43.21804" lon="5.67221">
        <ele>340.6</ele>
        <time>2022-09-28T09:44:43Z</time>
      </trkpt>
      <trkpt lat="43.21811" lon="5.6723">
        <ele>341.6</ele>
        <time>2022-09-28T09:44:55Z</time>
      </trkpt>
      <trkpt lat="43.21817" lon="5.67244">
        <ele>341.9</ele>
        <time>2022-09-28T09:45:09Z</time>
      </trkpt>
      <trkpt lat="43.21823" lon="5.67255">
        <ele>342.7</ele>
        <time>2022-09-28T09:45:21Z</time>
      </trkpt>
      <trkpt lat="43.21829" lon="5.67266">
        <ele>343.6</ele>
        <time>2022-09-28T09:45:33Z</time>
      </trkpt>
      <trkpt lat="43.21835" lon="5.67278">
        <ele>344.3</ele>
        <time>2022-09-28T09:45:45Z</time>
      </trkpt>
      <trkpt lat="43.21842" lon="5.67288">
        <ele>344.9</ele>
        <time>2022-09-28T09:45:57Z</time>
      </trkpt>
      <trkpt lat="43.21851" lon="5.67295">
        <ele>346</ele>
        <time>2022-09-28T09:46:09Z</time>
      </trkpt>
      <trkpt lat="43.2186" lon="5.67303">
        <ele>347</ele>
        <time>2022-09-28T09:46:23Z</time>
      </trkpt>
      <trkpt lat="43.21871" lon="5.67303">
        <ele>348.9</ele>
        <time>2022-09-28T09:46:39Z</time>
      </trkpt>
      <trkpt lat="43.21878" lon="5.67294">
        <ele>351</ele>
        <time>2022-09-28T09:47:01Z</time>
      </trkpt>
      <trkpt lat="43.21878" lon="5.67283">
        <ele>352.2</ele>
        <time>2022-09-28T09:54:07Z</time>
      </trkpt>
      <trkpt lat="43.2187" lon="5.67276">
        <ele>351.1</ele>
        <time>2022-09-28T09:54:21Z</time>
      </trkpt>
      <trkpt lat="43.21865" lon="5.67277">
        <ele>350</ele>
        <time>2022-09-28T09:55:35Z</time>
      </trkpt>
      <trkpt lat="43.2187" lon="5.6729">
        <ele>350</ele>
        <time>2022-09-28T09:55:53Z</time>
      </trkpt>
      <trkpt lat="43.21878" lon="5.67292">
        <ele>351.4</ele>
        <time>2022-09-28T09:58:17Z</time>
      </trkpt>
      <trkpt lat="43.21876" lon="5.67303">
        <ele>349.8</ele>
        <time>2022-09-28T10:04:55Z</time>
      </trkpt>
      <trkpt lat="43.21875" lon="5.67319">
        <ele>348.5</ele>
        <time>2022-09-28T10:05:11Z</time>
      </trkpt>
      <trkpt lat="43.21884" lon="5.67323">
        <ele>349.8</ele>
        <time>2022-09-28T10:05:31Z</time>
      </trkpt>
      <trkpt lat="43.21895" lon="5.67322">
        <ele>351.6</ele>
        <time>2022-09-28T10:05:49Z</time>
      </trkpt>
      <trkpt lat="43.21905" lon="5.67316">
        <ele>353.3</ele>
        <time>2022-09-28T10:06:07Z</time>
      </trkpt>
      <trkpt lat="43.21914" lon="5.67312">
        <ele>354.9</ele>
        <time>2022-09-28T10:06:21Z</time>
      </trkpt>
      <trkpt lat="43.21924" lon="5.67308">
        <ele>356.4</ele>
        <time>2022-09-28T10:06:35Z</time>
      </trkpt>
      <trkpt lat="43.21933" lon="5.67303">
        <ele>358.2</ele>
        <time>2022-09-28T10:06:49Z</time>
      </trkpt>
      <trkpt lat="43.21944" lon="5.673">
        <ele>359.9</ele>
        <time>2022-09-28T10:07:05Z</time>
      </trkpt>
      <trkpt lat="43.21954" lon="5.67296">
        <ele>361.6</ele>
        <time>2022-09-28T10:07:19Z</time>
      </trkpt>
      <trkpt lat="43.21964" lon="5.67294">
        <ele>362.9</ele>
        <time>2022-09-28T10:07:33Z</time>
      </trkpt>
      <trkpt lat="43.21975" lon="5.67291">
        <ele>364.4</ele>
        <time>2022-09-28T10:07:47Z</time>
      </trkpt>
      <trkpt lat="43.21986" lon="5.67288">
        <ele>365.7</ele>
        <time>2022-09-28T10:07:57Z</time>
      </trkpt>
      <trkpt lat="43.21997" lon="5.67292">
        <ele>365.7</ele>
        <time>2022-09-28T10:08:09Z</time>
      </trkpt>
      <trkpt lat="43.22007" lon="5.673">
        <ele>365.2</ele>
        <time>2022-09-28T10:08:23Z</time>
      </trkpt>
      <trkpt lat="43.22014" lon="5.67308">
        <ele>364.7</ele>
        <time>2022-09-28T10:08:33Z</time>
      </trkpt>
      <trkpt lat="43.22022" lon="5.6732">
        <ele>364.5</ele>
        <time>2022-09-28T10:08:45Z</time>
      </trkpt>
      <trkpt lat="43.2203" lon="5.67329">
        <ele>364.9</ele>
        <time>2022-09-28T10:08:57Z</time>
      </trkpt>
      <trkpt lat="43.22036" lon="5.6734">
        <ele>364.8</ele>
        <time>2022-09-28T10:09:11Z</time>
      </trkpt>
      <trkpt lat="43.22039" lon="5.67355">
        <ele>364</ele>
        <time>2022-09-28T10:09:25Z</time>
      </trkpt>
      <trkpt lat="43.22042" lon="5.67367">
        <ele>363.9</ele>
        <time>2022-09-28T10:09:37Z</time>
      </trkpt>
      <trkpt lat="43.22046" lon="5.67383">
        <ele>364.4</ele>
        <time>2022-09-28T10:09:49Z</time>
      </trkpt>
      <trkpt lat="43.2205" lon="5.67398">
        <ele>364.7</ele>
        <time>2022-09-28T10:10:01Z</time>
      </trkpt>
      <trkpt lat="43.22054" lon="5.6741">
        <ele>365</ele>
        <time>2022-09-28T10:10:13Z</time>
      </trkpt>
      <trkpt lat="43.22063" lon="5.67419">
        <ele>365.4</ele>
        <time>2022-09-28T10:10:27Z</time>
      </trkpt>
      <trkpt lat="43.22073" lon="5.67422">
        <ele>365.9</ele>
        <time>2022-09-28T10:10:39Z</time>
      </trkpt>
      <trkpt lat="43.2208" lon="5.67411">
        <ele>367.1</ele>
        <time>2022-09-28T10:10:59Z</time>
      </trkpt>
      <trkpt lat="43.22087" lon="5.67399">
        <ele>368</ele>
        <time>2022-09-28T10:11:09Z</time>
      </trkpt>
      <trkpt lat="43.2209" lon="5.67383">
        <ele>369.3</ele>
        <time>2022-09-28T10:11:25Z</time>
      </trkpt>
      <trkpt lat="43.22095" lon="5.67371">
        <ele>370.7</ele>
        <time>2022-09-28T10:11:39Z</time>
      </trkpt>
      <trkpt lat="43.22104" lon="5.67366">
        <ele>371.7</ele>
        <time>2022-09-28T10:11:55Z</time>
      </trkpt>
      <trkpt lat="43.22113" lon="5.67356">
        <ele>373.3</ele>
        <time>2022-09-28T10:12:09Z</time>
      </trkpt>
      <trkpt lat="43.22123" lon="5.67346">
        <ele>373.8</ele>
        <time>2022-09-28T10:12:25Z</time>
      </trkpt>
      <trkpt lat="43.22131" lon="5.67341">
        <ele>374.4</ele>
        <time>2022-09-28T10:12:39Z</time>
      </trkpt>
      <trkpt lat="43.22142" lon="5.67333">
        <ele>375.7</ele>
        <time>2022-09-28T10:12:53Z</time>
      </trkpt>
      <trkpt lat="43.22151" lon="5.67326">
        <ele>375.9</ele>
        <time>2022-09-28T10:13:07Z</time>
      </trkpt>
      <trkpt lat="43.2216" lon="5.67319">
        <ele>376.5</ele>
        <time>2022-09-28T10:13:23Z</time>
      </trkpt>
      <trkpt lat="43.22169" lon="5.6731">
        <ele>377.7</ele>
        <time>2022-09-28T10:13:35Z</time>
      </trkpt>
      <trkpt lat="43.2218" lon="5.67303">
        <ele>378</ele>
        <time>2022-09-28T10:13:49Z</time>
      </trkpt>
      <trkpt lat="43.22189" lon="5.67299">
        <ele>377.9</ele>
        <time>2022-09-28T10:14:01Z</time>
      </trkpt>
      <trkpt lat="43.222" lon="5.67295">
        <ele>377.8</ele>
        <time>2022-09-28T10:14:13Z</time>
      </trkpt>
      <trkpt lat="43.22209" lon="5.67292">
        <ele>377.9</ele>
        <time>2022-09-28T10:14:25Z</time>
      </trkpt>
      <trkpt lat="43.22219" lon="5.67286">
        <ele>378.4</ele>
        <time>2022-09-28T10:14:41Z</time>
      </trkpt>
      <trkpt lat="43.22227" lon="5.67278">
        <ele>379.3</ele>
        <time>2022-09-28T10:14:53Z</time>
      </trkpt>
      <trkpt lat="43.22236" lon="5.6727">
        <ele>380.1</ele>
        <time>2022-09-28T10:15:07Z</time>
      </trkpt>
      <trkpt lat="43.22245" lon="5.67263">
        <ele>380.6</ele>
        <time>2022-09-28T10:15:19Z</time>
      </trkpt>
      <trkpt lat="43.22255" lon="5.67255">
        <ele>381.1</ele>
        <time>2022-09-28T10:15:33Z</time>
      </trkpt>
      <trkpt lat="43.22263" lon="5.67247">
        <ele>381.4</ele>
        <time>2022-09-28T10:15:49Z</time>
      </trkpt>
      <trkpt lat="43.22273" lon="5.67235">
        <ele>383.1</ele>
        <time>2022-09-28T10:16:01Z</time>
      </trkpt>
      <trkpt lat="43.22279" lon="5.67225">
        <ele>385</ele>
        <time>2022-09-28T10:16:15Z</time>
      </trkpt>
      <trkpt lat="43.22287" lon="5.67216">
        <ele>386.1</ele>
        <time>2022-09-28T10:16:33Z</time>
      </trkpt>
      <trkpt lat="43.22297" lon="5.67207">
        <ele>387</ele>
        <time>2022-09-28T10:16:45Z</time>
      </trkpt>
      <trkpt lat="43.22303" lon="5.67196">
        <ele>389.1</ele>
        <time>2022-09-28T10:17:01Z</time>
      </trkpt>
      <trkpt lat="43.22312" lon="5.6719">
        <ele>389.5</ele>
        <time>2022-09-28T10:17:13Z</time>
      </trkpt>
      <trkpt lat="43.2232" lon="5.67181">
        <ele>390.8</ele>
        <time>2022-09-28T10:17:27Z</time>
      </trkpt>
      <trkpt lat="43.22329" lon="5.67176">
        <ele>391.1</ele>
        <time>2022-09-28T10:17:35Z</time>
      </trkpt>
      <trkpt lat="43.22339" lon="5.67169">
        <ele>391.6</ele>
        <time>2022-09-28T10:17:51Z</time>
      </trkpt>
      <trkpt lat="43.22347" lon="5.67163">
        <ele>392.6</ele>
        <time>2022-09-28T10:17:59Z</time>
      </trkpt>
      <trkpt lat="43.22358" lon="5.67159">
        <ele>392.5</ele>
        <time>2022-09-28T10:18:17Z</time>
      </trkpt>
      <trkpt lat="43.22368" lon="5.6715">
        <ele>394.2</ele>
        <time>2022-09-28T10:18:37Z</time>
      </trkpt>
      <trkpt lat="43.22376" lon="5.67142">
        <ele>395.9</ele>
        <time>2022-09-28T10:18:53Z</time>
      </trkpt>
      <trkpt lat="43.22384" lon="5.67134">
        <ele>397.7</ele>
        <time>2022-09-28T10:19:07Z</time>
      </trkpt>
      <trkpt lat="43.22393" lon="5.67127">
        <ele>398.2</ele>
        <time>2022-09-28T10:19:19Z</time>
      </trkpt>
      <trkpt lat="43.22402" lon="5.6712">
        <ele>398.8</ele>
        <time>2022-09-28T10:19:49Z</time>
      </trkpt>
      <trkpt lat="43.22408" lon="5.6711">
        <ele>400.5</ele>
        <time>2022-09-28T10:20:03Z</time>
      </trkpt>
      <trkpt lat="43.22418" lon="5.671">
        <ele>401.6</ele>
        <time>2022-09-28T10:20:17Z</time>
      </trkpt>
      <trkpt lat="43.22425" lon="5.67092">
        <ele>402.2</ele>
        <time>2022-09-28T10:20:31Z</time>
      </trkpt>
      <trkpt lat="43.22435" lon="5.67084">
        <ele>402.5</ele>
        <time>2022-09-28T10:20:47Z</time>
      </trkpt>
      <trkpt lat="43.22444" lon="5.67077">
        <ele>402.3</ele>
        <time>2022-09-28T10:21:03Z</time>
      </trkpt>
      <trkpt lat="43.22452" lon="5.67066">
        <ele>402.8</ele>
        <time>2022-09-28T10:21:15Z</time>
      </trkpt>
      <trkpt lat="43.2246" lon="5.67054">
        <ele>404</ele>
        <time>2022-09-28T10:21:29Z</time>
      </trkpt>
      <trkpt lat="43.22466" lon="5.67043">
        <ele>404.9</ele>
        <time>2022-09-28T10:21:41Z</time>
      </trkpt>
      <trkpt lat="43.22473" lon="5.67033">
        <ele>405.7</ele>
        <time>2022-09-28T10:21:53Z</time>
      </trkpt>
      <trkpt lat="43.2248" lon="5.67024">
        <ele>405.9</ele>
        <time>2022-09-28T10:22:05Z</time>
      </trkpt>
      <trkpt lat="43.22488" lon="5.67012">
        <ele>406.8</ele>
        <time>2022-09-28T10:22:19Z</time>
      </trkpt>
      <trkpt lat="43.22496" lon="5.67003">
        <ele>407.1</ele>
        <time>2022-09-28T10:22:33Z</time>
      </trkpt>
      <trkpt lat="43.22502" lon="5.66992">
        <ele>408.6</ele>
        <time>2022-09-28T10:22:47Z</time>
      </trkpt>
      <trkpt lat="43.22509" lon="5.66981">
        <ele>409.8</ele>
        <time>2022-09-28T10:23:03Z</time>
      </trkpt>
      <trkpt lat="43.22518" lon="5.66972">
        <ele>410.1</ele>
        <time>2022-09-28T10:23:17Z</time>
      </trkpt>
      <trkpt lat="43.22527" lon="5.66965">
        <ele>410</ele>
        <time>2022-09-28T10:23:31Z</time>
      </trkpt>
      <trkpt lat="43.22535" lon="5.66957">
        <ele>410.5</ele>
        <time>2022-09-28T10:23:45Z</time>
      </trkpt>
      <trkpt lat="43.22545" lon="5.66949">
        <ele>411.3</ele>
        <time>2022-09-28T10:23:57Z</time>
      </trkpt>
      <trkpt lat="43.22553" lon="5.66942">
        <ele>412</ele>
        <time>2022-09-28T10:24:11Z</time>
      </trkpt>
      <trkpt lat="43.22563" lon="5.66934">
        <ele>412.7</ele>
        <time>2022-09-28T10:24:29Z</time>
      </trkpt>
      <trkpt lat="43.22573" lon="5.66926">
        <ele>413.3</ele>
        <time>2022-09-28T10:24:45Z</time>
      </trkpt>
      <trkpt lat="43.22584" lon="5.6692">
        <ele>413.2</ele>
        <time>2022-09-28T10:24:59Z</time>
      </trkpt>
      <trkpt lat="43.22592" lon="5.66915">
        <ele>413.8</ele>
        <time>2022-09-28T10:25:23Z</time>
      </trkpt>
      <trkpt lat="43.226" lon="5.66903">
        <ele>415.9</ele>
        <time>2022-09-28T10:25:41Z</time>
      </trkpt>
      <trkpt lat="43.22609" lon="5.66897">
        <ele>416.4</ele>
        <time>2022-09-28T10:26:03Z</time>
      </trkpt>
      <trkpt lat="43.22619" lon="5.66892">
        <ele>417.4</ele>
        <time>2022-09-28T10:26:19Z</time>
      </trkpt>
      <trkpt lat="43.22628" lon="5.66884">
        <ele>419.1</ele>
        <time>2022-09-28T10:26:35Z</time>
      </trkpt>
      <trkpt lat="43.22635" lon="5.66873">
        <ele>421.4</ele>
        <time>2022-09-28T10:26:49Z</time>
      </trkpt>
      <trkpt lat="43.22643" lon="5.66865">
        <ele>422.9</ele>
        <time>2022-09-28T10:27:05Z</time>
      </trkpt>
      <trkpt lat="43.22654" lon="5.66859">
        <ele>423.2</ele>
        <time>2022-09-28T10:27:17Z</time>
      </trkpt>
      <trkpt lat="43.22663" lon="5.66851">
        <ele>423.7</ele>
        <time>2022-09-28T10:27:31Z</time>
      </trkpt>
      <trkpt lat="43.22671" lon="5.66849">
        <ele>424</ele>
        <time>2022-09-28T10:27:51Z</time>
      </trkpt>
      <trkpt lat="43.2268" lon="5.66842">
        <ele>425.3</ele>
        <time>2022-09-28T10:28:05Z</time>
      </trkpt>
      <trkpt lat="43.22688" lon="5.66835">
        <ele>426.6</ele>
        <time>2022-09-28T10:28:17Z</time>
      </trkpt>
      <trkpt lat="43.22698" lon="5.66827">
        <ele>427.7</ele>
        <time>2022-09-28T10:28:37Z</time>
      </trkpt>
      <trkpt lat="43.22706" lon="5.66819">
        <ele>428.6</ele>
        <time>2022-09-28T10:28:51Z</time>
      </trkpt>
      <trkpt lat="43.22714" lon="5.66811">
        <ele>429.5</ele>
        <time>2022-09-28T10:29:09Z</time>
      </trkpt>
      <trkpt lat="43.22723" lon="5.66803">
        <ele>430.3</ele>
        <time>2022-09-28T10:29:25Z</time>
      </trkpt>
      <trkpt lat="43.22732" lon="5.66806">
        <ele>430.6</ele>
        <time>2022-09-28T10:29:43Z</time>
      </trkpt>
      <trkpt lat="43.22739" lon="5.66817">
        <ele>430.4</ele>
        <time>2022-09-28T10:29:57Z</time>
      </trkpt>
      <trkpt lat="43.22742" lon="5.66832">
        <ele>429.9</ele>
        <time>2022-09-28T10:30:09Z</time>
      </trkpt>
      <trkpt lat="43.22743" lon="5.66847">
        <ele>430.1</ele>
        <time>2022-09-28T10:30:37Z</time>
      </trkpt>
      <trkpt lat="43.22742" lon="5.66861">
        <ele>430.3</ele>
        <time>2022-09-28T10:30:51Z</time>
      </trkpt>
      <trkpt lat="43.22741" lon="5.66875">
        <ele>430.6</ele>
        <time>2022-09-28T10:31:03Z</time>
      </trkpt>
      <trkpt lat="43.22743" lon="5.66889">
        <ele>431.3</ele>
        <time>2022-09-28T10:31:17Z</time>
      </trkpt>
      <trkpt lat="43.22742" lon="5.66903">
        <ele>431.4</ele>
        <time>2022-09-28T10:31:33Z</time>
      </trkpt>
      <trkpt lat="43.2274" lon="5.66919">
        <ele>431.7</ele>
        <time>2022-09-28T10:31:47Z</time>
      </trkpt>
      <trkpt lat="43.22741" lon="5.66932">
        <ele>431.7</ele>
        <time>2022-09-28T10:31:59Z</time>
      </trkpt>
      <trkpt lat="43.22745" lon="5.66944">
        <ele>431.8</ele>
        <time>2022-09-28T10:32:21Z</time>
      </trkpt>
      <trkpt lat="43.22754" lon="5.66955">
        <ele>431.8</ele>
        <time>2022-09-28T10:32:37Z</time>
      </trkpt>
      <trkpt lat="43.2276" lon="5.66968">
        <ele>431.5</ele>
        <time>2022-09-28T10:32:49Z</time>
      </trkpt>
      <trkpt lat="43.22769" lon="5.66978">
        <ele>431.5</ele>
        <time>2022-09-28T10:32:59Z</time>
      </trkpt>
      <trkpt lat="43.22779" lon="5.66989">
        <ele>431.4</ele>
        <time>2022-09-28T10:33:11Z</time>
      </trkpt>
      <trkpt lat="43.22787" lon="5.67">
        <ele>431.4</ele>
        <time>2022-09-28T10:33:23Z</time>
      </trkpt>
      <trkpt lat="43.22792" lon="5.6701">
        <ele>431.5</ele>
        <time>2022-09-28T10:33:35Z</time>
      </trkpt>
      <trkpt lat="43.228" lon="5.67021">
        <ele>431.8</ele>
        <time>2022-09-28T10:33:51Z</time>
      </trkpt>
      <trkpt lat="43.22807" lon="5.67031">
        <ele>432</ele>
        <time>2022-09-28T10:34:03Z</time>
      </trkpt>
      <trkpt lat="43.22817" lon="5.67035">
        <ele>432</ele>
        <time>2022-09-28T10:34:49Z</time>
      </trkpt>
      <trkpt lat="43.22827" lon="5.67037">
        <ele>432</ele>
        <time>2022-09-28T10:35:01Z</time>
      </trkpt>
      <trkpt lat="43.22838" lon="5.67035">
        <ele>432</ele>
        <time>2022-09-28T10:35:13Z</time>
      </trkpt>
      <trkpt lat="43.22847" lon="5.67041">
        <ele>431.8</ele>
        <time>2022-09-28T10:35:25Z</time>
      </trkpt>
      <trkpt lat="43.22857" lon="5.67049">
        <ele>431.3</ele>
        <time>2022-09-28T10:35:37Z</time>
      </trkpt>
      <trkpt lat="43.22866" lon="5.67054">
        <ele>431.2</ele>
        <time>2022-09-28T10:35:49Z</time>
      </trkpt>
      <trkpt lat="43.22876" lon="5.67063">
        <ele>431.4</ele>
        <time>2022-09-28T10:36:01Z</time>
      </trkpt>
      <trkpt lat="43.22885" lon="5.67072">
        <ele>431.3</ele>
        <time>2022-09-28T10:36:13Z</time>
      </trkpt>
      <trkpt lat="43.22894" lon="5.67079">
        <ele>431.1</ele>
        <time>2022-09-28T10:36:25Z</time>
      </trkpt>
      <trkpt lat="43.22903" lon="5.67088">
        <ele>431</ele>
        <time>2022-09-28T10:36:37Z</time>
      </trkpt>
      <trkpt lat="43.22913" lon="5.67097">
        <ele>431</ele>
        <time>2022-09-28T10:36:49Z</time>
      </trkpt>
      <trkpt lat="43.22921" lon="5.67108">
        <ele>431.2</ele>
        <time>2022-09-28T10:37:01Z</time>
      </trkpt>
      <trkpt lat="43.2293" lon="5.6712">
        <ele>431.6</ele>
        <time>2022-09-28T10:37:13Z</time>
      </trkpt>
      <trkpt lat="43.22938" lon="5.6713">
        <ele>431.9</ele>
        <time>2022-09-28T10:37:23Z</time>
      </trkpt>
      <trkpt lat="43.22948" lon="5.67141">
        <ele>432.1</ele>
        <time>2022-09-28T10:37:35Z</time>
      </trkpt>
      <trkpt lat="43.2296" lon="5.67148">
        <ele>432.1</ele>
        <time>2022-09-28T10:37:47Z</time>
      </trkpt>
      <trkpt lat="43.22972" lon="5.67152">
        <ele>432</ele>
        <time>2022-09-28T10:37:57Z</time>
      </trkpt>
      <trkpt lat="43.22982" lon="5.67157">
        <ele>431.5</ele>
        <time>2022-09-28T10:38:07Z</time>
      </trkpt>
      <trkpt lat="43.22992" lon="5.67162">
        <ele>430.8</ele>
        <time>2022-09-28T10:38:17Z</time>
      </trkpt>
      <trkpt lat="43.23" lon="5.67169">
        <ele>430.1</ele>
        <time>2022-09-28T10:38:25Z</time>
      </trkpt>
      <trkpt lat="43.2301" lon="5.67181">
        <ele>430.1</ele>
        <time>2022-09-28T10:38:37Z</time>
      </trkpt>
      <trkpt lat="43.23017" lon="5.67191">
        <ele>429.8</ele>
        <time>2022-09-28T10:38:45Z</time>
      </trkpt>
      <trkpt lat="43.23023" lon="5.67201">
        <ele>429.1</ele>
        <time>2022-09-28T10:38:55Z</time>
      </trkpt>
      <trkpt lat="43.23028" lon="5.67214">
        <ele>428.3</ele>
        <time>2022-09-28T10:39:07Z</time>
      </trkpt>
      <trkpt lat="43.2303" lon="5.6723">
        <ele>427.9</ele>
        <time>2022-09-28T10:39:19Z</time>
      </trkpt>
      <trkpt lat="43.2303" lon="5.67244">
        <ele>427.4</ele>
        <time>2022-09-28T10:39:27Z</time>
      </trkpt>
      <trkpt lat="43.23031" lon="5.67258">
        <ele>426.9</ele>
        <time>2022-09-28T10:39:35Z</time>
      </trkpt>
      <trkpt lat="43.23034" lon="5.67273">
        <ele>426.3</ele>
        <time>2022-09-28T10:39:47Z</time>
      </trkpt>
      <trkpt lat="43.23041" lon="5.67288">
        <ele>424.7</ele>
        <time>2022-09-28T10:39:59Z</time>
      </trkpt>
      <trkpt lat="43.2305" lon="5.67294">
        <ele>423.8</ele>
        <time>2022-09-28T10:40:07Z</time>
      </trkpt>
      <trkpt lat="43.23061" lon="5.67295">
        <ele>423.2</ele>
        <time>2022-09-28T10:40:17Z</time>
      </trkpt>
      <trkpt lat="43.23074" lon="5.67296">
        <ele>422</ele>
        <time>2022-09-28T10:40:29Z</time>
      </trkpt>
      <trkpt lat="43.23084" lon="5.67296">
        <ele>421.3</ele>
        <time>2022-09-28T10:40:41Z</time>
      </trkpt>
      <trkpt lat="43.23094" lon="5.67301">
        <ele>419.9</ele>
        <time>2022-09-28T10:40:55Z</time>
      </trkpt>
      <trkpt lat="43.23102" lon="5.67306">
        <ele>418.6</ele>
        <time>2022-09-28T10:41:07Z</time>
      </trkpt>
      <trkpt lat="43.23107" lon="5.67319">
        <ele>417.4</ele>
        <time>2022-09-28T10:41:17Z</time>
      </trkpt>
      <trkpt lat="43.23111" lon="5.6733">
        <ele>416.3</ele>
        <time>2022-09-28T10:41:37Z</time>
      </trkpt>
      <trkpt lat="43.23115" lon="5.67345">
        <ele>415.4</ele>
        <time>2022-09-28T10:41:47Z</time>
      </trkpt>
      <trkpt lat="43.23119" lon="5.67359">
        <ele>414.7</ele>
        <time>2022-09-28T10:41:57Z</time>
      </trkpt>
      <trkpt lat="43.23123" lon="5.67371">
        <ele>413.9</ele>
        <time>2022-09-28T10:42:07Z</time>
      </trkpt>
      <trkpt lat="43.23132" lon="5.6738">
        <ele>412.7</ele>
        <time>2022-09-28T10:42:17Z</time>
      </trkpt>
      <trkpt lat="43.23143" lon="5.67381">
        <ele>411.9</ele>
        <time>2022-09-28T10:42:27Z</time>
      </trkpt>
      <trkpt lat="43.23154" lon="5.67379">
        <ele>410.6</ele>
        <time>2022-09-28T10:42:39Z</time>
      </trkpt>
      <trkpt lat="43.23165" lon="5.67379">
        <ele>409</ele>
        <time>2022-09-28T10:42:51Z</time>
      </trkpt>
      <trkpt lat="43.23177" lon="5.67374">
        <ele>407.9</ele>
        <time>2022-09-28T10:43:03Z</time>
      </trkpt>
      <trkpt lat="43.23189" lon="5.67375">
        <ele>406.6</ele>
        <time>2022-09-28T10:43:15Z</time>
      </trkpt>
      <trkpt lat="43.23201" lon="5.67374">
        <ele>405.5</ele>
        <time>2022-09-28T10:43:27Z</time>
      </trkpt>
      <trkpt lat="43.23211" lon="5.67373">
        <ele>404.8</ele>
        <time>2022-09-28T10:43:37Z</time>
      </trkpt>
      <trkpt lat="43.23221" lon="5.67366">
        <ele>404.1</ele>
        <time>2022-09-28T10:43:45Z</time>
      </trkpt>
      <trkpt lat="43.23228" lon="5.67356">
        <ele>403.8</ele>
        <time>2022-09-28T10:43:53Z</time>
      </trkpt>
      <trkpt lat="43.23237" lon="5.67349">
        <ele>403.2</ele>
        <time>2022-09-28T10:44:03Z</time>
      </trkpt>
      <trkpt lat="43.23247" lon="5.67344">
        <ele>402.6</ele>
        <time>2022-09-28T10:44:15Z</time>
      </trkpt>
      <trkpt lat="43.23256" lon="5.67336">
        <ele>401.9</ele>
        <time>2022-09-28T10:44:27Z</time>
      </trkpt>
      <trkpt lat="43.23268" lon="5.6733">
        <ele>401.3</ele>
        <time>2022-09-28T10:44:39Z</time>
      </trkpt>
      <trkpt lat="43.23277" lon="5.67325">
        <ele>400.7</ele>
        <time>2022-09-28T10:44:49Z</time>
      </trkpt>
      <trkpt lat="43.23285" lon="5.67319">
        <ele>400.5</ele>
        <time>2022-09-28T10:44:57Z</time>
      </trkpt>
      <trkpt lat="43.23297" lon="5.67315">
        <ele>400.3</ele>
        <time>2022-09-28T10:45:09Z</time>
      </trkpt>
      <trkpt lat="43.23309" lon="5.67309">
        <ele>400.1</ele>
        <time>2022-09-28T10:45:21Z</time>
      </trkpt>
      <trkpt lat="43.23319" lon="5.67303">
        <ele>399.8</ele>
        <time>2022-09-28T10:45:31Z</time>
      </trkpt>
      <trkpt lat="43.23329" lon="5.67292">
        <ele>399.1</ele>
        <time>2022-09-28T10:45:41Z</time>
      </trkpt>
      <trkpt lat="43.23338" lon="5.67284">
        <ele>398.4</ele>
        <time>2022-09-28T10:45:51Z</time>
      </trkpt>
      <trkpt lat="43.23348" lon="5.67275">
        <ele>397.9</ele>
        <time>2022-09-28T10:46:01Z</time>
      </trkpt>
      <trkpt lat="43.23358" lon="5.67269">
        <ele>397.4</ele>
        <time>2022-09-28T10:46:11Z</time>
      </trkpt>
      <trkpt lat="43.23368" lon="5.6726">
        <ele>396.6</ele>
        <time>2022-09-28T10:46:23Z</time>
      </trkpt>
      <trkpt lat="43.23378" lon="5.67254">
        <ele>396.2</ele>
        <time>2022-09-28T10:46:33Z</time>
      </trkpt>
      <trkpt lat="43.23385" lon="5.67246">
        <ele>395.8</ele>
        <time>2022-09-28T10:46:43Z</time>
      </trkpt>
      <trkpt lat="43.23394" lon="5.6724">
        <ele>395.3</ele>
        <time>2022-09-28T10:46:55Z</time>
      </trkpt>
      <trkpt lat="43.23407" lon="5.67238">
        <ele>395.4</ele>
        <time>2022-09-28T10:47:05Z</time>
      </trkpt>
      <trkpt lat="43.23417" lon="5.67235">
        <ele>395.5</ele>
        <time>2022-09-28T10:47:15Z</time>
      </trkpt>
      <trkpt lat="43.23425" lon="5.67225">
        <ele>395.1</ele>
        <time>2022-09-28T10:47:25Z</time>
      </trkpt>
      <trkpt lat="43.23435" lon="5.67219">
        <ele>394.9</ele>
        <time>2022-09-28T10:47:37Z</time>
      </trkpt>
      <trkpt lat="43.23444" lon="5.67213">
        <ele>394.7</ele>
        <time>2022-09-28T10:47:49Z</time>
      </trkpt>
      <trkpt lat="43.23454" lon="5.67211">
        <ele>395.1</ele>
        <time>2022-09-28T10:48:03Z</time>
      </trkpt>
      <trkpt lat="43.23463" lon="5.67207">
        <ele>395.5</ele>
        <time>2022-09-28T10:48:43Z</time>
      </trkpt>
      <trkpt lat="43.23469" lon="5.67195">
        <ele>395.8</ele>
        <time>2022-09-28T10:48:55Z</time>
      </trkpt>
      <trkpt lat="43.23466" lon="5.67182">
        <ele>395.6</ele>
        <time>2022-09-28T10:49:07Z</time>
      </trkpt>
      <trkpt lat="43.23468" lon="5.67165">
        <ele>395.7</ele>
        <time>2022-09-28T10:49:19Z</time>
      </trkpt>
      <trkpt lat="43.23473" lon="5.67153">
        <ele>396</ele>
        <time>2022-09-28T10:49:29Z</time>
      </trkpt>
      <trkpt lat="43.23475" lon="5.67136">
        <ele>396.2</ele>
        <time>2022-09-28T10:49:43Z</time>
      </trkpt>
      <trkpt lat="43.23478" lon="5.67121">
        <ele>396.7</ele>
        <time>2022-09-28T10:49:53Z</time>
      </trkpt>
      <trkpt lat="43.23482" lon="5.67106">
        <ele>397.1</ele>
        <time>2022-09-28T10:50:03Z</time>
      </trkpt>
      <trkpt lat="43.23486" lon="5.6709">
        <ele>397.4</ele>
        <time>2022-09-28T10:50:13Z</time>
      </trkpt>
      <trkpt lat="43.23493" lon="5.67079">
        <ele>397.7</ele>
        <time>2022-09-28T10:50:23Z</time>
      </trkpt>
      <trkpt lat="43.235" lon="5.67066">
        <ele>398</ele>
        <time>2022-09-28T10:50:33Z</time>
      </trkpt>
      <trkpt lat="43.23508" lon="5.6706">
        <ele>398</ele>
        <time>2022-09-28T10:50:41Z</time>
      </trkpt>
      <trkpt lat="43.23518" lon="5.67054">
        <ele>398</ele>
        <time>2022-09-28T10:50:51Z</time>
      </trkpt>
      <trkpt lat="43.2353" lon="5.67054">
        <ele>398.1</ele>
        <time>2022-09-28T10:51:03Z</time>
      </trkpt>
      <trkpt lat="43.23539" lon="5.67051">
        <ele>398.1</ele>
        <time>2022-09-28T10:51:17Z</time>
      </trkpt>
      <trkpt lat="43.23548" lon="5.67043">
        <ele>398.1</ele>
        <time>2022-09-28T10:51:31Z</time>
      </trkpt>
      <trkpt lat="43.23557" lon="5.67036">
        <ele>397.9</ele>
        <time>2022-09-28T10:51:39Z</time>
      </trkpt>
      <trkpt lat="43.23566" lon="5.67033">
        <ele>396.8</ele>
        <time>2022-09-28T10:51:49Z</time>
      </trkpt>
      <trkpt lat="43.23576" lon="5.67035">
        <ele>395.8</ele>
        <time>2022-09-28T10:52:03Z</time>
      </trkpt>
      <trkpt lat="43.23587" lon="5.6704">
        <ele>394.7</ele>
        <time>2022-09-28T10:52:15Z</time>
      </trkpt>
      <trkpt lat="43.23599" lon="5.67043">
        <ele>393.6</ele>
        <time>2022-09-28T10:52:27Z</time>
      </trkpt>
      <trkpt lat="43.23609" lon="5.67043">
        <ele>392.7</ele>
        <time>2022-09-28T10:52:39Z</time>
      </trkpt>
      <trkpt lat="43.2362" lon="5.67041">
        <ele>393.1</ele>
        <time>2022-09-28T10:52:51Z</time>
      </trkpt>
      <trkpt lat="43.23631" lon="5.67038">
        <ele>393.8</ele>
        <time>2022-09-28T10:53:03Z</time>
      </trkpt>
      <trkpt lat="43.23643" lon="5.67034">
        <ele>394.7</ele>
        <time>2022-09-28T10:53:15Z</time>
      </trkpt>
      <trkpt lat="43.23653" lon="5.67028">
        <ele>396</ele>
        <time>2022-09-28T10:53:29Z</time>
      </trkpt>
      <trkpt lat="43.23663" lon="5.67025">
        <ele>397.5</ele>
        <time>2022-09-28T10:53:41Z</time>
      </trkpt>
      <trkpt lat="43.23673" lon="5.67023">
        <ele>398.6</ele>
        <time>2022-09-28T10:53:53Z</time>
      </trkpt>
      <trkpt lat="43.23682" lon="5.67027">
        <ele>399.6</ele>
        <time>2022-09-28T10:54:07Z</time>
      </trkpt>
      <trkpt lat="43.23685" lon="5.67041">
        <ele>399.9</ele>
        <time>2022-09-28T10:54:21Z</time>
      </trkpt>
      <trkpt lat="43.23686" lon="5.67057">
        <ele>400.1</ele>
        <time>2022-09-28T10:54:33Z</time>
      </trkpt>
      <trkpt lat="43.23689" lon="5.67071">
        <ele>400.5</ele>
        <time>2022-09-28T10:54:45Z</time>
      </trkpt>
      <trkpt lat="43.23691" lon="5.67087">
        <ele>400.6</ele>
        <time>2022-09-28T10:54:57Z</time>
      </trkpt>
      <trkpt lat="43.23694" lon="5.67101">
        <ele>400.9</ele>
        <time>2022-09-28T10:55:09Z</time>
      </trkpt>
      <trkpt lat="43.23696" lon="5.67119">
        <ele>401.2</ele>
        <time>2022-09-28T10:55:21Z</time>
      </trkpt>
      <trkpt lat="43.23697" lon="5.67133">
        <ele>401.3</ele>
        <time>2022-09-28T10:55:29Z</time>
      </trkpt>
      <trkpt lat="43.23701" lon="5.67148">
        <ele>401.8</ele>
        <time>2022-09-28T10:55:39Z</time>
      </trkpt>
      <trkpt lat="43.23706" lon="5.67161">
        <ele>402.5</ele>
        <time>2022-09-28T10:55:49Z</time>
      </trkpt>
      <trkpt lat="43.2371" lon="5.67175">
        <ele>403.3</ele>
        <time>2022-09-28T10:56:01Z</time>
      </trkpt>
      <trkpt lat="43.23715" lon="5.67189">
        <ele>404</ele>
        <time>2022-09-28T10:56:15Z</time>
      </trkpt>
      <trkpt lat="43.23717" lon="5.67204">
        <ele>404.6</ele>
        <time>2022-09-28T10:56:25Z</time>
      </trkpt>
      <trkpt lat="43.23722" lon="5.6722">
        <ele>405.9</ele>
        <time>2022-09-28T10:56:39Z</time>
      </trkpt>
      <trkpt lat="43.23731" lon="5.67231">
        <ele>407.3</ele>
        <time>2022-09-28T10:56:53Z</time>
      </trkpt>
      <trkpt lat="43.23738" lon="5.67244">
        <ele>408.3</ele>
        <time>2022-09-28T10:57:05Z</time>
      </trkpt>
      <trkpt lat="43.23746" lon="5.67253">
        <ele>409.3</ele>
        <time>2022-09-28T10:57:17Z</time>
      </trkpt>
      <trkpt lat="43.23756" lon="5.6726">
        <ele>410.1</ele>
        <time>2022-09-28T10:57:29Z</time>
      </trkpt>
      <trkpt lat="43.23763" lon="5.67273">
        <ele>410.5</ele>
        <time>2022-09-28T10:57:41Z</time>
      </trkpt>
      <trkpt lat="43.23771" lon="5.67284">
        <ele>411.1</ele>
        <time>2022-09-28T10:57:53Z</time>
      </trkpt>
      <trkpt lat="43.23781" lon="5.67295">
        <ele>411.6</ele>
        <time>2022-09-28T10:58:05Z</time>
      </trkpt>
      <trkpt lat="43.2379" lon="5.67306">
        <ele>411.8</ele>
        <time>2022-09-28T10:58:17Z</time>
      </trkpt>
      <trkpt lat="43.23797" lon="5.67318">
        <ele>412.2</ele>
        <time>2022-09-28T10:58:27Z</time>
      </trkpt>
      <trkpt lat="43.23803" lon="5.67327">
        <ele>412.7</ele>
        <time>2022-09-28T10:58:37Z</time>
      </trkpt>
      <trkpt lat="43.23811" lon="5.67337">
        <ele>413.4</ele>
        <time>2022-09-28T10:58:49Z</time>
      </trkpt>
      <trkpt lat="43.2382" lon="5.67344">
        <ele>414</ele>
        <time>2022-09-28T10:58:59Z</time>
      </trkpt>
      <trkpt lat="43.2383" lon="5.67348">
        <ele>414.8</ele>
        <time>2022-09-28T10:59:13Z</time>
      </trkpt>
      <trkpt lat="43.23841" lon="5.67354">
        <ele>415.6</ele>
        <time>2022-09-28T10:59:25Z</time>
      </trkpt>
      <trkpt lat="43.2385" lon="5.67364">
        <ele>416.2</ele>
        <time>2022-09-28T10:59:35Z</time>
      </trkpt>
      <trkpt lat="43.23859" lon="5.67372">
        <ele>416.9</ele>
        <time>2022-09-28T10:59:47Z</time>
      </trkpt>
      <trkpt lat="43.23866" lon="5.67381">
        <ele>417.5</ele>
        <time>2022-09-28T10:59:59Z</time>
      </trkpt>
      <trkpt lat="43.23874" lon="5.67392">
        <ele>418.4</ele>
        <time>2022-09-28T11:00:09Z</time>
      </trkpt>
      <trkpt lat="43.23883" lon="5.67402">
        <ele>419.4</ele>
        <time>2022-09-28T11:00:21Z</time>
      </trkpt>
      <trkpt lat="43.23892" lon="5.67411">
        <ele>420.1</ele>
        <time>2022-09-28T11:00:33Z</time>
      </trkpt>
      <trkpt lat="43.23901" lon="5.67422">
        <ele>420.5</ele>
        <time>2022-09-28T11:00:45Z</time>
      </trkpt>
      <trkpt lat="43.23909" lon="5.67435">
        <ele>421.2</ele>
        <time>2022-09-28T11:00:57Z</time>
      </trkpt>
      <trkpt lat="43.23917" lon="5.67445">
        <ele>422</ele>
        <time>2022-09-28T11:01:07Z</time>
      </trkpt>
      <trkpt lat="43.23927" lon="5.6745">
        <ele>422.4</ele>
        <time>2022-09-28T11:01:19Z</time>
      </trkpt>
      <trkpt lat="43.23939" lon="5.67452">
        <ele>422.8</ele>
        <time>2022-09-28T11:01:33Z</time>
      </trkpt>
      <trkpt lat="43.23947" lon="5.67459">
        <ele>423.2</ele>
        <time>2022-09-28T11:01:45Z</time>
      </trkpt>
      <trkpt lat="43.23954" lon="5.67469">
        <ele>423.6</ele>
        <time>2022-09-28T11:01:57Z</time>
      </trkpt>
      <trkpt lat="43.23965" lon="5.67477">
        <ele>424.5</ele>
        <time>2022-09-28T11:02:07Z</time>
      </trkpt>
      <trkpt lat="43.23973" lon="5.67487">
        <ele>425</ele>
        <time>2022-09-28T11:02:17Z</time>
      </trkpt>
      <trkpt lat="43.23982" lon="5.67498">
        <ele>425.4</ele>
        <time>2022-09-28T11:02:29Z</time>
      </trkpt>
      <trkpt lat="43.2399" lon="5.67505">
        <ele>425.8</ele>
        <time>2022-09-28T11:02:39Z</time>
      </trkpt>
      <trkpt lat="43.24" lon="5.67515">
        <ele>426.5</ele>
        <time>2022-09-28T11:02:53Z</time>
      </trkpt>
      <trkpt lat="43.2401" lon="5.67525">
        <ele>427.3</ele>
        <time>2022-09-28T11:03:05Z</time>
      </trkpt>
      <trkpt lat="43.24019" lon="5.67535">
        <ele>427.7</ele>
        <time>2022-09-28T11:03:17Z</time>
      </trkpt>
      <trkpt lat="43.24031" lon="5.67541">
        <ele>428</ele>
        <time>2022-09-28T11:03:30Z</time>
      </trkpt>
      <trkpt lat="43.24036" lon="5.67555">
        <ele>428</ele>
        <time>2022-09-28T11:03:41Z</time>
      </trkpt>
      <trkpt lat="43.24038" lon="5.67569">
        <ele>428</ele>
        <time>2022-09-28T11:03:51Z</time>
      </trkpt>
      <trkpt lat="43.2404" lon="5.67585">
        <ele>428</ele>
        <time>2022-09-28T11:04:03Z</time>
      </trkpt>
      <trkpt lat="43.24047" lon="5.67598">
        <ele>428</ele>
        <time>2022-09-28T11:04:17Z</time>
      </trkpt>
      <trkpt lat="43.24058" lon="5.67604">
        <ele>428.1</ele>
        <time>2022-09-28T11:04:29Z</time>
      </trkpt>
      <trkpt lat="43.24069" lon="5.676">
        <ele>428.5</ele>
        <time>2022-09-28T11:04:41Z</time>
      </trkpt>
      <trkpt lat="43.24079" lon="5.67596">
        <ele>428.8</ele>
        <time>2022-09-28T11:04:51Z</time>
      </trkpt>
      <trkpt lat="43.2409" lon="5.67594">
        <ele>429</ele>
        <time>2022-09-28T11:05:01Z</time>
      </trkpt>
      <trkpt lat="43.241" lon="5.67582">
        <ele>429</ele>
        <time>2022-09-28T11:05:13Z</time>
      </trkpt>
      <trkpt lat="43.24105" lon="5.67567">
        <ele>429.5</ele>
        <time>2022-09-28T11:05:25Z</time>
      </trkpt>
      <trkpt lat="43.24116" lon="5.67566">
        <ele>429.7</ele>
        <time>2022-09-28T11:05:37Z</time>
      </trkpt>
      <trkpt lat="43.24124" lon="5.67554">
        <ele>430</ele>
        <time>2022-09-28T11:05:49Z</time>
      </trkpt>
      <trkpt lat="43.24134" lon="5.67545">
        <ele>430</ele>
        <time>2022-09-28T11:06:03Z</time>
      </trkpt>
      <trkpt lat="43.2414" lon="5.67534">
        <ele>430</ele>
        <time>2022-09-28T11:06:19Z</time>
      </trkpt>
      <trkpt lat="43.24135" lon="5.67523">
        <ele>430</ele>
        <time>2022-09-28T11:08:01Z</time>
      </trkpt>
      <trkpt lat="43.24133" lon="5.6751">
        <ele>429.9</ele>
        <time>2022-09-28T11:08:13Z</time>
      </trkpt>
      <trkpt lat="43.24125" lon="5.67495">
        <ele>429.4</ele>
        <time>2022-09-28T11:08:27Z</time>
      </trkpt>
      <trkpt lat="43.24115" lon="5.67489">
        <ele>429.1</ele>
        <time>2022-09-28T11:08:35Z</time>
      </trkpt>
      <trkpt lat="43.24105" lon="5.67484">
        <ele>428.6</ele>
        <time>2022-09-28T11:08:47Z</time>
      </trkpt>
      <trkpt lat="43.24097" lon="5.67475">
        <ele>428</ele>
        <time>2022-09-28T11:09:55Z</time>
      </trkpt>
      <trkpt lat="43.24086" lon="5.67471">
        <ele>427.3</ele>
        <time>2022-09-28T11:10:09Z</time>
      </trkpt>
      <trkpt lat="43.24078" lon="5.67475">
        <ele>427.3</ele>
        <time>2022-09-28T11:10:43Z</time>
      </trkpt>
      <trkpt lat="43.24081" lon="5.67486">
        <ele>427.6</ele>
        <time>2022-09-28T11:11:11Z</time>
      </trkpt>
      <trkpt lat="43.2409" lon="5.67491">
        <ele>428</ele>
        <time>2022-09-28T11:11:45Z</time>
      </trkpt>
      <trkpt lat="43.241" lon="5.67489">
        <ele>428.4</ele>
        <time>2022-09-28T11:12:03Z</time>
      </trkpt>
      <trkpt lat="43.24106" lon="5.67489">
        <ele>428.7</ele>
        <time>2022-09-28T11:17:35Z</time>
      </trkpt>
      <trkpt lat="43.24115" lon="5.67485">
        <ele>429.1</ele>
        <time>2022-09-28T11:18:03Z</time>
      </trkpt>
      <trkpt lat="43.24122" lon="5.67472">
        <ele>429</ele>
        <time>2022-09-28T11:18:19Z</time>
      </trkpt>
      <trkpt lat="43.24129" lon="5.67463">
        <ele>428.9</ele>
        <time>2022-09-28T11:18:27Z</time>
      </trkpt>
      <trkpt lat="43.24137" lon="5.67451">
        <ele>429</ele>
        <time>2022-09-28T11:18:39Z</time>
      </trkpt>
      <trkpt lat="43.24145" lon="5.6744">
        <ele>428.9</ele>
        <time>2022-09-28T11:18:51Z</time>
      </trkpt>
      <trkpt lat="43.24148" lon="5.67426">
        <ele>428.4</ele>
        <time>2022-09-28T11:19:03Z</time>
      </trkpt>
      <trkpt lat="43.24145" lon="5.67412">
        <ele>428</ele>
        <time>2022-09-28T11:19:15Z</time>
      </trkpt>
      <trkpt lat="43.24142" lon="5.67396">
        <ele>428</ele>
        <time>2022-09-28T11:19:27Z</time>
      </trkpt>
      <trkpt lat="43.24138" lon="5.67382">
        <ele>428</ele>
        <time>2022-09-28T11:19:39Z</time>
      </trkpt>
      <trkpt lat="43.24138" lon="5.67367">
        <ele>428</ele>
        <time>2022-09-28T11:19:49Z</time>
      </trkpt>
      <trkpt lat="43.24135" lon="5.67354">
        <ele>428</ele>
        <time>2022-09-28T11:19:57Z</time>
      </trkpt>
      <trkpt lat="43.24136" lon="5.67336">
        <ele>428.1</ele>
        <time>2022-09-28T11:20:09Z</time>
      </trkpt>
      <trkpt lat="43.24136" lon="5.67324">
        <ele>428.1</ele>
        <time>2022-09-28T11:20:17Z</time>
      </trkpt>
      <trkpt lat="43.24137" lon="5.67307">
        <ele>428.1</ele>
        <time>2022-09-28T11:20:29Z</time>
      </trkpt>
      <trkpt lat="43.24135" lon="5.67292">
        <ele>428.1</ele>
        <time>2022-09-28T11:20:39Z</time>
      </trkpt>
      <trkpt lat="43.24133" lon="5.6728">
        <ele>428.2</ele>
        <time>2022-09-28T11:20:47Z</time>
      </trkpt>
      <trkpt lat="43.24129" lon="5.67267">
        <ele>428</ele>
        <time>2022-09-28T11:20:55Z</time>
      </trkpt>
      <trkpt lat="43.24125" lon="5.67253">
        <ele>427.6</ele>
        <time>2022-09-28T11:21:05Z</time>
      </trkpt>
      <trkpt lat="43.24119" lon="5.67238">
        <ele>427.7</ele>
        <time>2022-09-28T11:21:17Z</time>
      </trkpt>
      <trkpt lat="43.24115" lon="5.67226">
        <ele>427.9</ele>
        <time>2022-09-28T11:21:25Z</time>
      </trkpt>
      <trkpt lat="43.24111" lon="5.67212">
        <ele>427.6</ele>
        <time>2022-09-28T11:21:35Z</time>
      </trkpt>
      <trkpt lat="43.24107" lon="5.67198">
        <ele>427.3</ele>
        <time>2022-09-28T11:21:45Z</time>
      </trkpt>
      <trkpt lat="43.24105" lon="5.67181">
        <ele>426.8</ele>
        <time>2022-09-28T11:21:57Z</time>
      </trkpt>
      <trkpt lat="43.24101" lon="5.67166">
        <ele>426.4</ele>
        <time>2022-09-28T11:22:07Z</time>
      </trkpt>
      <trkpt lat="43.24095" lon="5.67154">
        <ele>426.4</ele>
        <time>2022-09-28T11:22:15Z</time>
      </trkpt>
      <trkpt lat="43.2409" lon="5.67141">
        <ele>426.6</ele>
        <time>2022-09-28T11:22:25Z</time>
      </trkpt>
      <trkpt lat="43.24083" lon="5.67127">
        <ele>426.6</ele>
        <time>2022-09-28T11:22:35Z</time>
      </trkpt>
      <trkpt lat="43.24077" lon="5.67116">
        <ele>426.4</ele>
        <time>2022-09-28T11:22:43Z</time>
      </trkpt>
      <trkpt lat="43.24071" lon="5.67106">
        <ele>426.3</ele>
        <time>2022-09-28T11:22:51Z</time>
      </trkpt>
      <trkpt lat="43.24066" lon="5.67096">
        <ele>426.1</ele>
        <time>2022-09-28T11:22:59Z</time>
      </trkpt>
      <trkpt lat="43.24061" lon="5.67082">
        <ele>425.8</ele>
        <time>2022-09-28T11:23:09Z</time>
      </trkpt>
      <trkpt lat="43.24054" lon="5.67069">
        <ele>425.5</ele>
        <time>2022-09-28T11:23:21Z</time>
      </trkpt>
      <trkpt lat="43.24048" lon="5.67053">
        <ele>424.9</ele>
        <time>2022-09-28T11:23:33Z</time>
      </trkpt>
      <trkpt lat="43.24044" lon="5.67041">
        <ele>424.5</ele>
        <time>2022-09-28T11:23:41Z</time>
      </trkpt>
      <trkpt lat="43.24041" lon="5.67027">
        <ele>424</ele>
        <time>2022-09-28T11:23:51Z</time>
      </trkpt>
      <trkpt lat="43.24036" lon="5.67015">
        <ele>423.9</ele>
        <time>2022-09-28T11:23:59Z</time>
      </trkpt>
      <trkpt lat="43.24032" lon="5.66997">
        <ele>423.9</ele>
        <time>2022-09-28T11:24:11Z</time>
      </trkpt>
      <trkpt lat="43.2403" lon="5.66983">
        <ele>423.9</ele>
        <time>2022-09-28T11:24:21Z</time>
      </trkpt>
      <trkpt lat="43.24026" lon="5.66968">
        <ele>423.9</ele>
        <time>2022-09-28T11:24:31Z</time>
      </trkpt>
      <trkpt lat="43.24022" lon="5.66954">
        <ele>423.3</ele>
        <time>2022-09-28T11:24:41Z</time>
      </trkpt>
      <trkpt lat="43.24016" lon="5.66937">
        <ele>423</ele>
        <time>2022-09-28T11:24:53Z</time>
      </trkpt>
      <trkpt lat="43.24012" lon="5.66923">
        <ele>423</ele>
        <time>2022-09-28T11:25:03Z</time>
      </trkpt>
      <trkpt lat="43.24008" lon="5.66908">
        <ele>422.9</ele>
        <time>2022-09-28T11:25:13Z</time>
      </trkpt>
      <trkpt lat="43.24004" lon="5.66896">
        <ele>422.9</ele>
        <time>2022-09-28T11:25:21Z</time>
      </trkpt>
      <trkpt lat="43.24" lon="5.66882">
        <ele>423</ele>
        <time>2022-09-28T11:25:31Z</time>
      </trkpt>
      <trkpt lat="43.23995" lon="5.6687">
        <ele>422.8</ele>
        <time>2022-09-28T11:25:39Z</time>
      </trkpt>
      <trkpt lat="43.23991" lon="5.66859">
        <ele>422.6</ele>
        <time>2022-09-28T11:25:47Z</time>
      </trkpt>
      <trkpt lat="43.23986" lon="5.66847">
        <ele>422.2</ele>
        <time>2022-09-28T11:25:55Z</time>
      </trkpt>
      <trkpt lat="43.23982" lon="5.66836">
        <ele>422</ele>
        <time>2022-09-28T11:26:03Z</time>
      </trkpt>
      <trkpt lat="43.23978" lon="5.66824">
        <ele>421.7</ele>
        <time>2022-09-28T11:26:11Z</time>
      </trkpt>
      <trkpt lat="43.23973" lon="5.66813">
        <ele>421.3</ele>
        <time>2022-09-28T11:26:19Z</time>
      </trkpt>
      <trkpt lat="43.23968" lon="5.66799">
        <ele>420.8</ele>
        <time>2022-09-28T11:26:29Z</time>
      </trkpt>
      <trkpt lat="43.23961" lon="5.6679">
        <ele>420.6</ele>
        <time>2022-09-28T11:26:37Z</time>
      </trkpt>
      <trkpt lat="43.2395" lon="5.66788">
        <ele>420.2</ele>
        <time>2022-09-28T11:26:47Z</time>
      </trkpt>
      <trkpt lat="43.23939" lon="5.66794">
        <ele>419.6</ele>
        <time>2022-09-28T11:26:59Z</time>
      </trkpt>
      <trkpt lat="43.23931" lon="5.668">
        <ele>419</ele>
        <time>2022-09-28T11:27:47Z</time>
      </trkpt>
      <trkpt lat="43.23922" lon="5.66806">
        <ele>418.4</ele>
        <time>2022-09-28T11:27:55Z</time>
      </trkpt>
      <trkpt lat="43.23912" lon="5.66813">
        <ele>417.5</ele>
        <time>2022-09-28T11:28:05Z</time>
      </trkpt>
      <trkpt lat="43.23902" lon="5.66823">
        <ele>416.4</ele>
        <time>2022-09-28T11:28:15Z</time>
      </trkpt>
      <trkpt lat="43.23892" lon="5.66835">
        <ele>415.3</ele>
        <time>2022-09-28T11:28:27Z</time>
      </trkpt>
      <trkpt lat="43.23885" lon="5.66848">
        <ele>414.5</ele>
        <time>2022-09-28T11:28:37Z</time>
      </trkpt>
      <trkpt lat="43.2388" lon="5.66864">
        <ele>414</ele>
        <time>2022-09-28T11:28:49Z</time>
      </trkpt>
      <trkpt lat="43.23878" lon="5.66876">
        <ele>413.5</ele>
        <time>2022-09-28T11:28:57Z</time>
      </trkpt>
      <trkpt lat="43.23876" lon="5.66894">
        <ele>413.2</ele>
        <time>2022-09-28T11:29:09Z</time>
      </trkpt>
      <trkpt lat="43.23874" lon="5.66909">
        <ele>412.8</ele>
        <time>2022-09-28T11:29:19Z</time>
      </trkpt>
      <trkpt lat="43.23869" lon="5.66925">
        <ele>412.1</ele>
        <time>2022-09-28T11:29:31Z</time>
      </trkpt>
      <trkpt lat="43.23865" lon="5.66941">
        <ele>411.5</ele>
        <time>2022-09-28T11:29:43Z</time>
      </trkpt>
      <trkpt lat="43.23859" lon="5.66958">
        <ele>410.2</ele>
        <time>2022-09-28T11:29:55Z</time>
      </trkpt>
      <trkpt lat="43.23855" lon="5.66973">
        <ele>409.1</ele>
        <time>2022-09-28T11:30:07Z</time>
      </trkpt>
      <trkpt lat="43.23853" lon="5.66987">
        <ele>409.3</ele>
        <time>2022-09-28T11:30:25Z</time>
      </trkpt>
      <trkpt lat="43.23847" lon="5.66997">
        <ele>408.8</ele>
        <time>2022-09-28T11:30:37Z</time>
      </trkpt>
      <trkpt lat="43.2384" lon="5.6701">
        <ele>408.3</ele>
        <time>2022-09-28T11:30:49Z</time>
      </trkpt>
      <trkpt lat="43.23833" lon="5.67021">
        <ele>407.7</ele>
        <time>2022-09-28T11:31:01Z</time>
      </trkpt>
      <trkpt lat="43.23827" lon="5.67032">
        <ele>407.1</ele>
        <time>2022-09-28T11:31:13Z</time>
      </trkpt>
      <trkpt lat="43.23818" lon="5.67042">
        <ele>406.4</ele>
        <time>2022-09-28T11:31:25Z</time>
      </trkpt>
      <trkpt lat="43.23808" lon="5.67049">
        <ele>405.7</ele>
        <time>2022-09-28T11:31:37Z</time>
      </trkpt>
      <trkpt lat="43.23796" lon="5.67048">
        <ele>405.5</ele>
        <time>2022-09-28T11:31:49Z</time>
      </trkpt>
      <trkpt lat="43.23785" lon="5.67045">
        <ele>405.2</ele>
        <time>2022-09-28T11:32:01Z</time>
      </trkpt>
      <trkpt lat="43.23775" lon="5.67041">
        <ele>404.8</ele>
        <time>2022-09-28T11:32:13Z</time>
      </trkpt>
      <trkpt lat="43.23766" lon="5.67038">
        <ele>404.3</ele>
        <time>2022-09-28T11:32:21Z</time>
      </trkpt>
      <trkpt lat="43.23754" lon="5.67032">
        <ele>403.5</ele>
        <time>2022-09-28T11:32:33Z</time>
      </trkpt>
      <trkpt lat="43.23742" lon="5.67028">
        <ele>403</ele>
        <time>2022-09-28T11:32:45Z</time>
      </trkpt>
      <trkpt lat="43.23733" lon="5.67027">
        <ele>402.9</ele>
        <time>2022-09-28T11:32:53Z</time>
      </trkpt>
      <trkpt lat="43.2372" lon="5.67024">
        <ele>402.6</ele>
        <time>2022-09-28T11:33:05Z</time>
      </trkpt>
      <trkpt lat="43.23709" lon="5.67023">
        <ele>401.7</ele>
        <time>2022-09-28T11:33:17Z</time>
      </trkpt>
      <trkpt lat="43.23697" lon="5.67021">
        <ele>400.9</ele>
        <time>2022-09-28T11:33:29Z</time>
      </trkpt>
      <trkpt lat="43.23686" lon="5.67023">
        <ele>400</ele>
        <time>2022-09-28T11:33:41Z</time>
      </trkpt>
      <trkpt lat="43.23676" lon="5.67023">
        <ele>398.9</ele>
        <time>2022-09-28T11:33:51Z</time>
      </trkpt>
      <trkpt lat="43.23664" lon="5.67026">
        <ele>397.6</ele>
        <time>2022-09-28T11:34:03Z</time>
      </trkpt>
      <trkpt lat="43.23652" lon="5.6703">
        <ele>395.9</ele>
        <time>2022-09-28T11:34:15Z</time>
      </trkpt>
      <trkpt lat="43.2364" lon="5.67032">
        <ele>394.3</ele>
        <time>2022-09-28T11:34:27Z</time>
      </trkpt>
      <trkpt lat="43.23628" lon="5.67036">
        <ele>393.6</ele>
        <time>2022-09-28T11:34:39Z</time>
      </trkpt>
      <trkpt lat="43.23617" lon="5.67037">
        <ele>392.8</ele>
        <time>2022-09-28T11:34:51Z</time>
      </trkpt>
      <trkpt lat="43.23607" lon="5.67039">
        <ele>392.8</ele>
        <time>2022-09-28T11:35:03Z</time>
      </trkpt>
      <trkpt lat="43.23596" lon="5.67038">
        <ele>393.8</ele>
        <time>2022-09-28T11:35:15Z</time>
      </trkpt>
      <trkpt lat="43.23585" lon="5.67036">
        <ele>394.8</ele>
        <time>2022-09-28T11:35:25Z</time>
      </trkpt>
      <trkpt lat="43.23575" lon="5.67033">
        <ele>395.9</ele>
        <time>2022-09-28T11:35:37Z</time>
      </trkpt>
      <trkpt lat="43.23565" lon="5.67028">
        <ele>397</ele>
        <time>2022-09-28T11:35:47Z</time>
      </trkpt>
      <trkpt lat="43.23556" lon="5.67032">
        <ele>398</ele>
        <time>2022-09-28T11:35:57Z</time>
      </trkpt>
      <trkpt lat="43.23547" lon="5.67042">
        <ele>398.2</ele>
        <time>2022-09-28T11:36:09Z</time>
      </trkpt>
      <trkpt lat="43.23537" lon="5.67046">
        <ele>398.2</ele>
        <time>2022-09-28T11:36:25Z</time>
      </trkpt>
      <trkpt lat="43.23525" lon="5.67047">
        <ele>398.3</ele>
        <time>2022-09-28T11:36:39Z</time>
      </trkpt>
      <trkpt lat="43.23516" lon="5.67051">
        <ele>398.2</ele>
        <time>2022-09-28T11:36:51Z</time>
      </trkpt>
      <trkpt lat="43.23505" lon="5.67056">
        <ele>398</ele>
        <time>2022-09-28T11:37:05Z</time>
      </trkpt>
      <trkpt lat="43.23496" lon="5.67064">
        <ele>397.9</ele>
        <time>2022-09-28T11:37:15Z</time>
      </trkpt>
      <trkpt lat="43.23488" lon="5.67075">
        <ele>397.6</ele>
        <time>2022-09-28T11:37:25Z</time>
      </trkpt>
      <trkpt lat="43.23481" lon="5.67089">
        <ele>397.3</ele>
        <time>2022-09-28T11:37:35Z</time>
      </trkpt>
      <trkpt lat="43.23476" lon="5.67104">
        <ele>397</ele>
        <time>2022-09-28T11:37:47Z</time>
      </trkpt>
      <trkpt lat="43.23472" lon="5.67116">
        <ele>396.8</ele>
        <time>2022-09-28T11:37:55Z</time>
      </trkpt>
      <trkpt lat="43.23469" lon="5.67131">
        <ele>395.9</ele>
        <time>2022-09-28T11:38:05Z</time>
      </trkpt>
      <trkpt lat="43.23468" lon="5.67144">
        <ele>395.5</ele>
        <time>2022-09-28T11:38:13Z</time>
      </trkpt>
      <trkpt lat="43.23465" lon="5.67161">
        <ele>395.4</ele>
        <time>2022-09-28T11:38:25Z</time>
      </trkpt>
      <trkpt lat="43.23465" lon="5.67176">
        <ele>395.4</ele>
        <time>2022-09-28T11:38:35Z</time>
      </trkpt>
      <trkpt lat="43.23457" lon="5.67184">
        <ele>394.9</ele>
        <time>2022-09-28T11:38:45Z</time>
      </trkpt>
      <trkpt lat="43.23451" lon="5.67197">
        <ele>394.6</ele>
        <time>2022-09-28T11:38:57Z</time>
      </trkpt>
      <trkpt lat="43.23448" lon="5.67209">
        <ele>394.7</ele>
        <time>2022-09-28T11:39:11Z</time>
      </trkpt>
      <trkpt lat="43.23439" lon="5.67213">
        <ele>394.6</ele>
        <time>2022-09-28T11:39:23Z</time>
      </trkpt>
      <trkpt lat="43.23429" lon="5.67219">
        <ele>394.8</ele>
        <time>2022-09-28T11:39:51Z</time>
      </trkpt>
      <trkpt lat="43.2342" lon="5.67226">
        <ele>395.1</ele>
        <time>2022-09-28T11:40:29Z</time>
      </trkpt>
      <trkpt lat="43.2341" lon="5.6723">
        <ele>395.1</ele>
        <time>2022-09-28T11:40:47Z</time>
      </trkpt>
      <trkpt lat="43.23401" lon="5.67235">
        <ele>395.1</ele>
        <time>2022-09-28T11:40:59Z</time>
      </trkpt>
      <trkpt lat="43.2339" lon="5.67242">
        <ele>395.4</ele>
        <time>2022-09-28T11:41:13Z</time>
      </trkpt>
      <trkpt lat="43.23379" lon="5.67248">
        <ele>395.9</ele>
        <time>2022-09-28T11:41:25Z</time>
      </trkpt>
      <trkpt lat="43.23369" lon="5.67255">
        <ele>396.3</ele>
        <time>2022-09-28T11:41:37Z</time>
      </trkpt>
      <trkpt lat="43.23359" lon="5.67264">
        <ele>397.1</ele>
        <time>2022-09-28T11:41:49Z</time>
      </trkpt>
      <trkpt lat="43.2335" lon="5.67274">
        <ele>397.8</ele>
        <time>2022-09-28T11:42:01Z</time>
      </trkpt>
      <trkpt lat="43.23342" lon="5.67283">
        <ele>398.3</ele>
        <time>2022-09-28T11:42:13Z</time>
      </trkpt>
      <trkpt lat="43.23333" lon="5.67288">
        <ele>398.7</ele>
        <time>2022-09-28T11:42:23Z</time>
      </trkpt>
      <trkpt lat="43.23323" lon="5.67294">
        <ele>399.3</ele>
        <time>2022-09-28T11:42:37Z</time>
      </trkpt>
      <trkpt lat="43.23313" lon="5.67302">
        <ele>399.9</ele>
        <time>2022-09-28T11:42:47Z</time>
      </trkpt>
      <trkpt lat="43.23303" lon="5.67311">
        <ele>400.2</ele>
        <time>2022-09-28T11:42:59Z</time>
      </trkpt>
      <trkpt lat="43.23292" lon="5.67316">
        <ele>400.4</ele>
        <time>2022-09-28T11:43:11Z</time>
      </trkpt>
      <trkpt lat="43.2328" lon="5.67321">
        <ele>400.5</ele>
        <time>2022-09-28T11:43:23Z</time>
      </trkpt>
      <trkpt lat="43.23269" lon="5.67325">
        <ele>401.1</ele>
        <time>2022-09-28T11:43:35Z</time>
      </trkpt>
      <trkpt lat="43.2326" lon="5.6733">
        <ele>401.6</ele>
        <time>2022-09-28T11:43:43Z</time>
      </trkpt>
      <trkpt lat="43.23249" lon="5.67338">
        <ele>402.3</ele>
        <time>2022-09-28T11:43:55Z</time>
      </trkpt>
      <trkpt lat="43.23239" lon="5.67336">
        <ele>402.9</ele>
        <time>2022-09-28T11:44:09Z</time>
      </trkpt>
      <trkpt lat="43.23227" lon="5.67335">
        <ele>403.6</ele>
        <time>2022-09-28T11:44:23Z</time>
      </trkpt>
      <trkpt lat="43.23218" lon="5.67335">
        <ele>404.8</ele>
        <time>2022-09-28T11:44:39Z</time>
      </trkpt>
      <trkpt lat="43.23208" lon="5.67332">
        <ele>406.7</ele>
        <time>2022-09-28T11:45:01Z</time>
      </trkpt>
      <trkpt lat="43.23197" lon="5.6733">
        <ele>408.6</ele>
        <time>2022-09-28T11:45:17Z</time>
      </trkpt>
      <trkpt lat="43.23187" lon="5.67327">
        <ele>410.5</ele>
        <time>2022-09-28T11:45:33Z</time>
      </trkpt>
      <trkpt lat="43.23178" lon="5.67329">
        <ele>412.2</ele>
        <time>2022-09-28T11:45:45Z</time>
      </trkpt>
      <trkpt lat="43.23168" lon="5.67329">
        <ele>414.1</ele>
        <time>2022-09-28T11:46:01Z</time>
      </trkpt>
      <trkpt lat="43.23158" lon="5.67329">
        <ele>415.6</ele>
        <time>2022-09-28T11:46:23Z</time>
      </trkpt>
      <trkpt lat="43.23148" lon="5.67327">
        <ele>417.2</ele>
        <time>2022-09-28T11:46:43Z</time>
      </trkpt>
      <trkpt lat="43.23141" lon="5.67318">
        <ele>418.8</ele>
        <time>2022-09-28T11:46:55Z</time>
      </trkpt>
      <trkpt lat="43.23132" lon="5.67309">
        <ele>419.3</ele>
        <time>2022-09-28T11:47:09Z</time>
      </trkpt>
      <trkpt lat="43.23127" lon="5.67298">
        <ele>420.1</ele>
        <time>2022-09-28T11:47:25Z</time>
      </trkpt>
      <trkpt lat="43.23119" lon="5.67292">
        <ele>420.3</ele>
        <time>2022-09-28T11:47:41Z</time>
      </trkpt>
      <trkpt lat="43.2311" lon="5.67285">
        <ele>421.1</ele>
        <time>2022-09-28T11:48:03Z</time>
      </trkpt>
      <trkpt lat="43.231" lon="5.67281">
        <ele>422.3</ele>
        <time>2022-09-28T11:48:37Z</time>
      </trkpt>
      <trkpt lat="43.23091" lon="5.67278">
        <ele>423.5</ele>
        <time>2022-09-28T11:48:53Z</time>
      </trkpt>
      <trkpt lat="43.23081" lon="5.67273">
        <ele>424.8</ele>
        <time>2022-09-28T11:49:07Z</time>
      </trkpt>
      <trkpt lat="43.23072" lon="5.67269">
        <ele>425.9</ele>
        <time>2022-09-28T11:49:29Z</time>
      </trkpt>
      <trkpt lat="43.23063" lon="5.6726">
        <ele>427.6</ele>
        <time>2022-09-28T11:49:45Z</time>
      </trkpt>
      <trkpt lat="43.23053" lon="5.67255">
        <ele>428.3</ele>
        <time>2022-09-28T11:50:01Z</time>
      </trkpt>
      <trkpt lat="43.23046" lon="5.67244">
        <ele>428.5</ele>
        <time>2022-09-28T11:50:17Z</time>
      </trkpt>
      <trkpt lat="43.23045" lon="5.6723">
        <ele>429</ele>
        <time>2022-09-28T11:50:35Z</time>
      </trkpt>
      <trkpt lat="43.23046" lon="5.67215">
        <ele>429.6</ele>
        <time>2022-09-28T11:50:49Z</time>
      </trkpt>
      <trkpt lat="43.23045" lon="5.67202">
        <ele>430</ele>
        <time>2022-09-28T11:51:01Z</time>
      </trkpt>
      <trkpt lat="43.23039" lon="5.67189">
        <ele>430</ele>
        <time>2022-09-28T11:51:15Z</time>
      </trkpt>
      <trkpt lat="43.23031" lon="5.67177">
        <ele>429.8</ele>
        <time>2022-09-28T11:51:31Z</time>
      </trkpt>
      <trkpt lat="43.23022" lon="5.67168">
        <ele>430</ele>
        <time>2022-09-28T11:52:05Z</time>
      </trkpt>
      <trkpt lat="43.23014" lon="5.67159">
        <ele>430.5</ele>
        <time>2022-09-28T11:52:19Z</time>
      </trkpt>
      <trkpt lat="43.23006" lon="5.6715">
        <ele>431.2</ele>
        <time>2022-09-28T11:52:31Z</time>
      </trkpt>
      <trkpt lat="43.22997" lon="5.67142">
        <ele>431.8</ele>
        <time>2022-09-28T11:52:45Z</time>
      </trkpt>
      <trkpt lat="43.22988" lon="5.67134">
        <ele>432.3</ele>
        <time>2022-09-28T11:53:03Z</time>
      </trkpt>
      <trkpt lat="43.22991" lon="5.67122">
        <ele>433</ele>
        <time>2022-09-28T11:53:25Z</time>
      </trkpt>
      <trkpt lat="43.22982" lon="5.67119">
        <ele>433</ele>
        <time>2022-09-28T12:55:24Z</time>
      </trkpt>
      <trkpt lat="43.22985" lon="5.6713">
        <ele>432.4</ele>
        <time>2022-09-28T12:56:54Z</time>
      </trkpt>
      <trkpt lat="43.22992" lon="5.67131">
        <ele>432.5</ele>
        <time>2022-09-28T13:02:42Z</time>
      </trkpt>
      <trkpt lat="43.22989" lon="5.67119">
        <ele>433.2</ele>
        <time>2022-09-28T13:06:38Z</time>
      </trkpt>
      <trkpt lat="43.22982" lon="5.67127">
        <ele>432.6</ele>
        <time>2022-09-28T13:08:48Z</time>
      </trkpt>
      <trkpt lat="43.2298" lon="5.67137">
        <ele>432.1</ele>
        <time>2022-09-28T13:09:06Z</time>
      </trkpt>
      <trkpt lat="43.22975" lon="5.67141">
        <ele>432</ele>
        <time>2022-09-28T13:09:36Z</time>
      </trkpt>
      <trkpt lat="43.22969" lon="5.67131">
        <ele>432.2</ele>
        <time>2022-09-28T13:09:54Z</time>
      </trkpt>
      <trkpt lat="43.22959" lon="5.67128">
        <ele>432.2</ele>
        <time>2022-09-28T13:10:10Z</time>
      </trkpt>
      <trkpt lat="43.22952" lon="5.67118">
        <ele>432.2</ele>
        <time>2022-09-28T13:10:28Z</time>
      </trkpt>
      <trkpt lat="43.22943" lon="5.67108">
        <ele>432.1</ele>
        <time>2022-09-28T13:10:42Z</time>
      </trkpt>
      <trkpt lat="43.22934" lon="5.67101">
        <ele>431.8</ele>
        <time>2022-09-28T13:10:56Z</time>
      </trkpt>
      <trkpt lat="43.22924" lon="5.67097">
        <ele>431.4</ele>
        <time>2022-09-28T13:11:10Z</time>
      </trkpt>
      <trkpt lat="43.22916" lon="5.67088">
        <ele>431</ele>
        <time>2022-09-28T13:11:22Z</time>
      </trkpt>
      <trkpt lat="43.22906" lon="5.6708">
        <ele>431.1</ele>
        <time>2022-09-28T13:11:38Z</time>
      </trkpt>
      <trkpt lat="43.22898" lon="5.67074">
        <ele>431.3</ele>
        <time>2022-09-28T13:11:50Z</time>
      </trkpt>
      <trkpt lat="43.22888" lon="5.67065">
        <ele>431.6</ele>
        <time>2022-09-28T13:12:04Z</time>
      </trkpt>
      <trkpt lat="43.2288" lon="5.67057">
        <ele>431.7</ele>
        <time>2022-09-28T13:12:20Z</time>
      </trkpt>
      <trkpt lat="43.2287" lon="5.67048">
        <ele>431.6</ele>
        <time>2022-09-28T13:12:36Z</time>
      </trkpt>
      <trkpt lat="43.22863" lon="5.67035">
        <ele>431.8</ele>
        <time>2022-09-28T13:12:50Z</time>
      </trkpt>
      <trkpt lat="43.22857" lon="5.67024">
        <ele>432.1</ele>
        <time>2022-09-28T13:13:02Z</time>
      </trkpt>
      <trkpt lat="43.22848" lon="5.67011">
        <ele>432.3</ele>
        <time>2022-09-28T13:13:14Z</time>
      </trkpt>
      <trkpt lat="43.22841" lon="5.66999">
        <ele>432.3</ele>
        <time>2022-09-28T13:13:26Z</time>
      </trkpt>
      <trkpt lat="43.22838" lon="5.66985">
        <ele>432.2</ele>
        <time>2022-09-28T13:13:38Z</time>
      </trkpt>
      <trkpt lat="43.22837" lon="5.66971">
        <ele>432.1</ele>
        <time>2022-09-28T13:13:52Z</time>
      </trkpt>
      <trkpt lat="43.22833" lon="5.66958">
        <ele>432.5</ele>
        <time>2022-09-28T13:14:04Z</time>
      </trkpt>
      <trkpt lat="43.22828" lon="5.66946">
        <ele>433</ele>
        <time>2022-09-28T13:14:16Z</time>
      </trkpt>
      <trkpt lat="43.22823" lon="5.66933">
        <ele>433.4</ele>
        <time>2022-09-28T13:14:26Z</time>
      </trkpt>
      <trkpt lat="43.22824" lon="5.66919">
        <ele>433.9</ele>
        <time>2022-09-28T13:14:36Z</time>
      </trkpt>
      <trkpt lat="43.22823" lon="5.66903">
        <ele>434.3</ele>
        <time>2022-09-28T13:14:48Z</time>
      </trkpt>
      <trkpt lat="43.22822" lon="5.66887">
        <ele>434.7</ele>
        <time>2022-09-28T13:14:58Z</time>
      </trkpt>
      <trkpt lat="43.22823" lon="5.66871">
        <ele>435.3</ele>
        <time>2022-09-28T13:15:10Z</time>
      </trkpt>
      <trkpt lat="43.22821" lon="5.66856">
        <ele>435.8</ele>
        <time>2022-09-28T13:15:22Z</time>
      </trkpt>
      <trkpt lat="43.22822" lon="5.66841">
        <ele>436.3</ele>
        <time>2022-09-28T13:15:34Z</time>
      </trkpt>
      <trkpt lat="43.22818" lon="5.66826">
        <ele>436.9</ele>
        <time>2022-09-28T13:15:48Z</time>
      </trkpt>
      <trkpt lat="43.22814" lon="5.66813">
        <ele>437.3</ele>
        <time>2022-09-28T13:16:00Z</time>
      </trkpt>
      <trkpt lat="43.22811" lon="5.66798">
        <ele>437.7</ele>
        <time>2022-09-28T13:16:12Z</time>
      </trkpt>
      <trkpt lat="43.22808" lon="5.66784">
        <ele>437.9</ele>
        <time>2022-09-28T13:16:26Z</time>
      </trkpt>
      <trkpt lat="43.22803" lon="5.66771">
        <ele>438.1</ele>
        <time>2022-09-28T13:16:38Z</time>
      </trkpt>
      <trkpt lat="43.22799" lon="5.66756">
        <ele>438.1</ele>
        <time>2022-09-28T13:16:52Z</time>
      </trkpt>
      <trkpt lat="43.22795" lon="5.66744">
        <ele>438.3</ele>
        <time>2022-09-28T13:17:04Z</time>
      </trkpt>
      <trkpt lat="43.22789" lon="5.6673">
        <ele>438.7</ele>
        <time>2022-09-28T13:17:16Z</time>
      </trkpt>
      <trkpt lat="43.22782" lon="5.66718">
        <ele>438.7</ele>
        <time>2022-09-28T13:17:24Z</time>
      </trkpt>
      <trkpt lat="43.22778" lon="5.66707">
        <ele>439.1</ele>
        <time>2022-09-28T13:17:32Z</time>
      </trkpt>
      <trkpt lat="43.2277" lon="5.66697">
        <ele>439.5</ele>
        <time>2022-09-28T13:17:44Z</time>
      </trkpt>
      <trkpt lat="43.22762" lon="5.66686">
        <ele>440.1</ele>
        <time>2022-09-28T13:17:56Z</time>
      </trkpt>
      <trkpt lat="43.22752" lon="5.66678">
        <ele>440.3</ele>
        <time>2022-09-28T13:18:08Z</time>
      </trkpt>
      <trkpt lat="43.22744" lon="5.66667">
        <ele>441</ele>
        <time>2022-09-28T13:18:20Z</time>
      </trkpt>
      <trkpt lat="43.22739" lon="5.66654">
        <ele>442</ele>
        <time>2022-09-28T13:18:32Z</time>
      </trkpt>
      <trkpt lat="43.22734" lon="5.66642">
        <ele>442.7</ele>
        <time>2022-09-28T13:18:46Z</time>
      </trkpt>
      <trkpt lat="43.22736" lon="5.66629">
        <ele>443.4</ele>
        <time>2022-09-28T13:19:06Z</time>
      </trkpt>
      <trkpt lat="43.22747" lon="5.66626">
        <ele>444.2</ele>
        <time>2022-09-28T13:19:16Z</time>
      </trkpt>
      <trkpt lat="43.22758" lon="5.66622">
        <ele>445.1</ele>
        <time>2022-09-28T13:19:28Z</time>
      </trkpt>
      <trkpt lat="43.22768" lon="5.66615">
        <ele>446</ele>
        <time>2022-09-28T13:19:40Z</time>
      </trkpt>
      <trkpt lat="43.22777" lon="5.66608">
        <ele>447</ele>
        <time>2022-09-28T13:19:52Z</time>
      </trkpt>
      <trkpt lat="43.22787" lon="5.66602">
        <ele>447.8</ele>
        <time>2022-09-28T13:20:04Z</time>
      </trkpt>
      <trkpt lat="43.22796" lon="5.66595">
        <ele>448.6</ele>
        <time>2022-09-28T13:20:16Z</time>
      </trkpt>
      <trkpt lat="43.22806" lon="5.66588">
        <ele>449.6</ele>
        <time>2022-09-28T13:20:28Z</time>
      </trkpt>
      <trkpt lat="43.22815" lon="5.6658">
        <ele>450.5</ele>
        <time>2022-09-28T13:20:42Z</time>
      </trkpt>
      <trkpt lat="43.22827" lon="5.66575">
        <ele>451.3</ele>
        <time>2022-09-28T13:20:56Z</time>
      </trkpt>
      <trkpt lat="43.22835" lon="5.66569">
        <ele>452.1</ele>
        <time>2022-09-28T13:21:06Z</time>
      </trkpt>
      <trkpt lat="43.22845" lon="5.66564">
        <ele>452.8</ele>
        <time>2022-09-28T13:21:18Z</time>
      </trkpt>
      <trkpt lat="43.22854" lon="5.66555">
        <ele>453.7</ele>
        <time>2022-09-28T13:21:30Z</time>
      </trkpt>
      <trkpt lat="43.2286" lon="5.66545">
        <ele>454.3</ele>
        <time>2022-09-28T13:21:38Z</time>
      </trkpt>
      <trkpt lat="43.22866" lon="5.66533">
        <ele>455.3</ele>
        <time>2022-09-28T13:21:48Z</time>
      </trkpt>
      <trkpt lat="43.22874" lon="5.66522">
        <ele>456.8</ele>
        <time>2022-09-28T13:22:00Z</time>
      </trkpt>
      <trkpt lat="43.22882" lon="5.66513">
        <ele>458</ele>
        <time>2022-09-28T13:22:14Z</time>
      </trkpt>
      <trkpt lat="43.22889" lon="5.66504">
        <ele>458.9</ele>
        <time>2022-09-28T13:22:26Z</time>
      </trkpt>
      <trkpt lat="43.22899" lon="5.66497">
        <ele>460.3</ele>
        <time>2022-09-28T13:22:38Z</time>
      </trkpt>
      <trkpt lat="43.22907" lon="5.66487">
        <ele>462</ele>
        <time>2022-09-28T13:22:54Z</time>
      </trkpt>
      <trkpt lat="43.22914" lon="5.66478">
        <ele>463.4</ele>
        <time>2022-09-28T13:23:06Z</time>
      </trkpt>
      <trkpt lat="43.22923" lon="5.6647">
        <ele>464.3</ele>
        <time>2022-09-28T13:23:20Z</time>
      </trkpt>
      <trkpt lat="43.22929" lon="5.66459">
        <ele>464.9</ele>
        <time>2022-09-28T13:23:32Z</time>
      </trkpt>
      <trkpt lat="43.22929" lon="5.66442">
        <ele>465.5</ele>
        <time>2022-09-28T13:23:44Z</time>
      </trkpt>
      <trkpt lat="43.22925" lon="5.66427">
        <ele>465.5</ele>
        <time>2022-09-28T13:23:56Z</time>
      </trkpt>
      <trkpt lat="43.22922" lon="5.66414">
        <ele>465.7</ele>
        <time>2022-09-28T13:24:08Z</time>
      </trkpt>
      <trkpt lat="43.22918" lon="5.66401">
        <ele>465.9</ele>
        <time>2022-09-28T13:24:22Z</time>
      </trkpt>
      <trkpt lat="43.22913" lon="5.66389">
        <ele>465.9</ele>
        <time>2022-09-28T13:24:50Z</time>
      </trkpt>
      <trkpt lat="43.22905" lon="5.66393">
        <ele>465.6</ele>
        <time>2022-09-28T13:30:10Z</time>
      </trkpt>
      <trkpt lat="43.22895" lon="5.66391">
        <ele>465.2</ele>
        <time>2022-09-28T13:31:48Z</time>
      </trkpt>
      <trkpt lat="43.22884" lon="5.66388">
        <ele>464.4</ele>
        <time>2022-09-28T13:32:02Z</time>
      </trkpt>
      <trkpt lat="43.22874" lon="5.66388">
        <ele>463.2</ele>
        <time>2022-09-28T13:32:14Z</time>
      </trkpt>
      <trkpt lat="43.22864" lon="5.66384">
        <ele>462</ele>
        <time>2022-09-28T13:32:30Z</time>
      </trkpt>
      <trkpt lat="43.22855" lon="5.66384">
        <ele>461</ele>
        <time>2022-09-28T13:32:42Z</time>
      </trkpt>
      <trkpt lat="43.22844" lon="5.66382">
        <ele>459.6</ele>
        <time>2022-09-28T13:32:54Z</time>
      </trkpt>
      <trkpt lat="43.22832" lon="5.66381">
        <ele>458.2</ele>
        <time>2022-09-28T13:33:06Z</time>
      </trkpt>
      <trkpt lat="43.22822" lon="5.66379">
        <ele>457.1</ele>
        <time>2022-09-28T13:33:18Z</time>
      </trkpt>
      <trkpt lat="43.22812" lon="5.66375">
        <ele>455.7</ele>
        <time>2022-09-28T13:33:30Z</time>
      </trkpt>
      <trkpt lat="43.22803" lon="5.66371">
        <ele>454.5</ele>
        <time>2022-09-28T13:33:42Z</time>
      </trkpt>
      <trkpt lat="43.22793" lon="5.66368">
        <ele>453.6</ele>
        <time>2022-09-28T13:33:54Z</time>
      </trkpt>
      <trkpt lat="43.22783" lon="5.66366">
        <ele>452.8</ele>
        <time>2022-09-28T13:34:06Z</time>
      </trkpt>
      <trkpt lat="43.22773" lon="5.66362">
        <ele>451.7</ele>
        <time>2022-09-28T13:34:18Z</time>
      </trkpt>
      <trkpt lat="43.22764" lon="5.66356">
        <ele>450.6</ele>
        <time>2022-09-28T13:34:28Z</time>
      </trkpt>
      <trkpt lat="43.22753" lon="5.66349">
        <ele>449.7</ele>
        <time>2022-09-28T13:34:40Z</time>
      </trkpt>
      <trkpt lat="43.22742" lon="5.66343">
        <ele>448.8</ele>
        <time>2022-09-28T13:34:52Z</time>
      </trkpt>
      <trkpt lat="43.22732" lon="5.66338">
        <ele>447.9</ele>
        <time>2022-09-28T13:35:04Z</time>
      </trkpt>
      <trkpt lat="43.22723" lon="5.66332">
        <ele>446.9</ele>
        <time>2022-09-28T13:35:16Z</time>
      </trkpt>
      <trkpt lat="43.22713" lon="5.66327">
        <ele>445.8</ele>
        <time>2022-09-28T13:35:28Z</time>
      </trkpt>
      <trkpt lat="43.22704" lon="5.66321">
        <ele>444.5</ele>
        <time>2022-09-28T13:35:38Z</time>
      </trkpt>
      <trkpt lat="43.22693" lon="5.66315">
        <ele>442.8</ele>
        <time>2022-09-28T13:35:50Z</time>
      </trkpt>
      <trkpt lat="43.22682" lon="5.66309">
        <ele>441.4</ele>
        <time>2022-09-28T13:36:02Z</time>
      </trkpt>
      <trkpt lat="43.2267" lon="5.66304">
        <ele>440.2</ele>
        <time>2022-09-28T13:36:14Z</time>
      </trkpt>
      <trkpt lat="43.22659" lon="5.66297">
        <ele>439.1</ele>
        <time>2022-09-28T13:36:26Z</time>
      </trkpt>
      <trkpt lat="43.22649" lon="5.6629">
        <ele>437.8</ele>
        <time>2022-09-28T13:36:38Z</time>
      </trkpt>
      <trkpt lat="43.22639" lon="5.66284">
        <ele>436.5</ele>
        <time>2022-09-28T13:36:50Z</time>
      </trkpt>
      <trkpt lat="43.22631" lon="5.66277">
        <ele>435.7</ele>
        <time>2022-09-28T13:37:02Z</time>
      </trkpt>
      <trkpt lat="43.22624" lon="5.66269">
        <ele>434.8</ele>
        <time>2022-09-28T13:37:14Z</time>
      </trkpt>
      <trkpt lat="43.22617" lon="5.66261">
        <ele>434</ele>
        <time>2022-09-28T13:37:26Z</time>
      </trkpt>
      <trkpt lat="43.22608" lon="5.66252">
        <ele>433.3</ele>
        <time>2022-09-28T13:37:38Z</time>
      </trkpt>
      <trkpt lat="43.226" lon="5.66241">
        <ele>432.3</ele>
        <time>2022-09-28T13:37:50Z</time>
      </trkpt>
      <trkpt lat="43.22593" lon="5.66226">
        <ele>430.8</ele>
        <time>2022-09-28T13:38:02Z</time>
      </trkpt>
      <trkpt lat="43.22587" lon="5.66214">
        <ele>429.9</ele>
        <time>2022-09-28T13:38:14Z</time>
      </trkpt>
      <trkpt lat="43.2258" lon="5.66202">
        <ele>428.9</ele>
        <time>2022-09-28T13:38:24Z</time>
      </trkpt>
      <trkpt lat="43.22575" lon="5.66187">
        <ele>427.9</ele>
        <time>2022-09-28T13:38:36Z</time>
      </trkpt>
      <trkpt lat="43.22569" lon="5.66173">
        <ele>427.3</ele>
        <time>2022-09-28T13:38:48Z</time>
      </trkpt>
      <trkpt lat="43.22565" lon="5.6616">
        <ele>426.6</ele>
        <time>2022-09-28T13:39:00Z</time>
      </trkpt>
      <trkpt lat="43.22553" lon="5.66157">
        <ele>425.9</ele>
        <time>2022-09-28T13:39:12Z</time>
      </trkpt>
      <trkpt lat="43.22543" lon="5.66163">
        <ele>424.4</ele>
        <time>2022-09-28T13:39:24Z</time>
      </trkpt>
      <trkpt lat="43.22533" lon="5.66172">
        <ele>423.5</ele>
        <time>2022-09-28T13:39:36Z</time>
      </trkpt>
      <trkpt lat="43.22525" lon="5.66182">
        <ele>423</ele>
        <time>2022-09-28T13:39:46Z</time>
      </trkpt>
      <trkpt lat="43.22516" lon="5.66193">
        <ele>422.2</ele>
        <time>2022-09-28T13:39:58Z</time>
      </trkpt>
      <trkpt lat="43.22506" lon="5.66201">
        <ele>421.5</ele>
        <time>2022-09-28T13:40:10Z</time>
      </trkpt>
      <trkpt lat="43.22495" lon="5.66207">
        <ele>420.4</ele>
        <time>2022-09-28T13:40:22Z</time>
      </trkpt>
      <trkpt lat="43.22484" lon="5.66214">
        <ele>419.3</ele>
        <time>2022-09-28T13:40:34Z</time>
      </trkpt>
      <trkpt lat="43.22474" lon="5.66223">
        <ele>418.6</ele>
        <time>2022-09-28T13:40:46Z</time>
      </trkpt>
      <trkpt lat="43.22465" lon="5.6623">
        <ele>417.2</ele>
        <time>2022-09-28T13:40:56Z</time>
      </trkpt>
      <trkpt lat="43.22457" lon="5.66237">
        <ele>416.1</ele>
        <time>2022-09-28T13:41:06Z</time>
      </trkpt>
      <trkpt lat="43.22449" lon="5.66247">
        <ele>415.7</ele>
        <time>2022-09-28T13:41:18Z</time>
      </trkpt>
      <trkpt lat="43.22442" lon="5.66258">
        <ele>415.1</ele>
        <time>2022-09-28T13:41:30Z</time>
      </trkpt>
      <trkpt lat="43.22438" lon="5.66271">
        <ele>414.8</ele>
        <time>2022-09-28T13:41:42Z</time>
      </trkpt>
      <trkpt lat="43.22434" lon="5.66285">
        <ele>414.6</ele>
        <time>2022-09-28T13:41:54Z</time>
      </trkpt>
      <trkpt lat="43.22429" lon="5.66299">
        <ele>413.7</ele>
        <time>2022-09-28T13:42:06Z</time>
      </trkpt>
      <trkpt lat="43.22422" lon="5.66312">
        <ele>412.5</ele>
        <time>2022-09-28T13:42:18Z</time>
      </trkpt>
      <trkpt lat="43.22418" lon="5.66323">
        <ele>412.4</ele>
        <time>2022-09-28T13:42:54Z</time>
      </trkpt>
      <trkpt lat="43.22413" lon="5.66334">
        <ele>411.5</ele>
        <time>2022-09-28T13:43:04Z</time>
      </trkpt>
      <trkpt lat="43.22405" lon="5.66344">
        <ele>410</ele>
        <time>2022-09-28T13:43:18Z</time>
      </trkpt>
      <trkpt lat="43.22398" lon="5.66357">
        <ele>410</ele>
        <time>2022-09-28T13:43:28Z</time>
      </trkpt>
      <trkpt lat="43.22389" lon="5.66366">
        <ele>409</ele>
        <time>2022-09-28T13:43:42Z</time>
      </trkpt>
      <trkpt lat="43.22382" lon="5.66376">
        <ele>408.7</ele>
        <time>2022-09-28T13:43:58Z</time>
      </trkpt>
      <trkpt lat="43.22371" lon="5.66384">
        <ele>407.4</ele>
        <time>2022-09-28T13:44:10Z</time>
      </trkpt>
      <trkpt lat="43.22358" lon="5.66392">
        <ele>405.9</ele>
        <time>2022-09-28T13:44:22Z</time>
      </trkpt>
      <trkpt lat="43.22348" lon="5.66401">
        <ele>405.4</ele>
        <time>2022-09-28T13:44:34Z</time>
      </trkpt>
      <trkpt lat="43.22338" lon="5.66407">
        <ele>404.1</ele>
        <time>2022-09-28T13:44:46Z</time>
      </trkpt>
      <trkpt lat="43.22328" lon="5.66414">
        <ele>403</ele>
        <time>2022-09-28T13:44:58Z</time>
      </trkpt>
      <trkpt lat="43.22319" lon="5.66422">
        <ele>401.7</ele>
        <time>2022-09-28T13:45:10Z</time>
      </trkpt>
      <trkpt lat="43.2231" lon="5.6643">
        <ele>400.2</ele>
        <time>2022-09-28T13:45:20Z</time>
      </trkpt>
      <trkpt lat="43.22302" lon="5.66438">
        <ele>399.1</ele>
        <time>2022-09-28T13:45:30Z</time>
      </trkpt>
      <trkpt lat="43.22294" lon="5.66448">
        <ele>398.5</ele>
        <time>2022-09-28T13:45:42Z</time>
      </trkpt>
      <trkpt lat="43.22284" lon="5.66455">
        <ele>397.3</ele>
        <time>2022-09-28T13:45:54Z</time>
      </trkpt>
      <trkpt lat="43.22274" lon="5.66463">
        <ele>396.6</ele>
        <time>2022-09-28T13:46:04Z</time>
      </trkpt>
      <trkpt lat="43.22265" lon="5.6647">
        <ele>395.7</ele>
        <time>2022-09-28T13:46:16Z</time>
      </trkpt>
      <trkpt lat="43.22255" lon="5.66477">
        <ele>394.6</ele>
        <time>2022-09-28T13:46:27Z</time>
      </trkpt>
      <trkpt lat="43.22244" lon="5.66481">
        <ele>393.2</ele>
        <time>2022-09-28T13:46:37Z</time>
      </trkpt>
      <trkpt lat="43.22234" lon="5.66488">
        <ele>392.5</ele>
        <time>2022-09-28T13:46:51Z</time>
      </trkpt>
      <trkpt lat="43.22224" lon="5.66492">
        <ele>391.3</ele>
        <time>2022-09-28T13:47:01Z</time>
      </trkpt>
      <trkpt lat="43.22217" lon="5.66499">
        <ele>390.9</ele>
        <time>2022-09-28T13:47:13Z</time>
      </trkpt>
      <trkpt lat="43.22209" lon="5.6651">
        <ele>389.6</ele>
        <time>2022-09-28T13:47:25Z</time>
      </trkpt>
      <trkpt lat="43.22203" lon="5.66522">
        <ele>388.6</ele>
        <time>2022-09-28T13:47:37Z</time>
      </trkpt>
      <trkpt lat="43.22202" lon="5.66535">
        <ele>388</ele>
        <time>2022-09-28T13:47:45Z</time>
      </trkpt>
      <trkpt lat="43.22201" lon="5.66548">
        <ele>387.4</ele>
        <time>2022-09-28T13:47:55Z</time>
      </trkpt>
      <trkpt lat="43.22198" lon="5.66562">
        <ele>386.5</ele>
        <time>2022-09-28T13:48:07Z</time>
      </trkpt>
      <trkpt lat="43.22197" lon="5.66576">
        <ele>385.7</ele>
        <time>2022-09-28T13:48:19Z</time>
      </trkpt>
      <trkpt lat="43.22195" lon="5.6659">
        <ele>384.6</ele>
        <time>2022-09-28T13:48:31Z</time>
      </trkpt>
      <trkpt lat="43.22194" lon="5.66605">
        <ele>383.4</ele>
        <time>2022-09-28T13:48:43Z</time>
      </trkpt>
      <trkpt lat="43.22187" lon="5.66609">
        <ele>381.7</ele>
        <time>2022-09-28T13:49:01Z</time>
      </trkpt>
      <trkpt lat="43.22179" lon="5.666">
        <ele>380.8</ele>
        <time>2022-09-28T13:49:13Z</time>
      </trkpt>
      <trkpt lat="43.22172" lon="5.66588">
        <ele>380</ele>
        <time>2022-09-28T13:49:25Z</time>
      </trkpt>
      <trkpt lat="43.22166" lon="5.66575">
        <ele>379</ele>
        <time>2022-09-28T13:49:37Z</time>
      </trkpt>
      <trkpt lat="43.22161" lon="5.66563">
        <ele>377.8</ele>
        <time>2022-09-28T13:49:45Z</time>
      </trkpt>
      <trkpt lat="43.22156" lon="5.6655">
        <ele>376.8</ele>
        <time>2022-09-28T13:49:57Z</time>
      </trkpt>
      <trkpt lat="43.22154" lon="5.66535">
        <ele>376.2</ele>
        <time>2022-09-28T13:50:07Z</time>
      </trkpt>
      <trkpt lat="43.22149" lon="5.66523">
        <ele>375</ele>
        <time>2022-09-28T13:50:17Z</time>
      </trkpt>
      <trkpt lat="43.22143" lon="5.66509">
        <ele>373.8</ele>
        <time>2022-09-28T13:50:29Z</time>
      </trkpt>
      <trkpt lat="43.22139" lon="5.66496">
        <ele>372.9</ele>
        <time>2022-09-28T13:50:41Z</time>
      </trkpt>
      <trkpt lat="43.22133" lon="5.66483">
        <ele>370.9</ele>
        <time>2022-09-28T13:50:57Z</time>
      </trkpt>
      <trkpt lat="43.22124" lon="5.66487">
        <ele>368.8</ele>
        <time>2022-09-28T13:51:07Z</time>
      </trkpt>
      <trkpt lat="43.22121" lon="5.66501">
        <ele>368.4</ele>
        <time>2022-09-28T13:51:51Z</time>
      </trkpt>
      <trkpt lat="43.22121" lon="5.66515">
        <ele>367.7</ele>
        <time>2022-09-28T13:52:03Z</time>
      </trkpt>
      <trkpt lat="43.22122" lon="5.66531">
        <ele>366.9</ele>
        <time>2022-09-28T13:52:15Z</time>
      </trkpt>
      <trkpt lat="43.22124" lon="5.66547">
        <ele>366.1</ele>
        <time>2022-09-28T13:52:27Z</time>
      </trkpt>
      <trkpt lat="43.22126" lon="5.66561">
        <ele>366.2</ele>
        <time>2022-09-28T13:52:39Z</time>
      </trkpt>
      <trkpt lat="43.22127" lon="5.66578">
        <ele>365.8</ele>
        <time>2022-09-28T13:52:51Z</time>
      </trkpt>
      <trkpt lat="43.22125" lon="5.66594">
        <ele>365.5</ele>
        <time>2022-09-28T13:53:03Z</time>
      </trkpt>
      <trkpt lat="43.22121" lon="5.66609">
        <ele>364.6</ele>
        <time>2022-09-28T13:53:15Z</time>
      </trkpt>
      <trkpt lat="43.22116" lon="5.66622">
        <ele>363.2</ele>
        <time>2022-09-28T13:53:27Z</time>
      </trkpt>
      <trkpt lat="43.22108" lon="5.66633">
        <ele>361.3</ele>
        <time>2022-09-28T13:53:37Z</time>
      </trkpt>
      <trkpt lat="43.22103" lon="5.66646">
        <ele>360.4</ele>
        <time>2022-09-28T13:53:47Z</time>
      </trkpt>
      <trkpt lat="43.22096" lon="5.66655">
        <ele>358.8</ele>
        <time>2022-09-28T13:53:55Z</time>
      </trkpt>
      <trkpt lat="43.22093" lon="5.66668">
        <ele>358.7</ele>
        <time>2022-09-28T13:54:05Z</time>
      </trkpt>
      <trkpt lat="43.22094" lon="5.66683">
        <ele>358.2</ele>
        <time>2022-09-28T13:54:13Z</time>
      </trkpt>
      <trkpt lat="43.221" lon="5.66698">
        <ele>357.5</ele>
        <time>2022-09-28T13:54:23Z</time>
      </trkpt>
      <trkpt lat="43.22109" lon="5.66705">
        <ele>357.1</ele>
        <time>2022-09-28T13:54:33Z</time>
      </trkpt>
      <trkpt lat="43.22121" lon="5.66708">
        <ele>357.3</ele>
        <time>2022-09-28T13:54:41Z</time>
      </trkpt>
      <trkpt lat="43.22131" lon="5.66711">
        <ele>357.1</ele>
        <time>2022-09-28T13:54:51Z</time>
      </trkpt>
      <trkpt lat="43.22141" lon="5.66712">
        <ele>357.4</ele>
        <time>2022-09-28T13:55:03Z</time>
      </trkpt>
      <trkpt lat="43.22154" lon="5.66713">
        <ele>357.7</ele>
        <time>2022-09-28T13:55:15Z</time>
      </trkpt>
      <trkpt lat="43.22165" lon="5.66712">
        <ele>358.2</ele>
        <time>2022-09-28T13:55:27Z</time>
      </trkpt>
      <trkpt lat="43.22176" lon="5.66708">
        <ele>359.3</ele>
        <time>2022-09-28T13:55:39Z</time>
      </trkpt>
      <trkpt lat="43.22187" lon="5.66708">
        <ele>359.3</ele>
        <time>2022-09-28T13:55:51Z</time>
      </trkpt>
      <trkpt lat="43.22199" lon="5.66702">
        <ele>360.4</ele>
        <time>2022-09-28T13:55:59Z</time>
      </trkpt>
      <trkpt lat="43.22208" lon="5.66698">
        <ele>360.9</ele>
        <time>2022-09-28T13:56:07Z</time>
      </trkpt>
      <trkpt lat="43.22219" lon="5.66695">
        <ele>361.1</ele>
        <time>2022-09-28T13:56:19Z</time>
      </trkpt>
      <trkpt lat="43.2223" lon="5.66693">
        <ele>360.5</ele>
        <time>2022-09-28T13:56:29Z</time>
      </trkpt>
      <trkpt lat="43.2224" lon="5.66687">
        <ele>360.8</ele>
        <time>2022-09-28T13:56:39Z</time>
      </trkpt>
      <trkpt lat="43.22251" lon="5.66682">
        <ele>360.5</ele>
        <time>2022-09-28T13:56:51Z</time>
      </trkpt>
      <trkpt lat="43.22261" lon="5.66676">
        <ele>360.6</ele>
        <time>2022-09-28T13:57:01Z</time>
      </trkpt>
      <trkpt lat="43.22273" lon="5.66668">
        <ele>361.3</ele>
        <time>2022-09-28T13:57:15Z</time>
      </trkpt>
      <trkpt lat="43.22281" lon="5.66659">
        <ele>362.5</ele>
        <time>2022-09-28T13:57:25Z</time>
      </trkpt>
      <trkpt lat="43.2229" lon="5.6665">
        <ele>362.8</ele>
        <time>2022-09-28T13:57:33Z</time>
      </trkpt>
      <trkpt lat="43.22298" lon="5.66642">
        <ele>362.8</ele>
        <time>2022-09-28T13:57:41Z</time>
      </trkpt>
      <trkpt lat="43.22307" lon="5.66633">
        <ele>363.8</ele>
        <time>2022-09-28T13:57:51Z</time>
      </trkpt>
      <trkpt lat="43.22317" lon="5.66626">
        <ele>364.4</ele>
        <time>2022-09-28T13:58:03Z</time>
      </trkpt>
      <trkpt lat="43.22327" lon="5.66621">
        <ele>364</ele>
        <time>2022-09-28T13:58:13Z</time>
      </trkpt>
      <trkpt lat="43.22338" lon="5.66619">
        <ele>363.9</ele>
        <time>2022-09-28T13:58:23Z</time>
      </trkpt>
      <trkpt lat="43.22349" lon="5.66618">
        <ele>365.1</ele>
        <time>2022-09-28T13:58:35Z</time>
      </trkpt>
      <trkpt lat="43.2236" lon="5.66615">
        <ele>366</ele>
        <time>2022-09-28T13:58:45Z</time>
      </trkpt>
      <trkpt lat="43.22373" lon="5.66612">
        <ele>367</ele>
        <time>2022-09-28T13:58:57Z</time>
      </trkpt>
      <trkpt lat="43.22385" lon="5.66613">
        <ele>368</ele>
        <time>2022-09-28T13:59:09Z</time>
      </trkpt>
      <trkpt lat="43.22392" lon="5.6662">
        <ele>370.4</ele>
        <time>2022-09-28T13:59:19Z</time>
      </trkpt>
      <trkpt lat="43.22385" lon="5.66626">
        <ele>370.1</ele>
        <time>2022-09-28T13:59:31Z</time>
      </trkpt>
      <trkpt lat="43.22375" lon="5.66629">
        <ele>368.7</ele>
        <time>2022-09-28T13:59:39Z</time>
      </trkpt>
      <trkpt lat="43.22364" lon="5.66636">
        <ele>366.8</ele>
        <time>2022-09-28T13:59:51Z</time>
      </trkpt>
      <trkpt lat="43.22354" lon="5.66642">
        <ele>364.5</ele>
        <time>2022-09-28T14:00:01Z</time>
      </trkpt>
      <trkpt lat="43.22348" lon="5.66656">
        <ele>365.4</ele>
        <time>2022-09-28T14:00:11Z</time>
      </trkpt>
      <trkpt lat="43.2234" lon="5.66668">
        <ele>364.7</ele>
        <time>2022-09-28T14:00:21Z</time>
      </trkpt>
      <trkpt lat="43.22333" lon="5.66685">
        <ele>362.6</ele>
        <time>2022-09-28T14:00:33Z</time>
      </trkpt>
      <trkpt lat="43.22332" lon="5.66698">
        <ele>362.4</ele>
        <time>2022-09-28T14:00:41Z</time>
      </trkpt>
      <trkpt lat="43.22331" lon="5.66715">
        <ele>362.1</ele>
        <time>2022-09-28T14:00:53Z</time>
      </trkpt>
      <trkpt lat="43.22326" lon="5.66728">
        <ele>361.2</ele>
        <time>2022-09-28T14:01:05Z</time>
      </trkpt>
      <trkpt lat="43.22319" lon="5.6674">
        <ele>360.6</ele>
        <time>2022-09-28T14:01:17Z</time>
      </trkpt>
      <trkpt lat="43.22312" lon="5.66754">
        <ele>359.8</ele>
        <time>2022-09-28T14:01:29Z</time>
      </trkpt>
      <trkpt lat="43.22303" lon="5.66767">
        <ele>357.4</ele>
        <time>2022-09-28T14:01:41Z</time>
      </trkpt>
      <trkpt lat="43.22294" lon="5.66778">
        <ele>355.3</ele>
        <time>2022-09-28T14:01:53Z</time>
      </trkpt>
      <trkpt lat="43.22287" lon="5.66789">
        <ele>354.8</ele>
        <time>2022-09-28T14:02:03Z</time>
      </trkpt>
      <trkpt lat="43.22278" lon="5.668">
        <ele>353.2</ele>
        <time>2022-09-28T14:02:15Z</time>
      </trkpt>
      <trkpt lat="43.2227" lon="5.66814">
        <ele>353.5</ele>
        <time>2022-09-28T14:02:27Z</time>
      </trkpt>
      <trkpt lat="43.22259" lon="5.66824">
        <ele>351.9</ele>
        <time>2022-09-28T14:02:39Z</time>
      </trkpt>
      <trkpt lat="43.2225" lon="5.66834">
        <ele>350</ele>
        <time>2022-09-28T14:02:51Z</time>
      </trkpt>
      <trkpt lat="43.22248" lon="5.66848">
        <ele>349.7</ele>
        <time>2022-09-28T14:03:01Z</time>
      </trkpt>
      <trkpt lat="43.22243" lon="5.66864">
        <ele>350</ele>
        <time>2022-09-28T14:03:13Z</time>
      </trkpt>
      <trkpt lat="43.22234" lon="5.66872">
        <ele>350.2</ele>
        <time>2022-09-28T14:03:25Z</time>
      </trkpt>
      <trkpt lat="43.22222" lon="5.66869">
        <ele>347.6</ele>
        <time>2022-09-28T14:03:37Z</time>
      </trkpt>
      <trkpt lat="43.2221" lon="5.66869">
        <ele>345.9</ele>
        <time>2022-09-28T14:03:49Z</time>
      </trkpt>
      <trkpt lat="43.22199" lon="5.66873">
        <ele>345.4</ele>
        <time>2022-09-28T14:04:01Z</time>
      </trkpt>
      <trkpt lat="43.22188" lon="5.66879">
        <ele>345.3</ele>
        <time>2022-09-28T14:04:13Z</time>
      </trkpt>
      <trkpt lat="43.22176" lon="5.66885">
        <ele>344.3</ele>
        <time>2022-09-28T14:04:25Z</time>
      </trkpt>
      <trkpt lat="43.22166" lon="5.66888">
        <ele>342.4</ele>
        <time>2022-09-28T14:04:37Z</time>
      </trkpt>
      <trkpt lat="43.22157" lon="5.66895">
        <ele>342.4</ele>
        <time>2022-09-28T14:04:49Z</time>
      </trkpt>
      <trkpt lat="43.22146" lon="5.66902">
        <ele>341.1</ele>
        <time>2022-09-28T14:05:01Z</time>
      </trkpt>
      <trkpt lat="43.22137" lon="5.66909">
        <ele>339.6</ele>
        <time>2022-09-28T14:05:11Z</time>
      </trkpt>
      <trkpt lat="43.2213" lon="5.66918">
        <ele>338.8</ele>
        <time>2022-09-28T14:05:25Z</time>
      </trkpt>
      <trkpt lat="43.22123" lon="5.66933">
        <ele>339.8</ele>
        <time>2022-09-28T14:05:33Z</time>
      </trkpt>
      <trkpt lat="43.22113" lon="5.66939">
        <ele>337.8</ele>
        <time>2022-09-28T14:05:43Z</time>
      </trkpt>
      <trkpt lat="43.22102" lon="5.66934">
        <ele>337.3</ele>
        <time>2022-09-28T14:05:53Z</time>
      </trkpt>
      <trkpt lat="43.22093" lon="5.66926">
        <ele>336</ele>
        <time>2022-09-28T14:06:03Z</time>
      </trkpt>
      <trkpt lat="43.22082" lon="5.66921">
        <ele>335.6</ele>
        <time>2022-09-28T14:06:13Z</time>
      </trkpt>
      <trkpt lat="43.22071" lon="5.66919">
        <ele>334.8</ele>
        <time>2022-09-28T14:06:23Z</time>
      </trkpt>
      <trkpt lat="43.22061" lon="5.66919">
        <ele>334.8</ele>
        <time>2022-09-28T14:06:31Z</time>
      </trkpt>
      <trkpt lat="43.22052" lon="5.66919">
        <ele>334.5</ele>
        <time>2022-09-28T14:06:39Z</time>
      </trkpt>
      <trkpt lat="43.22041" lon="5.6692">
        <ele>333.4</ele>
        <time>2022-09-28T14:06:49Z</time>
      </trkpt>
      <trkpt lat="43.22029" lon="5.66924">
        <ele>333.3</ele>
        <time>2022-09-28T14:07:01Z</time>
      </trkpt>
      <trkpt lat="43.22017" lon="5.6693">
        <ele>332.9</ele>
        <time>2022-09-28T14:07:13Z</time>
      </trkpt>
      <trkpt lat="43.22005" lon="5.66938">
        <ele>333.3</ele>
        <time>2022-09-28T14:07:25Z</time>
      </trkpt>
      <trkpt lat="43.21995" lon="5.66939">
        <ele>333.2</ele>
        <time>2022-09-28T14:07:33Z</time>
      </trkpt>
      <trkpt lat="43.21982" lon="5.66938">
        <ele>332.5</ele>
        <time>2022-09-28T14:07:45Z</time>
      </trkpt>
      <trkpt lat="43.21972" lon="5.66934">
        <ele>331.4</ele>
        <time>2022-09-28T14:07:55Z</time>
      </trkpt>
      <trkpt lat="43.21961" lon="5.66932">
        <ele>331.1</ele>
        <time>2022-09-28T14:08:07Z</time>
      </trkpt>
      <trkpt lat="43.21951" lon="5.66929">
        <ele>330.3</ele>
        <time>2022-09-28T14:08:19Z</time>
      </trkpt>
      <trkpt lat="43.21939" lon="5.66929">
        <ele>330.5</ele>
        <time>2022-09-28T14:08:29Z</time>
      </trkpt>
      <trkpt lat="43.21929" lon="5.66928">
        <ele>330.7</ele>
        <time>2022-09-28T14:08:39Z</time>
      </trkpt>
      <trkpt lat="43.21919" lon="5.66926">
        <ele>330.4</ele>
        <time>2022-09-28T14:08:47Z</time>
      </trkpt>
      <trkpt lat="43.21907" lon="5.66925">
        <ele>330.6</ele>
        <time>2022-09-28T14:08:59Z</time>
      </trkpt>
      <trkpt lat="43.21898" lon="5.66924">
        <ele>330.7</ele>
        <time>2022-09-28T14:09:07Z</time>
      </trkpt>
      <trkpt lat="43.21889" lon="5.66917">
        <ele>329.2</ele>
        <time>2022-09-28T14:09:53Z</time>
      </trkpt>
      <trkpt lat="43.21882" lon="5.66906">
        <ele>326.8</ele>
        <time>2022-09-28T14:10:05Z</time>
      </trkpt>
      <trkpt lat="43.21872" lon="5.66899">
        <ele>326</ele>
        <time>2022-09-28T14:10:09Z</time>
      </trkpt>
      <trkpt lat="43.21863" lon="5.66891">
        <ele>325.2</ele>
        <time>2022-09-28T14:10:25Z</time>
      </trkpt>
      <trkpt lat="43.21855" lon="5.66882">
        <ele>323.7</ele>
        <time>2022-09-28T14:10:35Z</time>
      </trkpt>
      <trkpt lat="43.21849" lon="5.6687">
        <ele>321.6</ele>
        <time>2022-09-28T14:10:47Z</time>
      </trkpt>
      <trkpt lat="43.21842" lon="5.66859">
        <ele>319.8</ele>
        <time>2022-09-28T14:10:59Z</time>
      </trkpt>
      <trkpt lat="43.21834" lon="5.66846">
        <ele>318.6</ele>
        <time>2022-09-28T14:11:11Z</time>
      </trkpt>
      <trkpt lat="43.21825" lon="5.66835">
        <ele>317</ele>
        <time>2022-09-28T14:11:23Z</time>
      </trkpt>
      <trkpt lat="43.21817" lon="5.66828">
        <ele>316</ele>
        <time>2022-09-28T14:11:33Z</time>
      </trkpt>
      <trkpt lat="43.21807" lon="5.66821">
        <ele>315.1</ele>
        <time>2022-09-28T14:11:47Z</time>
      </trkpt>
      <trkpt lat="43.21795" lon="5.66817">
        <ele>313.1</ele>
        <time>2022-09-28T14:11:59Z</time>
      </trkpt>
      <trkpt lat="43.21784" lon="5.66819">
        <ele>312.1</ele>
        <time>2022-09-28T14:12:11Z</time>
      </trkpt>
      <trkpt lat="43.21774" lon="5.66817">
        <ele>310.3</ele>
        <time>2022-09-28T14:12:19Z</time>
      </trkpt>
      <trkpt lat="43.21763" lon="5.66816">
        <ele>308.9</ele>
        <time>2022-09-28T14:12:29Z</time>
      </trkpt>
      <trkpt lat="43.21751" lon="5.66816">
        <ele>307.6</ele>
        <time>2022-09-28T14:12:41Z</time>
      </trkpt>
      <trkpt lat="43.21739" lon="5.66815">
        <ele>306.6</ele>
        <time>2022-09-28T14:12:51Z</time>
      </trkpt>
      <trkpt lat="43.2173" lon="5.66813">
        <ele>305.4</ele>
        <time>2022-09-28T14:12:59Z</time>
      </trkpt>
      <trkpt lat="43.21719" lon="5.66808">
        <ele>303.4</ele>
        <time>2022-09-28T14:13:11Z</time>
      </trkpt>
      <trkpt lat="43.21708" lon="5.66802">
        <ele>301.4</ele>
        <time>2022-09-28T14:13:23Z</time>
      </trkpt>
      <trkpt lat="43.217" lon="5.66798">
        <ele>300.2</ele>
        <time>2022-09-28T14:13:31Z</time>
      </trkpt>
      <trkpt lat="43.21689" lon="5.66794">
        <ele>298.7</ele>
        <time>2022-09-28T14:13:41Z</time>
      </trkpt>
      <trkpt lat="43.21678" lon="5.66793">
        <ele>297.6</ele>
        <time>2022-09-28T14:13:51Z</time>
      </trkpt>
      <trkpt lat="43.21666" lon="5.6679">
        <ele>296.1</ele>
        <time>2022-09-28T14:14:03Z</time>
      </trkpt>
      <trkpt lat="43.21654" lon="5.66788">
        <ele>294.5</ele>
        <time>2022-09-28T14:14:15Z</time>
      </trkpt>
      <trkpt lat="43.21644" lon="5.66782">
        <ele>292.3</ele>
        <time>2022-09-28T14:14:27Z</time>
      </trkpt>
      <trkpt lat="43.21633" lon="5.66781">
        <ele>291.1</ele>
        <time>2022-09-28T14:14:39Z</time>
      </trkpt>
      <trkpt lat="43.21622" lon="5.66783">
        <ele>290.5</ele>
        <time>2022-09-28T14:14:51Z</time>
      </trkpt>
      <trkpt lat="43.21612" lon="5.66784">
        <ele>289.7</ele>
        <time>2022-09-28T14:15:05Z</time>
      </trkpt>
      <trkpt lat="43.216" lon="5.6679">
        <ele>289</ele>
        <time>2022-09-28T14:15:19Z</time>
      </trkpt>
      <trkpt lat="43.21591" lon="5.66796">
        <ele>288.3</ele>
        <time>2022-09-28T14:15:29Z</time>
      </trkpt>
      <trkpt lat="43.21583" lon="5.66804">
        <ele>287.8</ele>
        <time>2022-09-28T14:15:59Z</time>
      </trkpt>
      <trkpt lat="43.21576" lon="5.66812">
        <ele>286.8</ele>
        <time>2022-09-28T14:16:21Z</time>
      </trkpt>
      <trkpt lat="43.21573" lon="5.66824">
        <ele>286.1</ele>
        <time>2022-09-28T14:16:55Z</time>
      </trkpt>
      <trkpt lat="43.21567" lon="5.66832">
        <ele>284.5</ele>
        <time>2022-09-28T14:17:21Z</time>
      </trkpt>
      <trkpt lat="43.21562" lon="5.66827">
        <ele>283.7</ele>
        <time>2022-09-28T14:18:11Z</time>
      </trkpt>
      <trkpt lat="43.21556" lon="5.66819">
        <ele>283.2</ele>
        <time>2022-09-28T14:18:25Z</time>
      </trkpt>
      <trkpt lat="43.21548" lon="5.6681">
        <ele>282.3</ele>
        <time>2022-09-28T14:18:37Z</time>
      </trkpt>
      <trkpt lat="43.21548" lon="5.66796">
        <ele>282.8</ele>
        <time>2022-09-28T14:19:05Z</time>
      </trkpt>
      <trkpt lat="43.21543" lon="5.66787">
        <ele>282</ele>
        <time>2022-09-28T14:19:17Z</time>
      </trkpt>
      <trkpt lat="43.21536" lon="5.66797">
        <ele>280.6</ele>
        <time>2022-09-28T14:19:53Z</time>
      </trkpt>
      <trkpt lat="43.21537" lon="5.66799">
        <ele>280.7</ele>
        <time>2022-09-28T14:26:43Z</time>
      </trkpt>
      <trkpt lat="43.21539" lon="5.66785">
        <ele>281.4</ele>
        <time>2022-09-28T14:27:43Z</time>
      </trkpt>
      <trkpt lat="43.2153" lon="5.66781">
        <ele>280.2</ele>
        <time>2022-09-28T14:28:31Z</time>
      </trkpt>
      <trkpt lat="43.21529" lon="5.66766">
        <ele>280.2</ele>
        <time>2022-09-28T14:28:55Z</time>
      </trkpt>
      <trkpt lat="43.2153" lon="5.6678">
        <ele>280.2</ele>
        <time>2022-09-28T14:29:41Z</time>
      </trkpt>
      <trkpt lat="43.21539" lon="5.66785">
        <ele>281.5</ele>
        <time>2022-09-28T14:29:55Z</time>
      </trkpt>
      <trkpt lat="43.21541" lon="5.6677">
        <ele>281.8</ele>
        <time>2022-09-28T14:30:13Z</time>
      </trkpt>
      <trkpt lat="43.21542" lon="5.66756">
        <ele>281.7</ele>
        <time>2022-09-28T14:30:27Z</time>
      </trkpt>
      <trkpt lat="43.21545" lon="5.66743">
        <ele>281.6</ele>
        <time>2022-09-28T14:30:41Z</time>
      </trkpt>
      <trkpt lat="43.21548" lon="5.66729">
        <ele>281.1</ele>
        <time>2022-09-28T14:30:53Z</time>
      </trkpt>
      <trkpt lat="43.21549" lon="5.66717">
        <ele>280.3</ele>
        <time>2022-09-28T14:31:07Z</time>
      </trkpt>
      <trkpt lat="43.2154" lon="5.66708">
        <ele>279.4</ele>
        <time>2022-09-28T14:31:17Z</time>
      </trkpt>
      <trkpt lat="43.21531" lon="5.667">
        <ele>279.1</ele>
        <time>2022-09-28T14:31:27Z</time>
      </trkpt>
      <trkpt lat="43.21524" lon="5.66691">
        <ele>278.7</ele>
        <time>2022-09-28T14:31:43Z</time>
      </trkpt>
      <trkpt lat="43.21516" lon="5.66683">
        <ele>278.2</ele>
        <time>2022-09-28T14:31:51Z</time>
      </trkpt>
      <trkpt lat="43.21506" lon="5.66673">
        <ele>277.4</ele>
        <time>2022-09-28T14:32:03Z</time>
      </trkpt>
      <trkpt lat="43.21496" lon="5.66663">
        <ele>277</ele>
        <time>2022-09-28T14:32:15Z</time>
      </trkpt>
      <trkpt lat="43.21488" lon="5.66654">
        <ele>277</ele>
        <time>2022-09-28T14:32:23Z</time>
      </trkpt>
      <trkpt lat="43.21478" lon="5.66648">
        <ele>277</ele>
        <time>2022-09-28T14:32:35Z</time>
      </trkpt>
      <trkpt lat="43.21468" lon="5.66646">
        <ele>277</ele>
        <time>2022-09-28T14:32:43Z</time>
      </trkpt>
      <trkpt lat="43.21458" lon="5.66641">
        <ele>277</ele>
        <time>2022-09-28T14:32:55Z</time>
      </trkpt>
      <trkpt lat="43.21448" lon="5.66633">
        <ele>276.8</ele>
        <time>2022-09-28T14:33:07Z</time>
      </trkpt>
      <trkpt lat="43.21438" lon="5.66627">
        <ele>276.3</ele>
        <time>2022-09-28T14:33:19Z</time>
      </trkpt>
      <trkpt lat="43.21427" lon="5.66619">
        <ele>275.7</ele>
        <time>2022-09-28T14:33:31Z</time>
      </trkpt>
      <trkpt lat="43.21419" lon="5.66613">
        <ele>275.1</ele>
        <time>2022-09-28T14:33:39Z</time>
      </trkpt>
      <trkpt lat="43.21409" lon="5.66604">
        <ele>274.3</ele>
        <time>2022-09-28T14:33:51Z</time>
      </trkpt>
      <trkpt lat="43.21398" lon="5.666">
        <ele>273.8</ele>
        <time>2022-09-28T14:34:03Z</time>
      </trkpt>
      <trkpt lat="43.21388" lon="5.66598">
        <ele>273.5</ele>
        <time>2022-09-28T14:34:25Z</time>
      </trkpt>
      <trkpt lat="43.21385" lon="5.66611">
        <ele>274</ele>
        <time>2022-09-28T14:34:45Z</time>
      </trkpt>
      <trkpt lat="43.21383" lon="5.66625">
        <ele>273.8</ele>
        <time>2022-09-28T14:34:57Z</time>
      </trkpt>
      <trkpt lat="43.2138" lon="5.66639">
        <ele>273.3</ele>
        <time>2022-09-28T14:35:09Z</time>
      </trkpt>
      <trkpt lat="43.2137" lon="5.66642">
        <ele>272.4</ele>
        <time>2022-09-28T14:35:23Z</time>
      </trkpt>
      <trkpt lat="43.2136" lon="5.66645">
        <ele>271.6</ele>
        <time>2022-09-28T14:35:35Z</time>
      </trkpt>
      <trkpt lat="43.21349" lon="5.66649">
        <ele>270.6</ele>
        <time>2022-09-28T14:35:47Z</time>
      </trkpt>
      <trkpt lat="43.21339" lon="5.66649">
        <ele>269.8</ele>
        <time>2022-09-28T14:35:59Z</time>
      </trkpt>
      <trkpt lat="43.21328" lon="5.6665">
        <ele>268.4</ele>
        <time>2022-09-28T14:36:11Z</time>
      </trkpt>
      <trkpt lat="43.21317" lon="5.66647">
        <ele>267</ele>
        <time>2022-09-28T14:36:23Z</time>
      </trkpt>
      <trkpt lat="43.21308" lon="5.66645">
        <ele>265.8</ele>
        <time>2022-09-28T14:36:33Z</time>
      </trkpt>
      <trkpt lat="43.21296" lon="5.66641">
        <ele>264.8</ele>
        <time>2022-09-28T14:36:45Z</time>
      </trkpt>
      <trkpt lat="43.21286" lon="5.66638">
        <ele>263.9</ele>
        <time>2022-09-28T14:36:57Z</time>
      </trkpt>
      <trkpt lat="43.21275" lon="5.66633">
        <ele>263</ele>
        <time>2022-09-28T14:37:07Z</time>
      </trkpt>
      <trkpt lat="43.21264" lon="5.66629">
        <ele>262.2</ele>
        <time>2022-09-28T14:37:19Z</time>
      </trkpt>
      <trkpt lat="43.21256" lon="5.66636">
        <ele>261.4</ele>
        <time>2022-09-28T14:37:31Z</time>
      </trkpt>
      <trkpt lat="43.21248" lon="5.66649">
        <ele>260.3</ele>
        <time>2022-09-28T14:37:43Z</time>
      </trkpt>
      <trkpt lat="43.21246" lon="5.66662">
        <ele>259.6</ele>
        <time>2022-09-28T14:37:55Z</time>
      </trkpt>
      <trkpt lat="43.21241" lon="5.66674">
        <ele>258.2</ele>
        <time>2022-09-28T14:38:07Z</time>
      </trkpt>
      <trkpt lat="43.21233" lon="5.6668">
        <ele>256.5</ele>
        <time>2022-09-28T14:38:19Z</time>
      </trkpt>
      <trkpt lat="43.21225" lon="5.66679">
        <ele>255.5</ele>
        <time>2022-09-28T14:39:59Z</time>
      </trkpt>
      <trkpt lat="43.21218" lon="5.66668">
        <ele>255.1</ele>
        <time>2022-09-28T14:40:15Z</time>
      </trkpt>
      <trkpt lat="43.21213" lon="5.66655">
        <ele>254.5</ele>
        <time>2022-09-28T14:40:27Z</time>
      </trkpt>
      <trkpt lat="43.21212" lon="5.66641">
        <ele>254.7</ele>
        <time>2022-09-28T14:40:41Z</time>
      </trkpt>
      <trkpt lat="43.21207" lon="5.66631">
        <ele>253.6</ele>
        <time>2022-09-28T14:41:39Z</time>
      </trkpt>
      <trkpt lat="43.21211" lon="5.66641">
        <ele>254.5</ele>
        <time>2022-09-28T14:43:33Z</time>
      </trkpt>
      <trkpt lat="43.21212" lon="5.66657">
        <ele>254.4</ele>
        <time>2022-09-28T14:44:41Z</time>
      </trkpt>
      <trkpt lat="43.21219" lon="5.66668">
        <ele>255.2</ele>
        <time>2022-09-28T14:44:57Z</time>
      </trkpt>
      <trkpt lat="43.21227" lon="5.66679">
        <ele>255.9</ele>
        <time>2022-09-28T14:45:09Z</time>
      </trkpt>
      <trkpt lat="43.21233" lon="5.66693">
        <ele>255.7</ele>
        <time>2022-09-28T14:45:23Z</time>
      </trkpt>
      <trkpt lat="43.21242" lon="5.66703">
        <ele>255.8</ele>
        <time>2022-09-28T14:45:35Z</time>
      </trkpt>
      <trkpt lat="43.2125" lon="5.6671">
        <ele>255.8</ele>
        <time>2022-09-28T14:45:47Z</time>
      </trkpt>
      <trkpt lat="43.2126" lon="5.66718">
        <ele>255.4</ele>
        <time>2022-09-28T14:45:59Z</time>
      </trkpt>
      <trkpt lat="43.21271" lon="5.66722">
        <ele>255.5</ele>
        <time>2022-09-28T14:46:11Z</time>
      </trkpt>
      <trkpt lat="43.21281" lon="5.66723">
        <ele>256</ele>
        <time>2022-09-28T14:46:23Z</time>
      </trkpt>
      <trkpt lat="43.21294" lon="5.66727">
        <ele>256.1</ele>
        <time>2022-09-28T14:46:35Z</time>
      </trkpt>
      <trkpt lat="43.21303" lon="5.6673">
        <ele>256.1</ele>
        <time>2022-09-28T14:46:43Z</time>
      </trkpt>
      <trkpt lat="43.21315" lon="5.66735">
        <ele>256.1</ele>
        <time>2022-09-28T14:46:55Z</time>
      </trkpt>
      <trkpt lat="43.21324" lon="5.66741">
        <ele>255.7</ele>
        <time>2022-09-28T14:47:03Z</time>
      </trkpt>
      <trkpt lat="43.21336" lon="5.66748">
        <ele>255.6</ele>
        <time>2022-09-28T14:47:15Z</time>
      </trkpt>
      <trkpt lat="43.21347" lon="5.66756">
        <ele>255.8</ele>
        <time>2022-09-28T14:47:27Z</time>
      </trkpt>
      <trkpt lat="43.21357" lon="5.66766">
        <ele>255</ele>
        <time>2022-09-28T14:47:39Z</time>
      </trkpt>
      <trkpt lat="43.21368" lon="5.66773">
        <ele>254.6</ele>
        <time>2022-09-28T14:47:51Z</time>
      </trkpt>
      <trkpt lat="43.21377" lon="5.66784">
        <ele>252.3</ele>
        <time>2022-09-28T14:48:03Z</time>
      </trkpt>
      <trkpt lat="43.21386" lon="5.66788">
        <ele>252.3</ele>
        <time>2022-09-28T14:48:11Z</time>
      </trkpt>
      <trkpt lat="43.21396" lon="5.66789">
        <ele>253.2</ele>
        <time>2022-09-28T14:48:19Z</time>
      </trkpt>
      <trkpt lat="43.21407" lon="5.66793">
        <ele>253.9</ele>
        <time>2022-09-28T14:48:29Z</time>
      </trkpt>
      <trkpt lat="43.21417" lon="5.66796">
        <ele>254.4</ele>
        <time>2022-09-28T14:48:41Z</time>
      </trkpt>
      <trkpt lat="43.21428" lon="5.66801">
        <ele>256</ele>
        <time>2022-09-28T14:48:51Z</time>
      </trkpt>
      <trkpt lat="43.21439" lon="5.66808">
        <ele>256.9</ele>
        <time>2022-09-28T14:49:03Z</time>
      </trkpt>
      <trkpt lat="43.21447" lon="5.66817">
        <ele>257.3</ele>
        <time>2022-09-28T14:49:15Z</time>
      </trkpt>
      <trkpt lat="43.21454" lon="5.66828">
        <ele>257.1</ele>
        <time>2022-09-28T14:49:25Z</time>
      </trkpt>
      <trkpt lat="43.21462" lon="5.66839">
        <ele>256.8</ele>
        <time>2022-09-28T14:49:37Z</time>
      </trkpt>
      <trkpt lat="43.21469" lon="5.66851">
        <ele>256.9</ele>
        <time>2022-09-28T14:49:49Z</time>
      </trkpt>
      <trkpt lat="43.21478" lon="5.66858">
        <ele>258.5</ele>
        <time>2022-09-28T14:50:01Z</time>
      </trkpt>
      <trkpt lat="43.21485" lon="5.66867">
        <ele>259.7</ele>
        <time>2022-09-28T14:50:11Z</time>
      </trkpt>
      <trkpt lat="43.21493" lon="5.66876">
        <ele>260.3</ele>
        <time>2022-09-28T14:50:21Z</time>
      </trkpt>
      <trkpt lat="43.21502" lon="5.66883">
        <ele>261.1</ele>
        <time>2022-09-28T14:50:33Z</time>
      </trkpt>
      <trkpt lat="43.21511" lon="5.66893">
        <ele>262.3</ele>
        <time>2022-09-28T14:50:45Z</time>
      </trkpt>
      <trkpt lat="43.21505" lon="5.66903">
        <ele>262.5</ele>
        <time>2022-09-28T14:51:03Z</time>
      </trkpt>
      <trkpt lat="43.21494" lon="5.66902">
        <ele>260.3</ele>
        <time>2022-09-28T14:51:25Z</time>
      </trkpt>
      <trkpt lat="43.21484" lon="5.66904">
        <ele>259.2</ele>
        <time>2022-09-28T14:51:39Z</time>
      </trkpt>
      <trkpt lat="43.21474" lon="5.66909">
        <ele>258.9</ele>
        <time>2022-09-28T14:51:53Z</time>
      </trkpt>
      <trkpt lat="43.21464" lon="5.66908">
        <ele>258.1</ele>
        <time>2022-09-28T14:52:09Z</time>
      </trkpt>
      <trkpt lat="43.21453" lon="5.66908">
        <ele>257.2</ele>
        <time>2022-09-28T14:52:21Z</time>
      </trkpt>
      <trkpt lat="43.21442" lon="5.66908">
        <ele>256.7</ele>
        <time>2022-09-28T14:52:37Z</time>
      </trkpt>
      <trkpt lat="43.21431" lon="5.66909">
        <ele>256</ele>
        <time>2022-09-28T14:52:51Z</time>
      </trkpt>
      <trkpt lat="43.2142" lon="5.6691">
        <ele>255.6</ele>
        <time>2022-09-28T14:53:05Z</time>
      </trkpt>
      <trkpt lat="43.21409" lon="5.66909">
        <ele>254</ele>
        <time>2022-09-28T14:54:13Z</time>
      </trkpt>
      <trkpt lat="43.21397" lon="5.66916">
        <ele>253.9</ele>
        <time>2022-09-28T14:54:25Z</time>
      </trkpt>
      <trkpt lat="43.21387" lon="5.66924">
        <ele>254.9</ele>
        <time>2022-09-28T14:54:37Z</time>
      </trkpt>
      <trkpt lat="43.21377" lon="5.66927">
        <ele>254</ele>
        <time>2022-09-28T14:54:47Z</time>
      </trkpt>
      <trkpt lat="43.21368" lon="5.66935">
        <ele>254.3</ele>
        <time>2022-09-28T14:54:55Z</time>
      </trkpt>
      <trkpt lat="43.21359" lon="5.66942">
        <ele>254.2</ele>
        <time>2022-09-28T14:55:05Z</time>
      </trkpt>
      <trkpt lat="43.2135" lon="5.66951">
        <ele>253.5</ele>
        <time>2022-09-28T14:55:17Z</time>
      </trkpt>
      <trkpt lat="43.21342" lon="5.66963">
        <ele>253.9</ele>
        <time>2022-09-28T14:55:27Z</time>
      </trkpt>
      <trkpt lat="43.21336" lon="5.66974">
        <ele>254.3</ele>
        <time>2022-09-28T14:55:37Z</time>
      </trkpt>
      <trkpt lat="43.2133" lon="5.66987">
        <ele>256.8</ele>
        <time>2022-09-28T14:55:49Z</time>
      </trkpt>
      <trkpt lat="43.21319" lon="5.66991">
        <ele>257.7</ele>
        <time>2022-09-28T14:56:01Z</time>
      </trkpt>
      <trkpt lat="43.21306" lon="5.66986">
        <ele>256</ele>
        <time>2022-09-28T14:56:13Z</time>
      </trkpt>
      <trkpt lat="43.21296" lon="5.66987">
        <ele>255.9</ele>
        <time>2022-09-28T14:56:23Z</time>
      </trkpt>
      <trkpt lat="43.21285" lon="5.66988">
        <ele>255.9</ele>
        <time>2022-09-28T14:56:33Z</time>
      </trkpt>
      <trkpt lat="43.21274" lon="5.66987">
        <ele>254.9</ele>
        <time>2022-09-28T14:56:43Z</time>
      </trkpt>
      <trkpt lat="43.21261" lon="5.66985">
        <ele>253.3</ele>
        <time>2022-09-28T14:56:55Z</time>
      </trkpt>
      <trkpt lat="43.2125" lon="5.66985">
        <ele>252.3</ele>
        <time>2022-09-28T14:57:05Z</time>
      </trkpt>
      <trkpt lat="43.21238" lon="5.66986">
        <ele>251.1</ele>
        <time>2022-09-28T14:57:17Z</time>
      </trkpt>
      <trkpt lat="43.21226" lon="5.6699">
        <ele>251.3</ele>
        <time>2022-09-28T14:57:27Z</time>
      </trkpt>
      <trkpt lat="43.21215" lon="5.66996">
        <ele>252.2</ele>
        <time>2022-09-28T14:57:39Z</time>
      </trkpt>
      <trkpt lat="43.21203" lon="5.66998">
        <ele>252.1</ele>
        <time>2022-09-28T14:57:51Z</time>
      </trkpt>
      <trkpt lat="43.21192" lon="5.67">
        <ele>252.1</ele>
        <time>2022-09-28T14:58:01Z</time>
      </trkpt>
      <trkpt lat="43.21183" lon="5.67">
        <ele>251.5</ele>
        <time>2022-09-28T14:58:09Z</time>
      </trkpt>
      <trkpt lat="43.21171" lon="5.67">
        <ele>251.1</ele>
        <time>2022-09-28T14:58:19Z</time>
      </trkpt>
      <trkpt lat="43.21161" lon="5.67002">
        <ele>252</ele>
        <time>2022-09-28T14:58:29Z</time>
      </trkpt>
      <trkpt lat="43.2115" lon="5.67">
        <ele>251.7</ele>
        <time>2022-09-28T14:58:39Z</time>
      </trkpt>
      <trkpt lat="43.21138" lon="5.67">
        <ele>251.9</ele>
        <time>2022-09-28T14:58:51Z</time>
      </trkpt>
      <trkpt lat="43.21128" lon="5.66994">
        <ele>250.1</ele>
        <time>2022-09-28T14:59:03Z</time>
      </trkpt>
      <trkpt lat="43.21117" lon="5.66987">
        <ele>248</ele>
        <time>2022-09-28T14:59:15Z</time>
      </trkpt>
      <trkpt lat="43.21107" lon="5.66986">
        <ele>247.9</ele>
        <time>2022-09-28T14:59:25Z</time>
      </trkpt>
      <trkpt lat="43.21096" lon="5.66988">
        <ele>247.9</ele>
        <time>2022-09-28T14:59:35Z</time>
      </trkpt>
      <trkpt lat="43.21085" lon="5.66989">
        <ele>247.9</ele>
        <time>2022-09-28T14:59:47Z</time>
      </trkpt>
      <trkpt lat="43.21075" lon="5.66991">
        <ele>249.1</ele>
        <time>2022-09-28T15:00:03Z</time>
      </trkpt>
      <trkpt lat="43.21064" lon="5.66988">
        <ele>248.7</ele>
        <time>2022-09-28T15:00:11Z</time>
      </trkpt>
      <trkpt lat="43.21054" lon="5.66979">
        <ele>247.2</ele>
        <time>2022-09-28T15:00:23Z</time>
      </trkpt>
      <trkpt lat="43.21046" lon="5.66971">
        <ele>247</ele>
        <time>2022-09-28T15:00:37Z</time>
      </trkpt>
      <trkpt lat="43.21037" lon="5.66966">
        <ele>247.6</ele>
        <time>2022-09-28T15:00:51Z</time>
      </trkpt>
      <trkpt lat="43.21028" lon="5.66956">
        <ele>246.9</ele>
        <time>2022-09-28T15:01:03Z</time>
      </trkpt>
      <trkpt lat="43.21019" lon="5.66949">
        <ele>246</ele>
        <time>2022-09-28T15:01:11Z</time>
      </trkpt>
      <trkpt lat="43.2101" lon="5.66941">
        <ele>245</ele>
        <time>2022-09-28T15:01:23Z</time>
      </trkpt>
      <trkpt lat="43.21" lon="5.66935">
        <ele>245.1</ele>
        <time>2022-09-28T15:01:33Z</time>
      </trkpt>
      <trkpt lat="43.2099" lon="5.66931">
        <ele>245</ele>
        <time>2022-09-28T15:01:45Z</time>
      </trkpt>
      <trkpt lat="43.2098" lon="5.66926">
        <ele>244.5</ele>
        <time>2022-09-28T15:01:57Z</time>
      </trkpt>
      <trkpt lat="43.2097" lon="5.66922">
        <ele>244.6</ele>
        <time>2022-09-28T15:02:17Z</time>
      </trkpt>
      <trkpt lat="43.20959" lon="5.66921">
        <ele>244.7</ele>
        <time>2022-09-28T15:02:45Z</time>
      </trkpt>
      <trkpt lat="43.20946" lon="5.6692">
        <ele>245</ele>
        <time>2022-09-28T15:02:57Z</time>
      </trkpt>
      <trkpt lat="43.20934" lon="5.66917">
        <ele>244</ele>
        <time>2022-09-28T15:03:09Z</time>
      </trkpt>
      <trkpt lat="43.20924" lon="5.66915">
        <ele>243.6</ele>
        <time>2022-09-28T15:03:17Z</time>
      </trkpt>
      <trkpt lat="43.20914" lon="5.66913">
        <ele>242.6</ele>
        <time>2022-09-28T15:03:27Z</time>
      </trkpt>
      <trkpt lat="43.20904" lon="5.66915">
        <ele>242.4</ele>
        <time>2022-09-28T15:03:37Z</time>
      </trkpt>
      <trkpt lat="43.20892" lon="5.66918">
        <ele>242.5</ele>
        <time>2022-09-28T15:03:47Z</time>
      </trkpt>
      <trkpt lat="43.20882" lon="5.66921">
        <ele>241.7</ele>
        <time>2022-09-28T15:03:57Z</time>
      </trkpt>
      <trkpt lat="43.20873" lon="5.66923">
        <ele>240.6</ele>
        <time>2022-09-28T15:04:05Z</time>
      </trkpt>
      <trkpt lat="43.20861" lon="5.66929">
        <ele>239.8</ele>
        <time>2022-09-28T15:04:17Z</time>
      </trkpt>
      <trkpt lat="43.20854" lon="5.66939">
        <ele>240.2</ele>
        <time>2022-09-28T15:04:29Z</time>
      </trkpt>
      <trkpt lat="43.20845" lon="5.66945">
        <ele>239.6</ele>
        <time>2022-09-28T15:04:43Z</time>
      </trkpt>
      <trkpt lat="43.20836" lon="5.66952">
        <ele>238.9</ele>
        <time>2022-09-28T15:04:53Z</time>
      </trkpt>
      <trkpt lat="43.20828" lon="5.66959">
        <ele>238.3</ele>
        <time>2022-09-28T15:05:01Z</time>
      </trkpt>
      <trkpt lat="43.20818" lon="5.66968">
        <ele>238</ele>
        <time>2022-09-28T15:05:11Z</time>
      </trkpt>
      <trkpt lat="43.20808" lon="5.66977">
        <ele>237.5</ele>
        <time>2022-09-28T15:05:23Z</time>
      </trkpt>
      <trkpt lat="43.20799" lon="5.66986">
        <ele>237</ele>
        <time>2022-09-28T15:05:35Z</time>
      </trkpt>
      <trkpt lat="43.2079" lon="5.66992">
        <ele>236.2</ele>
        <time>2022-09-28T15:05:49Z</time>
      </trkpt>
      <trkpt lat="43.2078" lon="5.67">
        <ele>235.6</ele>
        <time>2022-09-28T15:06:31Z</time>
      </trkpt>
      <trkpt lat="43.20771" lon="5.67006">
        <ele>234.8</ele>
        <time>2022-09-28T15:06:43Z</time>
      </trkpt>
      <trkpt lat="43.20761" lon="5.67014">
        <ele>233.9</ele>
        <time>2022-09-28T15:06:55Z</time>
      </trkpt>
      <trkpt lat="43.20752" lon="5.67021">
        <ele>232.6</ele>
        <time>2022-09-28T15:07:07Z</time>
      </trkpt>
      <trkpt lat="43.20742" lon="5.67029">
        <ele>231.7</ele>
        <time>2022-09-28T15:07:19Z</time>
      </trkpt>
      <trkpt lat="43.20731" lon="5.67037">
        <ele>230.8</ele>
        <time>2022-09-28T15:07:31Z</time>
      </trkpt>
      <trkpt lat="43.20722" lon="5.67045">
        <ele>229.7</ele>
        <time>2022-09-28T15:07:41Z</time>
      </trkpt>
      <trkpt lat="43.20712" lon="5.67053">
        <ele>228.1</ele>
        <time>2022-09-28T15:07:53Z</time>
      </trkpt>
      <trkpt lat="43.20703" lon="5.67063">
        <ele>226.8</ele>
        <time>2022-09-28T15:08:05Z</time>
      </trkpt>
      <trkpt lat="43.20696" lon="5.67076">
        <ele>225.9</ele>
        <time>2022-09-28T15:08:17Z</time>
      </trkpt>
      <trkpt lat="43.20689" lon="5.67085">
        <ele>224.9</ele>
        <time>2022-09-28T15:08:31Z</time>
      </trkpt>
      <trkpt lat="43.20681" lon="5.67096">
        <ele>224</ele>
        <time>2022-09-28T15:08:41Z</time>
      </trkpt>
      <trkpt lat="43.20674" lon="5.67108">
        <ele>223</ele>
        <time>2022-09-28T15:08:53Z</time>
      </trkpt>
      <trkpt lat="43.20668" lon="5.67122">
        <ele>221.8</ele>
        <time>2022-09-28T15:09:05Z</time>
      </trkpt>
      <trkpt lat="43.20661" lon="5.67133">
        <ele>220.6</ele>
        <time>2022-09-28T15:09:15Z</time>
      </trkpt>
      <trkpt lat="43.20656" lon="5.67145">
        <ele>220.1</ele>
        <time>2022-09-28T15:09:27Z</time>
      </trkpt>
      <trkpt lat="43.20652" lon="5.67161">
        <ele>220.4</ele>
        <time>2022-09-28T15:09:39Z</time>
      </trkpt>
      <trkpt lat="43.20643" lon="5.67169">
        <ele>218.3</ele>
        <time>2022-09-28T15:09:51Z</time>
      </trkpt>
      <trkpt lat="43.20634" lon="5.67164">
        <ele>215.9</ele>
        <time>2022-09-28T15:10:39Z</time>
      </trkpt>
      <trkpt lat="43.20624" lon="5.67173">
        <ele>214.6</ele>
        <time>2022-09-28T15:10:53Z</time>
      </trkpt>
      <trkpt lat="43.2062" lon="5.67188">
        <ele>214.4</ele>
        <time>2022-09-28T15:11:05Z</time>
      </trkpt>
      <trkpt lat="43.20613" lon="5.67198">
        <ele>213.5</ele>
        <time>2022-09-28T15:11:15Z</time>
      </trkpt>
      <trkpt lat="43.20604" lon="5.67205">
        <ele>212.1</ele>
        <time>2022-09-28T15:11:27Z</time>
      </trkpt>
      <trkpt lat="43.20592" lon="5.67213">
        <ele>210.3</ele>
        <time>2022-09-28T15:11:39Z</time>
      </trkpt>
      <trkpt lat="43.20582" lon="5.67221">
        <ele>208.7</ele>
        <time>2022-09-28T15:11:51Z</time>
      </trkpt>
      <trkpt lat="43.20571" lon="5.67228">
        <ele>207.2</ele>
        <time>2022-09-28T15:12:01Z</time>
      </trkpt>
      <trkpt lat="43.2056" lon="5.6723">
        <ele>205.7</ele>
        <time>2022-09-28T15:12:11Z</time>
      </trkpt>
      <trkpt lat="43.20552" lon="5.67236">
        <ele>204.4</ele>
        <time>2022-09-28T15:12:19Z</time>
      </trkpt>
      <trkpt lat="43.20543" lon="5.67244">
        <ele>203.4</ele>
        <time>2022-09-28T15:12:27Z</time>
      </trkpt>
      <trkpt lat="43.20534" lon="5.67253">
        <ele>202.6</ele>
        <time>2022-09-28T15:12:37Z</time>
      </trkpt>
      <trkpt lat="43.20522" lon="5.67258">
        <ele>201.2</ele>
        <time>2022-09-28T15:12:49Z</time>
      </trkpt>
      <trkpt lat="43.20513" lon="5.67261">
        <ele>199.9</ele>
        <time>2022-09-28T15:12:57Z</time>
      </trkpt>
      <trkpt lat="43.20503" lon="5.67267">
        <ele>198.5</ele>
        <time>2022-09-28T15:13:05Z</time>
      </trkpt>
      <trkpt lat="43.2049" lon="5.67272">
        <ele>196.8</ele>
        <time>2022-09-28T15:13:17Z</time>
      </trkpt>
      <trkpt lat="43.20479" lon="5.67276">
        <ele>195.6</ele>
        <time>2022-09-28T15:13:27Z</time>
      </trkpt>
      <trkpt lat="43.20469" lon="5.67282">
        <ele>194.2</ele>
        <time>2022-09-28T15:13:37Z</time>
      </trkpt>
      <trkpt lat="43.20461" lon="5.67289">
        <ele>192.5</ele>
        <time>2022-09-28T15:13:45Z</time>
      </trkpt>
      <trkpt lat="43.20454" lon="5.67299">
        <ele>191.3</ele>
        <time>2022-09-28T15:13:53Z</time>
      </trkpt>
      <trkpt lat="43.20448" lon="5.67314">
        <ele>190.5</ele>
        <time>2022-09-28T15:14:05Z</time>
      </trkpt>
      <trkpt lat="43.20442" lon="5.67326">
        <ele>189.4</ele>
        <time>2022-09-28T15:14:13Z</time>
      </trkpt>
      <trkpt lat="43.20433" lon="5.67328">
        <ele>187.4</ele>
        <time>2022-09-28T15:14:25Z</time>
      </trkpt>
      <trkpt lat="43.20423" lon="5.67325">
        <ele>185.2</ele>
        <time>2022-09-28T15:14:35Z</time>
      </trkpt>
      <trkpt lat="43.2042" lon="5.67311">
        <ele>184</ele>
        <time>2022-09-28T15:14:45Z</time>
      </trkpt>
      <trkpt lat="43.20418" lon="5.67299">
        <ele>183</ele>
        <time>2022-09-28T15:15:27Z</time>
      </trkpt>
      <trkpt lat="43.20419" lon="5.67282">
        <ele>182.6</ele>
        <time>2022-09-28T15:16:33Z</time>
      </trkpt>
      <trkpt lat="43.20419" lon="5.67267">
        <ele>181.8</ele>
        <time>2022-09-28T15:16:45Z</time>
      </trkpt>
      <trkpt lat="43.20421" lon="5.67252">
        <ele>181.1</ele>
        <time>2022-09-28T15:16:55Z</time>
      </trkpt>
      <trkpt lat="43.20423" lon="5.67236">
        <ele>180.1</ele>
        <time>2022-09-28T15:17:07Z</time>
      </trkpt>
      <trkpt lat="43.20422" lon="5.6722">
        <ele>178.7</ele>
        <time>2022-09-28T15:17:19Z</time>
      </trkpt>
      <trkpt lat="43.20425" lon="5.67204">
        <ele>177.3</ele>
        <time>2022-09-28T15:17:31Z</time>
      </trkpt>
      <trkpt lat="43.20431" lon="5.67191">
        <ele>176.8</ele>
        <time>2022-09-28T15:17:43Z</time>
      </trkpt>
      <trkpt lat="43.20423" lon="5.6718">
        <ele>175.1</ele>
        <time>2022-09-28T15:17:53Z</time>
      </trkpt>
      <trkpt lat="43.20413" lon="5.67175">
        <ele>173.9</ele>
        <time>2022-09-28T15:18:01Z</time>
      </trkpt>
      <trkpt lat="43.20403" lon="5.67171">
        <ele>172.7</ele>
        <time>2022-09-28T15:18:09Z</time>
      </trkpt>
      <trkpt lat="43.20403" lon="5.67165">
        <ele>172.4</ele>
        <time>2022-09-28T15:18:31Z</time>
      </trkpt>
      <trkpt lat="43.20412" lon="5.67168">
        <ele>173.5</ele>
        <time>2022-09-28T15:18:43Z</time>
      </trkpt>
      <trkpt lat="43.20422" lon="5.67172">
        <ele>174.7</ele>
        <time>2022-09-28T15:18:53Z</time>
      </trkpt>
      <trkpt lat="43.2043" lon="5.67181">
        <ele>176</ele>
        <time>2022-09-28T15:19:07Z</time>
      </trkpt>
      <trkpt lat="43.20439" lon="5.6719">
        <ele>177.8</ele>
        <time>2022-09-28T15:19:19Z</time>
      </trkpt>
      <trkpt lat="43.20449" lon="5.67192">
        <ele>179.5</ele>
        <time>2022-09-28T15:19:31Z</time>
      </trkpt>
      <trkpt lat="43.20459" lon="5.67183">
        <ele>180</ele>
        <time>2022-09-28T15:19:41Z</time>
      </trkpt>
      <trkpt lat="43.20468" lon="5.67175">
        <ele>180</ele>
        <time>2022-09-28T15:19:51Z</time>
      </trkpt>
      <trkpt lat="43.20475" lon="5.67166">
        <ele>179.5</ele>
        <time>2022-09-28T15:19:59Z</time>
      </trkpt>
      <trkpt lat="43.20483" lon="5.67156">
        <ele>179.7</ele>
        <time>2022-09-28T15:20:11Z</time>
      </trkpt>
      <trkpt lat="43.20493" lon="5.67147">
        <ele>180.1</ele>
        <time>2022-09-28T15:20:21Z</time>
      </trkpt>
      <trkpt lat="43.205" lon="5.67135">
        <ele>179.6</ele>
        <time>2022-09-28T15:20:33Z</time>
      </trkpt>
      <trkpt lat="43.20506" lon="5.6712">
        <ele>179.1</ele>
        <time>2022-09-28T15:20:45Z</time>
      </trkpt>
      <trkpt lat="43.20513" lon="5.67106">
        <ele>179.2</ele>
        <time>2022-09-28T15:20:57Z</time>
      </trkpt>
      <trkpt lat="43.2052" lon="5.67094">
        <ele>179.9</ele>
        <time>2022-09-28T15:21:09Z</time>
      </trkpt>
      <trkpt lat="43.20524" lon="5.67077">
        <ele>180.4</ele>
        <time>2022-09-28T15:21:21Z</time>
      </trkpt>
      <trkpt lat="43.20519" lon="5.67061">
        <ele>180.2</ele>
        <time>2022-09-28T15:21:35Z</time>
      </trkpt>
      <trkpt lat="43.2051" lon="5.6705">
        <ele>180.1</ele>
        <time>2022-09-28T15:21:43Z</time>
      </trkpt>
      <trkpt lat="43.20506" lon="5.67036">
        <ele>180.5</ele>
        <time>2022-09-28T15:21:53Z</time>
      </trkpt>
      <trkpt lat="43.20506" lon="5.67023">
        <ele>181</ele>
        <time>2022-09-28T15:22:05Z</time>
      </trkpt>
      <trkpt lat="43.20504" lon="5.67008">
        <ele>181.3</ele>
        <time>2022-09-28T15:22:21Z</time>
      </trkpt>
      <trkpt lat="43.20503" lon="5.66991">
        <ele>181.8</ele>
        <time>2022-09-28T15:22:31Z</time>
      </trkpt>
      <trkpt lat="43.20505" lon="5.66978">
        <ele>182.7</ele>
        <time>2022-09-28T15:22:39Z</time>
      </trkpt>
      <trkpt lat="43.20509" lon="5.66962">
        <ele>183.9</ele>
        <time>2022-09-28T15:22:51Z</time>
      </trkpt>
      <trkpt lat="43.20509" lon="5.66948">
        <ele>184.1</ele>
        <time>2022-09-28T15:23:01Z</time>
      </trkpt>
      <trkpt lat="43.20508" lon="5.66933">
        <ele>184.2</ele>
        <time>2022-09-28T15:23:11Z</time>
      </trkpt>
      <trkpt lat="43.20507" lon="5.6692">
        <ele>184</ele>
        <time>2022-09-28T15:23:23Z</time>
      </trkpt>
      <trkpt lat="43.20508" lon="5.66902">
        <ele>183.2</ele>
        <time>2022-09-28T15:23:41Z</time>
      </trkpt>
      <trkpt lat="43.2051" lon="5.66887">
        <ele>182.8</ele>
        <time>2022-09-28T15:23:53Z</time>
      </trkpt>
      <trkpt lat="43.20514" lon="5.66886">
        <ele>183.3</ele>
        <time>2022-09-28T15:24:17Z</time>
      </trkpt>
      <trkpt lat="43.20517" lon="5.66872">
        <ele>183.5</ele>
        <time>2022-09-28T15:24:47Z</time>
      </trkpt>
      <trkpt lat="43.20518" lon="5.66857">
        <ele>183.3</ele>
        <time>2022-09-28T15:25:01Z</time>
      </trkpt>
      <trkpt lat="43.2052" lon="5.66841">
        <ele>184</ele>
        <time>2022-09-28T15:25:07Z</time>
      </trkpt>
      <trkpt lat="43.20522" lon="5.66826">
        <ele>184.7</ele>
        <time>2022-09-28T15:25:21Z</time>
      </trkpt>
      <trkpt lat="43.20523" lon="5.66811">
        <ele>185.4</ele>
        <time>2022-09-28T15:25:33Z</time>
      </trkpt>
      <trkpt lat="43.20513" lon="5.66774">
        <ele>187.1</ele>
        <time>2022-09-28T15:26:15Z</time>
      </trkpt>
      <trkpt lat="43.20505" lon="5.66765">
        <ele>187.4</ele>
        <time>2022-09-28T15:26:38Z</time>
      </trkpt>
      <trkpt lat="43.20498" lon="5.66752">
        <ele>187.8</ele>
        <time>2022-09-28T15:26:54Z</time>
      </trkpt>
      <trkpt lat="43.20494" lon="5.66737">
        <ele>187.7</ele>
        <time>2022-09-28T15:27:06Z</time>
      </trkpt>
      <trkpt lat="43.20493" lon="5.6672">
        <ele>187.9</ele>
        <time>2022-09-28T15:27:18Z</time>
      </trkpt>
      <trkpt lat="43.20486" lon="5.66711">
        <ele>188.3</ele>
        <time>2022-09-28T15:27:30Z</time>
      </trkpt>
      <trkpt lat="43.20476" lon="5.66713">
        <ele>187.8</ele>
        <time>2022-09-28T15:27:42Z</time>
      </trkpt>
      <trkpt lat="43.20467" lon="5.66716">
        <ele>186.9</ele>
        <time>2022-09-28T15:28:12Z</time>
      </trkpt>
      <trkpt lat="43.20457" lon="5.66723">
        <ele>185.2</ele>
        <time>2022-09-28T15:29:12Z</time>
      </trkpt>
      <trkpt lat="43.20445" lon="5.6673">
        <ele>183.3</ele>
        <time>2022-09-28T15:29:24Z</time>
      </trkpt>
      <trkpt lat="43.20434" lon="5.66733">
        <ele>182.3</ele>
        <time>2022-09-28T15:29:34Z</time>
      </trkpt>
      <trkpt lat="43.20424" lon="5.66738">
        <ele>181.1</ele>
        <time>2022-09-28T15:29:44Z</time>
      </trkpt>
      <trkpt lat="43.20411" lon="5.66744">
        <ele>179.6</ele>
        <time>2022-09-28T15:29:56Z</time>
      </trkpt>
      <trkpt lat="43.20401" lon="5.66746">
        <ele>178.9</ele>
        <time>2022-09-28T15:30:06Z</time>
      </trkpt>
      <trkpt lat="43.2039" lon="5.66746">
        <ele>178.5</ele>
        <time>2022-09-28T15:30:16Z</time>
      </trkpt>
      <trkpt lat="43.20378" lon="5.66747">
        <ele>177.1</ele>
        <time>2022-09-28T15:30:28Z</time>
      </trkpt>
      <trkpt lat="43.20368" lon="5.6675">
        <ele>175.7</ele>
        <time>2022-09-28T15:30:38Z</time>
      </trkpt>
      <trkpt lat="43.20356" lon="5.66745">
        <ele>175.1</ele>
        <time>2022-09-28T15:30:50Z</time>
      </trkpt>
      <trkpt lat="43.20347" lon="5.66737">
        <ele>174.9</ele>
        <time>2022-09-28T15:31:00Z</time>
      </trkpt>
      <trkpt lat="43.20342" lon="5.66724">
        <ele>175.2</ele>
        <time>2022-09-28T15:31:10Z</time>
      </trkpt>
      <trkpt lat="43.20339" lon="5.66709">
        <ele>174.8</ele>
        <time>2022-09-28T15:31:22Z</time>
      </trkpt>
      <trkpt lat="43.20337" lon="5.66694">
        <ele>174.7</ele>
        <time>2022-09-28T15:31:34Z</time>
      </trkpt>
      <trkpt lat="43.20336" lon="5.66677">
        <ele>174.5</ele>
        <time>2022-09-28T15:31:46Z</time>
      </trkpt>
      <trkpt lat="43.20334" lon="5.66662">
        <ele>174.3</ele>
        <time>2022-09-28T15:31:56Z</time>
      </trkpt>
      <trkpt lat="43.20331" lon="5.66649">
        <ele>174.7</ele>
        <time>2022-09-28T15:32:06Z</time>
      </trkpt>
      <trkpt lat="43.2033" lon="5.66631">
        <ele>175.2</ele>
        <time>2022-09-28T15:32:18Z</time>
      </trkpt>
      <trkpt lat="43.20331" lon="5.66614">
        <ele>175.9</ele>
        <time>2022-09-28T15:32:30Z</time>
      </trkpt>
      <trkpt lat="43.2033" lon="5.66597">
        <ele>176.5</ele>
        <time>2022-09-28T15:32:42Z</time>
      </trkpt>
      <trkpt lat="43.2033" lon="5.66581">
        <ele>176.7</ele>
        <time>2022-09-28T15:32:54Z</time>
      </trkpt>
      <trkpt lat="43.20334" lon="5.66565">
        <ele>176.1</ele>
        <time>2022-09-28T15:33:06Z</time>
      </trkpt>
      <trkpt lat="43.20336" lon="5.66549">
        <ele>175.4</ele>
        <time>2022-09-28T15:33:16Z</time>
      </trkpt>
      <trkpt lat="43.20335" lon="5.66534">
        <ele>174.6</ele>
        <time>2022-09-28T15:33:26Z</time>
      </trkpt>
      <trkpt lat="43.20332" lon="5.66519">
        <ele>173.7</ele>
        <time>2022-09-28T15:33:36Z</time>
      </trkpt>
      <trkpt lat="43.2033" lon="5.66502">
        <ele>173.4</ele>
        <time>2022-09-28T15:33:48Z</time>
      </trkpt>
      <trkpt lat="43.20332" lon="5.66488">
        <ele>173.8</ele>
        <time>2022-09-28T15:33:58Z</time>
      </trkpt>
      <trkpt lat="43.2034" lon="5.66477">
        <ele>175.2</ele>
        <time>2022-09-28T15:34:12Z</time>
      </trkpt>
      <trkpt lat="43.20347" lon="5.66469">
        <ele>176.5</ele>
        <time>2022-09-28T15:34:24Z</time>
      </trkpt>
      <trkpt lat="43.20351" lon="5.66454">
        <ele>177</ele>
        <time>2022-09-28T15:34:36Z</time>
      </trkpt>
      <trkpt lat="43.20349" lon="5.66439">
        <ele>176.6</ele>
        <time>2022-09-28T15:34:48Z</time>
      </trkpt>
      <trkpt lat="43.20341" lon="5.66426">
        <ele>175.8</ele>
        <time>2022-09-28T15:35:00Z</time>
      </trkpt>
      <trkpt lat="43.20335" lon="5.66414">
        <ele>175.2</ele>
        <time>2022-09-28T15:35:10Z</time>
      </trkpt>
      <trkpt lat="43.20328" lon="5.66402">
        <ele>174.5</ele>
        <time>2022-09-28T15:35:20Z</time>
      </trkpt>
      <trkpt lat="43.20324" lon="5.66387">
        <ele>174</ele>
        <time>2022-09-28T15:35:30Z</time>
      </trkpt>
      <trkpt lat="43.20316" lon="5.66379">
        <ele>173.1</ele>
        <time>2022-09-28T15:35:42Z</time>
      </trkpt>
      <trkpt lat="43.20305" lon="5.66378">
        <ele>172</ele>
        <time>2022-09-28T15:35:54Z</time>
      </trkpt>
      <trkpt lat="43.20295" lon="5.66376">
        <ele>170.9</ele>
        <time>2022-09-28T15:36:12Z</time>
      </trkpt>
      <trkpt lat="43.20284" lon="5.66369">
        <ele>169.7</ele>
        <time>2022-09-28T15:36:24Z</time>
      </trkpt>
      <trkpt lat="43.20275" lon="5.66359">
        <ele>168.5</ele>
        <time>2022-09-28T15:36:36Z</time>
      </trkpt>
      <trkpt lat="43.20264" lon="5.66352">
        <ele>166.5</ele>
        <time>2022-09-28T15:36:48Z</time>
      </trkpt>
      <trkpt lat="43.20251" lon="5.66346">
        <ele>164.6</ele>
        <time>2022-09-28T15:37:00Z</time>
      </trkpt>
      <trkpt lat="43.20241" lon="5.66341">
        <ele>163.2</ele>
        <time>2022-09-28T15:37:10Z</time>
      </trkpt>
      <trkpt lat="43.2023" lon="5.66339">
        <ele>161.9</ele>
        <time>2022-09-28T15:37:18Z</time>
      </trkpt>
      <trkpt lat="43.20217" lon="5.66337">
        <ele>160.5</ele>
        <time>2022-09-28T15:37:30Z</time>
      </trkpt>
      <trkpt lat="43.20207" lon="5.66332">
        <ele>159.4</ele>
        <time>2022-09-28T15:37:40Z</time>
      </trkpt>
      <trkpt lat="43.20196" lon="5.66328">
        <ele>158.4</ele>
        <time>2022-09-28T15:37:50Z</time>
      </trkpt>
      <trkpt lat="43.20185" lon="5.66329">
        <ele>157.4</ele>
        <time>2022-09-28T15:38:00Z</time>
      </trkpt>
      <trkpt lat="43.20173" lon="5.66329">
        <ele>156.5</ele>
        <time>2022-09-28T15:38:12Z</time>
      </trkpt>
      <trkpt lat="43.20161" lon="5.66328">
        <ele>155.4</ele>
        <time>2022-09-28T15:38:22Z</time>
      </trkpt>
      <trkpt lat="43.2015" lon="5.66323">
        <ele>154.2</ele>
        <time>2022-09-28T15:38:34Z</time>
      </trkpt>
      <trkpt lat="43.20139" lon="5.66319">
        <ele>153</ele>
        <time>2022-09-28T15:38:44Z</time>
      </trkpt>
      <trkpt lat="43.20128" lon="5.66315">
        <ele>152.2</ele>
        <time>2022-09-28T15:38:54Z</time>
      </trkpt>
      <trkpt lat="43.20117" lon="5.66309">
        <ele>151.5</ele>
        <time>2022-09-28T15:39:06Z</time>
      </trkpt>
      <trkpt lat="43.20114" lon="5.66296">
        <ele>150.9</ele>
        <time>2022-09-28T15:39:18Z</time>
      </trkpt>
      <trkpt lat="43.20103" lon="5.66288">
        <ele>149.4</ele>
        <time>2022-09-28T15:39:30Z</time>
      </trkpt>
      <trkpt lat="43.20094" lon="5.66282">
        <ele>147.8</ele>
        <time>2022-09-28T15:39:40Z</time>
      </trkpt>
      <trkpt lat="43.20083" lon="5.66278">
        <ele>146</ele>
        <time>2022-09-28T15:39:54Z</time>
      </trkpt>
      <trkpt lat="43.20073" lon="5.66282">
        <ele>145.2</ele>
        <time>2022-09-28T15:40:06Z</time>
      </trkpt>
      <trkpt lat="43.20063" lon="5.66273">
        <ele>143.3</ele>
        <time>2022-09-28T15:41:32Z</time>
      </trkpt>
      <trkpt lat="43.20054" lon="5.66268">
        <ele>141.9</ele>
        <time>2022-09-28T15:41:42Z</time>
      </trkpt>
      <trkpt lat="43.20043" lon="5.66263">
        <ele>140.8</ele>
        <time>2022-09-28T15:41:52Z</time>
      </trkpt>
      <trkpt lat="43.20032" lon="5.66258">
        <ele>139.8</ele>
        <time>2022-09-28T15:42:04Z</time>
      </trkpt>
      <trkpt lat="43.20022" lon="5.66254">
        <ele>138.9</ele>
        <time>2022-09-28T15:42:16Z</time>
      </trkpt>
      <trkpt lat="43.2001" lon="5.6625">
        <ele>137.7</ele>
        <time>2022-09-28T15:42:28Z</time>
      </trkpt>
      <trkpt lat="43.2" lon="5.66247">
        <ele>136.8</ele>
        <time>2022-09-28T15:42:38Z</time>
      </trkpt>
      <trkpt lat="43.19989" lon="5.66242">
        <ele>135.9</ele>
        <time>2022-09-28T15:42:50Z</time>
      </trkpt>
      <trkpt lat="43.19981" lon="5.66233">
        <ele>135</ele>
        <time>2022-09-28T15:43:02Z</time>
      </trkpt>
      <trkpt lat="43.19974" lon="5.66221">
        <ele>134.1</ele>
        <time>2022-09-28T15:43:14Z</time>
      </trkpt>
      <trkpt lat="43.19965" lon="5.66213">
        <ele>133</ele>
        <time>2022-09-28T15:43:24Z</time>
      </trkpt>
      <trkpt lat="43.19953" lon="5.66205">
        <ele>131.6</ele>
        <time>2022-09-28T15:43:36Z</time>
      </trkpt>
      <trkpt lat="43.19942" lon="5.66201">
        <ele>130.3</ele>
        <time>2022-09-28T15:43:48Z</time>
      </trkpt>
      <trkpt lat="43.19931" lon="5.66202">
        <ele>129.4</ele>
        <time>2022-09-28T15:44:00Z</time>
      </trkpt>
      <trkpt lat="43.1992" lon="5.66201">
        <ele>128.5</ele>
        <time>2022-09-28T15:44:12Z</time>
      </trkpt>
      <trkpt lat="43.19909" lon="5.66203">
        <ele>127.5</ele>
        <time>2022-09-28T15:44:24Z</time>
      </trkpt>
      <trkpt lat="43.19897" lon="5.66202">
        <ele>126.1</ele>
        <time>2022-09-28T15:44:36Z</time>
      </trkpt>
      <trkpt lat="43.19884" lon="5.66203">
        <ele>124.8</ele>
        <time>2022-09-28T15:44:48Z</time>
      </trkpt>
      <trkpt lat="43.19872" lon="5.66203">
        <ele>123.4</ele>
        <time>2022-09-28T15:45:00Z</time>
      </trkpt>
      <trkpt lat="43.1986" lon="5.66204">
        <ele>122.3</ele>
        <time>2022-09-28T15:45:12Z</time>
      </trkpt>
      <trkpt lat="43.19849" lon="5.66203">
        <ele>121.2</ele>
        <time>2022-09-28T15:45:24Z</time>
      </trkpt>
      <trkpt lat="43.19837" lon="5.66203">
        <ele>120</ele>
        <time>2022-09-28T15:45:36Z</time>
      </trkpt>
      <trkpt lat="43.19827" lon="5.66197">
        <ele>118.7</ele>
        <time>2022-09-28T15:45:48Z</time>
      </trkpt>
      <trkpt lat="43.19817" lon="5.66188">
        <ele>117.2</ele>
        <time>2022-09-28T15:46:00Z</time>
      </trkpt>
      <trkpt lat="43.19805" lon="5.66184">
        <ele>115.9</ele>
        <time>2022-09-28T15:46:12Z</time>
      </trkpt>
      <trkpt lat="43.19795" lon="5.66179">
        <ele>114.4</ele>
        <time>2022-09-28T15:46:22Z</time>
      </trkpt>
      <trkpt lat="43.19784" lon="5.66173">
        <ele>112.9</ele>
        <time>2022-09-28T15:46:34Z</time>
      </trkpt>
      <trkpt lat="43.19772" lon="5.66172">
        <ele>112</ele>
        <time>2022-09-28T15:46:46Z</time>
      </trkpt>
      <trkpt lat="43.1976" lon="5.6617">
        <ele>111</ele>
        <time>2022-09-28T15:46:58Z</time>
      </trkpt>
      <trkpt lat="43.19751" lon="5.66166">
        <ele>110.1</ele>
        <time>2022-09-28T15:47:06Z</time>
      </trkpt>
      <trkpt lat="43.19742" lon="5.66163">
        <ele>109.2</ele>
        <time>2022-09-28T15:47:14Z</time>
      </trkpt>
      <trkpt lat="43.19734" lon="5.66158">
        <ele>108.2</ele>
        <time>2022-09-28T15:47:24Z</time>
      </trkpt>
      <trkpt lat="43.19723" lon="5.66155">
        <ele>107.2</ele>
        <time>2022-09-28T15:47:34Z</time>
      </trkpt>
      <trkpt lat="43.19714" lon="5.66153">
        <ele>106.2</ele>
        <time>2022-09-28T15:47:42Z</time>
      </trkpt>
      <trkpt lat="43.19703" lon="5.66151">
        <ele>105.1</ele>
        <time>2022-09-28T15:47:52Z</time>
      </trkpt>
      <trkpt lat="43.19692" lon="5.66145">
        <ele>104</ele>
        <time>2022-09-28T15:48:04Z</time>
      </trkpt>
      <trkpt lat="43.19682" lon="5.66138">
        <ele>102.6</ele>
        <time>2022-09-28T15:48:16Z</time>
      </trkpt>
      <trkpt lat="43.19672" lon="5.66131">
        <ele>101.3</ele>
        <time>2022-09-28T15:48:26Z</time>
      </trkpt>
      <trkpt lat="43.19662" lon="5.66123">
        <ele>100</ele>
        <time>2022-09-28T15:48:38Z</time>
      </trkpt>
      <trkpt lat="43.19651" lon="5.66119">
        <ele>99</ele>
        <time>2022-09-28T15:48:48Z</time>
      </trkpt>
      <trkpt lat="43.19641" lon="5.66117">
        <ele>98.2</ele>
        <time>2022-09-28T15:48:56Z</time>
      </trkpt>
      <trkpt lat="43.19631" lon="5.66116">
        <ele>97.2</ele>
        <time>2022-09-28T15:49:04Z</time>
      </trkpt>
      <trkpt lat="43.19621" lon="5.66109">
        <ele>95.9</ele>
        <time>2022-09-28T15:49:16Z</time>
      </trkpt>
      <trkpt lat="43.1961" lon="5.66103">
        <ele>94.6</ele>
        <time>2022-09-28T15:49:28Z</time>
      </trkpt>
      <trkpt lat="43.19596" lon="5.661">
        <ele>93.5</ele>
        <time>2022-09-28T15:49:40Z</time>
      </trkpt>
      <trkpt lat="43.19586" lon="5.66099">
        <ele>92.7</ele>
        <time>2022-09-28T15:49:54Z</time>
      </trkpt>
      <trkpt lat="43.19576" lon="5.66094">
        <ele>91.8</ele>
        <time>2022-09-28T15:50:04Z</time>
      </trkpt>
      <trkpt lat="43.19566" lon="5.66092">
        <ele>90.8</ele>
        <time>2022-09-28T15:50:14Z</time>
      </trkpt>
      <trkpt lat="43.19554" lon="5.66093">
        <ele>89.9</ele>
        <time>2022-09-28T15:50:24Z</time>
      </trkpt>
      <trkpt lat="43.19542" lon="5.6609">
        <ele>88.5</ele>
        <time>2022-09-28T15:50:36Z</time>
      </trkpt>
      <trkpt lat="43.19532" lon="5.66086">
        <ele>87.5</ele>
        <time>2022-09-28T15:50:46Z</time>
      </trkpt>
      <trkpt lat="43.1952" lon="5.6608">
        <ele>86</ele>
        <time>2022-09-28T15:50:58Z</time>
      </trkpt>
      <trkpt lat="43.1951" lon="5.66076">
        <ele>84.8</ele>
        <time>2022-09-28T15:51:06Z</time>
      </trkpt>
      <trkpt lat="43.19501" lon="5.66072">
        <ele>83.7</ele>
        <time>2022-09-28T15:51:14Z</time>
      </trkpt>
      <trkpt lat="43.19491" lon="5.66068">
        <ele>82.8</ele>
        <time>2022-09-28T15:51:24Z</time>
      </trkpt>
      <trkpt lat="43.19479" lon="5.66069">
        <ele>82</ele>
        <time>2022-09-28T15:51:34Z</time>
      </trkpt>
      <trkpt lat="43.19469" lon="5.66067">
        <ele>81.2</ele>
        <time>2022-09-28T15:51:42Z</time>
      </trkpt>
      <trkpt lat="43.19459" lon="5.66064">
        <ele>80.2</ele>
        <time>2022-09-28T15:51:50Z</time>
      </trkpt>
      <trkpt lat="43.19449" lon="5.66062">
        <ele>79.4</ele>
        <time>2022-09-28T15:51:58Z</time>
      </trkpt>
      <trkpt lat="43.19438" lon="5.66063">
        <ele>78.5</ele>
        <time>2022-09-28T15:52:08Z</time>
      </trkpt>
      <trkpt lat="43.19427" lon="5.6606">
        <ele>77.7</ele>
        <time>2022-09-28T15:52:18Z</time>
      </trkpt>
      <trkpt lat="43.19417" lon="5.66057">
        <ele>77</ele>
        <time>2022-09-28T15:52:26Z</time>
      </trkpt>
      <trkpt lat="43.19406" lon="5.66056">
        <ele>76.2</ele>
        <time>2022-09-28T15:52:34Z</time>
      </trkpt>
      <trkpt lat="43.19396" lon="5.66057">
        <ele>75.5</ele>
        <time>2022-09-28T15:52:42Z</time>
      </trkpt>
      <trkpt lat="43.19386" lon="5.66058">
        <ele>74.6</ele>
        <time>2022-09-28T15:52:50Z</time>
      </trkpt>
      <trkpt lat="43.19377" lon="5.66058">
        <ele>73.6</ele>
        <time>2022-09-28T15:52:58Z</time>
      </trkpt>
      <trkpt lat="43.19367" lon="5.66058">
        <ele>72.7</ele>
        <time>2022-09-28T15:53:06Z</time>
      </trkpt>
      <trkpt lat="43.19356" lon="5.6606">
        <ele>71.6</ele>
        <time>2022-09-28T15:53:16Z</time>
      </trkpt>
      <trkpt lat="43.19345" lon="5.6606">
        <ele>70.7</ele>
        <time>2022-09-28T15:53:28Z</time>
      </trkpt>
      <trkpt lat="43.19334" lon="5.66059">
        <ele>69.9</ele>
        <time>2022-09-28T15:53:38Z</time>
      </trkpt>
      <trkpt lat="43.19322" lon="5.66054">
        <ele>68.6</ele>
        <time>2022-09-28T15:53:50Z</time>
      </trkpt>
      <trkpt lat="43.19313" lon="5.66048">
        <ele>67.1</ele>
        <time>2022-09-28T15:53:58Z</time>
      </trkpt>
      <trkpt lat="43.19302" lon="5.66044">
        <ele>65.4</ele>
        <time>2022-09-28T15:54:08Z</time>
      </trkpt>
      <trkpt lat="43.1929" lon="5.66041">
        <ele>63.8</ele>
        <time>2022-09-28T15:54:18Z</time>
      </trkpt>
      <trkpt lat="43.19281" lon="5.66041">
        <ele>62.7</ele>
        <time>2022-09-28T15:54:26Z</time>
      </trkpt>
      <trkpt lat="43.19269" lon="5.66042">
        <ele>61.8</ele>
        <time>2022-09-28T15:54:38Z</time>
      </trkpt>
      <trkpt lat="43.19258" lon="5.66044">
        <ele>61</ele>
        <time>2022-09-28T15:54:50Z</time>
      </trkpt>
      <trkpt lat="43.19248" lon="5.66042">
        <ele>60.1</ele>
        <time>2022-09-28T15:55:02Z</time>
      </trkpt>
      <trkpt lat="43.19243" lon="5.6603">
        <ele>59.4</ele>
        <time>2022-09-28T15:55:14Z</time>
      </trkpt>
      <trkpt lat="43.19238" lon="5.66017">
        <ele>57.5</ele>
        <time>2022-09-28T15:55:26Z</time>
      </trkpt>
      <trkpt lat="43.19233" lon="5.66001">
        <ele>55.9</ele>
        <time>2022-09-28T15:55:38Z</time>
      </trkpt>
      <trkpt lat="43.1923" lon="5.65986">
        <ele>55.4</ele>
        <time>2022-09-28T15:55:48Z</time>
      </trkpt>
      <trkpt lat="43.19229" lon="5.65971">
        <ele>54.8</ele>
        <time>2022-09-28T15:55:58Z</time>
      </trkpt>
      <trkpt lat="43.19226" lon="5.65954">
        <ele>57.2</ele>
        <time>2022-09-28T15:56:10Z</time>
      </trkpt>
      <trkpt lat="43.1922" lon="5.6594">
        <ele>59.2</ele>
        <time>2022-09-28T15:56:22Z</time>
      </trkpt>
      <trkpt lat="43.19217" lon="5.65924">
        <ele>59.5</ele>
        <time>2022-09-28T15:56:34Z</time>
      </trkpt>
      <trkpt lat="43.19214" lon="5.65907">
        <ele>59.9</ele>
        <time>2022-09-28T15:56:46Z</time>
      </trkpt>
      <trkpt lat="43.19213" lon="5.65892">
        <ele>60</ele>
        <time>2022-09-28T15:56:56Z</time>
      </trkpt>
      <trkpt lat="43.1921" lon="5.65877">
        <ele>59.1</ele>
        <time>2022-09-28T15:57:06Z</time>
      </trkpt>
      <trkpt lat="43.19207" lon="5.65865">
        <ele>58.6</ele>
        <time>2022-09-28T15:57:14Z</time>
      </trkpt>
      <trkpt lat="43.19204" lon="5.65853">
        <ele>59.3</ele>
        <time>2022-09-28T15:57:22Z</time>
      </trkpt>
      <trkpt lat="43.19201" lon="5.65838">
        <ele>60.2</ele>
        <time>2022-09-28T15:57:34Z</time>
      </trkpt>
      <trkpt lat="43.19199" lon="5.65824">
        <ele>61.1</ele>
        <time>2022-09-28T15:57:48Z</time>
      </trkpt>
      <trkpt lat="43.19197" lon="5.65809">
        <ele>62.3</ele>
        <time>2022-09-28T15:58:00Z</time>
      </trkpt>
      <trkpt lat="43.19195" lon="5.65796">
        <ele>63.2</ele>
        <time>2022-09-28T15:58:50Z</time>
      </trkpt>
    </trkseg>
  </trk>
</gpx>